PWSweather.com
Personal Weather Stations
Station Observations
DELRAY
Delray, Delray Beach, FL 33445

DelrayDelray Beach, FL 33445

Lat: 26.468, Lon: -80.094

Elevation: 30

Station Type: Acurite 01035

High Low Average
Temperature 72.1°F22.3°C 51.6°F10.9°C 60.2°F15.7°C
Dew Point 52.7°F11.5°C 35.4°F1.9°C 45.2°F7.3°C
Winds 13.5 mph 21.7 kmh Calm Calm 4.0 mph WSW6.4 kmh WSW
Wind Gusts 13.5 mph21.7 kmh -- 6.0 mph9.7 kmh
Humidity 84% 36% 59%
Pressure 30.18 in1022.0 mb 30.09 in1019.0 mb -
Precipitation 0.00 in0.0 mm - -
Hour Temp Dew Point Humidity Winds Wind Gusts Pressure Precip Precip Rate Daily Precip Total
12:00 AM 57.4°F14.1°C 44.9°F7.2°C 63% 5.8 mph W9.3 kmh W 7.8 mph12.6 kmh 30.10 in1019.3 mb 0.00 in0.0 mm 0.00 in0.0 mm 0.00 in0.0 mm
12:01 AM 57.2°F14.0°C 44.7°F7.1°C 63% 6.3 mph WNW10.1 kmh WNW 7.8 mph12.6 kmh 30.10 in1019.3 mb 0.00 in0.0 mm 0.00 in0.0 mm 0.00 in0.0 mm
12:02 AM 57.2°F14.0°C 44.7°F7.1°C 63% 6.3 mph WNW10.1 kmh WNW 7.8 mph12.6 kmh 30.10 in1019.3 mb 0.00 in0.0 mm 0.00 in0.0 mm 0.00 in0.0 mm
12:03 AM 57.2°F14.0°C 44.7°F7.1°C 63% 6.3 mph NW10.1 kmh NW 8.3 mph13.4 kmh 30.10 in1019.3 mb 0.00 in0.0 mm 0.00 in0.0 mm 0.00 in0.0 mm
12:04 AM 57.2°F14.0°C 44.7°F7.1°C 63% 3.2 mph WNW5.1 kmh WNW 8.3 mph13.4 kmh 30.10 in1019.3 mb 0.00 in0.0 mm 0.00 in0.0 mm 0.00 in0.0 mm
12:05 AM 57.2°F14.0°C 44.7°F7.1°C 63% 3.7 mph W6.0 kmh W 8.3 mph13.4 kmh 30.10 in1019.3 mb 0.00 in0.0 mm 0.00 in0.0 mm 0.00 in0.0 mm
12:06 AM 57.2°F14.0°C 44.7°F7.1°C 63% 6.8 mph WNW10.9 kmh WNW 8.3 mph13.4 kmh 30.10 in1019.3 mb 0.00 in0.0 mm 0.00 in0.0 mm 0.00 in0.0 mm
12:07 AM 57.2°F14.0°C 44.7°F7.1°C 63% 8.9 mph NNW14.3 kmh NNW 8.9 mph14.3 kmh 30.10 in1019.3 mb 0.00 in0.0 mm 0.00 in0.0 mm 0.00 in0.0 mm
12:08 AM 57.2°F14.0°C 44.7°F7.1°C 63% 5.8 mph WNW9.3 kmh WNW 8.9 mph14.3 kmh 30.10 in1019.3 mb 0.00 in0.0 mm 0.00 in0.0 mm 0.00 in0.0 mm
12:09 AM 57.2°F14.0°C 45.1°F7.3°C 64% 4.7 mph WNW7.6 kmh WNW 8.9 mph14.3 kmh 30.10 in1019.3 mb 0.00 in0.0 mm 0.00 in0.0 mm 0.00 in0.0 mm
12:10 AM 57.0°F13.9°C 44.9°F7.2°C 64% 5.8 mph WNW9.3 kmh WNW 8.9 mph14.3 kmh 30.10 in1019.3 mb 0.00 in0.0 mm 0.00 in0.0 mm 0.00 in0.0 mm
12:11 AM 57.0°F13.9°C 44.9°F7.2°C 64% 5.3 mph WNW8.5 kmh WNW 8.9 mph14.3 kmh 30.10 in1019.3 mb 0.00 in0.0 mm 0.00 in0.0 mm 0.00 in0.0 mm
12:12 AM 57.0°F13.9°C 44.9°F7.2°C 64% 3.7 mph WNW6.0 kmh WNW 8.9 mph14.3 kmh 30.10 in1019.3 mb 0.00 in0.0 mm 0.00 in0.0 mm 0.00 in0.0 mm
12:13 AM 56.8°F13.8°C 44.8°F7.1°C 64% 5.3 mph W8.5 kmh W 8.9 mph14.3 kmh 30.10 in1019.3 mb 0.00 in0.0 mm 0.00 in0.0 mm 0.00 in0.0 mm
12:14 AM 56.8°F13.8°C 44.8°F7.1°C 64% 2.7 mph NNW4.3 kmh NNW 8.9 mph14.3 kmh 30.10 in1019.3 mb 0.00 in0.0 mm 0.00 in0.0 mm 0.00 in0.0 mm
12:15 AM 56.8°F13.8°C 45.2°F7.3°C 65% 4.2 mph WNW6.8 kmh WNW 8.9 mph14.3 kmh 30.10 in1019.3 mb 0.00 in0.0 mm 0.00 in0.0 mm 0.00 in0.0 mm
12:16 AM 56.8°F13.8°C 45.2°F7.3°C 65% 4.2 mph WNW6.8 kmh WNW 8.9 mph14.3 kmh 30.10 in1019.3 mb 0.00 in0.0 mm 0.00 in0.0 mm 0.00 in0.0 mm
12:17 AM 56.7°F13.7°C 45.1°F7.3°C 65% 5.3 mph NW8.5 kmh NW 6.8 mph10.9 kmh 30.10 in1019.3 mb 0.00 in0.0 mm 0.00 in0.0 mm 0.00 in0.0 mm
12:18 AM 56.7°F13.7°C 45.1°F7.3°C 65% 7.3 mph W11.7 kmh W 7.3 mph11.7 kmh 30.10 in1019.3 mb 0.00 in0.0 mm 0.00 in0.0 mm 0.00 in0.0 mm
12:19 AM 56.7°F13.7°C 45.1°F7.3°C 65% 5.8 mph W9.3 kmh W 7.3 mph11.7 kmh 30.10 in1019.3 mb 0.00 in0.0 mm 0.00 in0.0 mm 0.00 in0.0 mm
12:20 AM 56.7°F13.7°C 45.1°F7.3°C 65% 4.7 mph W7.6 kmh W 7.3 mph11.7 kmh 30.10 in1019.3 mb 0.00 in0.0 mm 0.00 in0.0 mm 0.00 in0.0 mm
12:21 AM 56.7°F13.7°C 45.1°F7.3°C 65% 8.3 mph WNW13.4 kmh WNW 8.3 mph13.4 kmh 30.10 in1019.3 mb 0.00 in0.0 mm 0.00 in0.0 mm 0.00 in0.0 mm
12:22 AM 56.7°F13.7°C 45.1°F7.3°C 65% 4.7 mph WNW7.6 kmh WNW 8.3 mph13.4 kmh 30.10 in1019.3 mb 0.00 in0.0 mm 0.00 in0.0 mm 0.00 in0.0 mm
12:23 AM 56.7°F13.7°C 45.1°F7.3°C 65% 7.3 mph W11.7 kmh W 8.3 mph13.4 kmh 30.10 in1019.3 mb 0.00 in0.0 mm 0.00 in0.0 mm 0.00 in0.0 mm
12:24 AM 56.7°F13.7°C 45.1°F7.3°C 65% 7.8 mph NW12.6 kmh NW 8.3 mph13.4 kmh 30.10 in1019.3 mb 0.00 in0.0 mm 0.00 in0.0 mm 0.00 in0.0 mm
12:25 AM 56.7°F13.7°C 45.1°F7.3°C 65% 6.8 mph W10.9 kmh W 8.3 mph13.4 kmh 30.10 in1019.3 mb 0.00 in0.0 mm 0.00 in0.0 mm 0.00 in0.0 mm
12:26 AM 56.7°F13.7°C 45.1°F7.3°C 65% 5.3 mph WNW8.5 kmh WNW 8.3 mph13.4 kmh 30.10 in1019.3 mb 0.00 in0.0 mm 0.00 in0.0 mm 0.00 in0.0 mm
12:27 AM 56.7°F13.7°C 45.1°F7.3°C 65% 3.2 mph W5.1 kmh W 8.3 mph13.4 kmh 30.10 in1019.3 mb 0.00 in0.0 mm 0.00 in0.0 mm 0.00 in0.0 mm
12:28 AM 56.7°F13.7°C 45.1°F7.3°C 65% 4.2 mph ESE6.8 kmh ESE 8.3 mph13.4 kmh 30.10 in1019.3 mb 0.00 in0.0 mm 0.00 in0.0 mm 0.00 in0.0 mm
12:29 AM 56.7°F13.7°C 45.1°F7.3°C 65% 5.8 mph W9.3 kmh W 8.3 mph13.4 kmh 30.10 in1019.3 mb 0.00 in0.0 mm 0.00 in0.0 mm 0.00 in0.0 mm
12:30 AM 56.5°F13.6°C 44.9°F7.2°C 65% 7.3 mph W11.7 kmh W 8.3 mph13.4 kmh 30.10 in1019.3 mb 0.00 in0.0 mm 0.00 in0.0 mm 0.00 in0.0 mm
12:31 AM 56.5°F13.6°C 44.9°F7.2°C 65% 5.3 mph NW8.5 kmh NW 8.3 mph13.4 kmh 30.10 in1019.3 mb 0.00 in0.0 mm 0.00 in0.0 mm 0.00 in0.0 mm
12:32 AM 56.5°F13.6°C 44.9°F7.2°C 65% 7.3 mph WNW11.7 kmh WNW 8.3 mph13.4 kmh 30.10 in1019.3 mb 0.00 in0.0 mm 0.00 in0.0 mm 0.00 in0.0 mm
12:33 AM 56.5°F13.6°C 44.9°F7.2°C 65% 6.3 mph N10.1 kmh N 8.3 mph13.4 kmh 30.10 in1019.3 mb 0.00 in0.0 mm 0.00 in0.0 mm 0.00 in0.0 mm
12:34 AM 56.5°F13.6°C 44.9°F7.2°C 65% 4.7 mph W7.6 kmh W 8.3 mph13.4 kmh 30.10 in1019.3 mb 0.00 in0.0 mm 0.00 in0.0 mm 0.00 in0.0 mm
12:35 AM 56.5°F13.6°C 44.9°F7.2°C 65% 4.7 mph WNW7.6 kmh WNW 8.3 mph13.4 kmh 30.10 in1019.3 mb 0.00 in0.0 mm 0.00 in0.0 mm 0.00 in0.0 mm
12:36 AM 56.5°F13.6°C 45.3°F7.4°C 66% 5.3 mph NNW8.5 kmh NNW 8.3 mph13.4 kmh 30.10 in1019.3 mb 0.00 in0.0 mm 0.00 in0.0 mm 0.00 in0.0 mm
12:37 AM 56.3°F13.5°C 45.1°F7.3°C 66% 4.2 mph NW6.8 kmh NW 8.3 mph13.4 kmh 30.10 in1019.3 mb 0.00 in0.0 mm 0.00 in0.0 mm 0.00 in0.0 mm
12:38 AM 56.3°F13.5°C 45.1°F7.3°C 66% 4.7 mph WNW7.6 kmh WNW 8.3 mph13.4 kmh 30.10 in1019.3 mb 0.00 in0.0 mm 0.00 in0.0 mm 0.00 in0.0 mm
12:39 AM 56.3°F13.5°C 45.1°F7.3°C 66% 3.7 mph NW6.0 kmh NW 7.3 mph11.7 kmh 30.10 in1019.3 mb 0.00 in0.0 mm 0.00 in0.0 mm 0.00 in0.0 mm
12:40 AM 56.1°F13.4°C 44.9°F7.2°C 66% 4.7 mph W7.6 kmh W 7.3 mph11.7 kmh 30.10 in1019.3 mb 0.00 in0.0 mm 0.00 in0.0 mm 0.00 in0.0 mm
12:41 AM 56.1°F13.4°C 45.3°F7.4°C 67% 3.7 mph WNW6.0 kmh WNW 7.3 mph11.7 kmh 30.10 in1019.3 mb 0.00 in0.0 mm 0.00 in0.0 mm 0.00 in0.0 mm
12:42 AM 56.1°F13.4°C 45.3°F7.4°C 67% 3.7 mph W6.0 kmh W 7.3 mph11.7 kmh 30.10 in1019.3 mb 0.00 in0.0 mm 0.00 in0.0 mm 0.00 in0.0 mm
12:43 AM 56.1°F13.4°C 45.3°F7.4°C 67% 4.2 mph WNW6.8 kmh WNW 7.3 mph11.7 kmh 30.10 in1019.3 mb 0.00 in0.0 mm 0.00 in0.0 mm 0.00 in0.0 mm
12:44 AM 56.1°F13.4°C 45.3°F7.4°C 67% 3.2 mph W5.1 kmh W 6.8 mph10.9 kmh 30.10 in1019.3 mb 0.00 in0.0 mm 0.00 in0.0 mm 0.00 in0.0 mm
12:45 AM 56.1°F13.4°C 45.3°F7.4°C 67% 3.2 mph WSW5.1 kmh WSW 6.8 mph10.9 kmh 30.10 in1019.3 mb 0.00 in0.0 mm 0.00 in0.0 mm 0.00 in0.0 mm
12:46 AM 55.9°F13.3°C 45.1°F7.3°C 67% 4.7 mph WNW7.6 kmh WNW 6.8 mph10.9 kmh 30.10 in1019.3 mb 0.00 in0.0 mm 0.00 in0.0 mm 0.00 in0.0 mm
12:47 AM 55.9°F13.3°C 45.1°F7.3°C 67% 4.7 mph WNW7.6 kmh WNW 6.8 mph10.9 kmh 30.10 in1019.3 mb 0.00 in0.0 mm 0.00 in0.0 mm 0.00 in0.0 mm
12:48 AM 55.9°F13.3°C 45.1°F7.3°C 67% 3.7 mph WNW6.0 kmh WNW 6.8 mph10.9 kmh 30.10 in1019.3 mb 0.00 in0.0 mm 0.00 in0.0 mm 0.00 in0.0 mm
12:49 AM 55.9°F13.3°C 45.1°F7.3°C 67% 5.3 mph W8.5 kmh W 6.8 mph10.9 kmh 30.10 in1019.3 mb 0.00 in0.0 mm 0.00 in0.0 mm 0.00 in0.0 mm
12:50 AM 55.9°F13.3°C 45.1°F7.3°C 67% 5.8 mph NW9.3 kmh NW 6.8 mph10.9 kmh 30.10 in1019.3 mb 0.00 in0.0 mm 0.00 in0.0 mm 0.00 in0.0 mm
12:51 AM 55.9°F13.3°C 45.1°F7.3°C 67% 3.7 mph WNW6.0 kmh WNW 6.8 mph10.9 kmh 30.10 in1019.3 mb 0.00 in0.0 mm 0.00 in0.0 mm 0.00 in0.0 mm
12:52 AM 55.9°F13.3°C 45.1°F7.3°C 67% 4.7 mph NNW7.6 kmh NNW 6.8 mph10.9 kmh 30.10 in1019.3 mb 0.00 in0.0 mm 0.00 in0.0 mm 0.00 in0.0 mm
12:53 AM 55.9°F13.3°C 45.1°F7.3°C 67% 4.7 mph WNW7.6 kmh WNW 5.8 mph9.3 kmh 30.10 in1019.3 mb 0.00 in0.0 mm 0.00 in0.0 mm 0.00 in0.0 mm
12:54 AM 55.8°F13.2°C 45.0°F7.2°C 67% 4.2 mph W6.8 kmh W 5.8 mph9.3 kmh 30.10 in1019.3 mb 0.00 in0.0 mm 0.00 in0.0 mm 0.00 in0.0 mm
12:55 AM 55.8°F13.2°C 45.0°F7.2°C 67% 4.2 mph W6.8 kmh W 5.8 mph9.3 kmh 30.10 in1019.3 mb 0.00 in0.0 mm 0.00 in0.0 mm 0.00 in0.0 mm
12:56 AM 55.8°F13.2°C 45.0°F7.2°C 67% 3.7 mph NW6.0 kmh NW 5.8 mph9.3 kmh 30.10 in1019.3 mb 0.00 in0.0 mm 0.00 in0.0 mm 0.00 in0.0 mm
12:57 AM 55.8°F13.2°C 45.4°F7.4°C 68% 4.2 mph WNW6.8 kmh WNW 5.8 mph9.3 kmh 30.10 in1019.3 mb 0.00 in0.0 mm 0.00 in0.0 mm 0.00 in0.0 mm
12:58 AM 55.6°F13.1°C 45.2°F7.3°C 68% 4.2 mph WNW6.8 kmh WNW 5.8 mph9.3 kmh 30.10 in1019.3 mb 0.00 in0.0 mm 0.00 in0.0 mm 0.00 in0.0 mm
12:59 AM 55.6°F13.1°C 45.2°F7.3°C 68% 4.7 mph NW7.6 kmh NW 6.3 mph10.1 kmh 30.10 in1019.3 mb 0.00 in0.0 mm 0.00 in0.0 mm 0.00 in0.0 mm
01:00 AM 55.6°F13.1°C 44.8°F7.1°C 67% 6.3 mph W10.1 kmh W 7.8 mph12.6 kmh 30.10 in1019.3 mb 0.00 in0.0 mm 0.00 in0.0 mm 0.00 in0.0 mm
01:01 AM 55.6°F13.1°C 44.0°F6.7°C 65% 5.3 mph W8.5 kmh W 8.9 mph14.3 kmh 30.10 in1019.3 mb 0.00 in0.0 mm 0.00 in0.0 mm 0.00 in0.0 mm
01:02 AM 55.6°F13.1°C 44.0°F6.7°C 65% 7.3 mph W11.7 kmh W 8.9 mph14.3 kmh 30.10 in1019.3 mb 0.00 in0.0 mm 0.00 in0.0 mm 0.00 in0.0 mm
01:03 AM 55.6°F13.1°C 43.6°F6.4°C 64% 6.3 mph W10.1 kmh W 8.9 mph14.3 kmh 30.10 in1019.3 mb 0.00 in0.0 mm 0.00 in0.0 mm 0.00 in0.0 mm
01:04 AM 55.8°F13.2°C 43.8°F6.6°C 64% 6.3 mph W10.1 kmh W 8.9 mph14.3 kmh 30.10 in1019.3 mb 0.00 in0.0 mm 0.00 in0.0 mm 0.00 in0.0 mm
01:05 AM 55.8°F13.2°C 43.8°F6.6°C 64% 4.7 mph WNW7.6 kmh WNW 8.9 mph14.3 kmh 30.10 in1019.3 mb 0.00 in0.0 mm 0.00 in0.0 mm 0.00 in0.0 mm
01:06 AM 55.8°F13.2°C 43.8°F6.6°C 64% 5.8 mph W9.3 kmh W 8.9 mph14.3 kmh 30.10 in1019.3 mb 0.00 in0.0 mm 0.00 in0.0 mm 0.00 in0.0 mm
01:07 AM 55.8°F13.2°C 43.8°F6.6°C 64% 4.2 mph NW6.8 kmh NW 8.9 mph14.3 kmh 30.10 in1019.3 mb 0.00 in0.0 mm 0.00 in0.0 mm 0.00 in0.0 mm
01:08 AM 55.8°F13.2°C 43.4°F6.3°C 63% 6.3 mph NW10.1 kmh NW 8.9 mph14.3 kmh 30.10 in1019.3 mb 0.00 in0.0 mm 0.00 in0.0 mm 0.00 in0.0 mm
01:09 AM 55.8°F13.2°C 43.4°F6.3°C 63% 4.7 mph WNW7.6 kmh WNW 8.9 mph14.3 kmh 30.10 in1019.3 mb 0.00 in0.0 mm 0.00 in0.0 mm 0.00 in0.0 mm
01:10 AM 55.8°F13.2°C 43.4°F6.3°C 63% 3.7 mph WNW6.0 kmh WNW 8.9 mph14.3 kmh 30.10 in1019.3 mb 0.00 in0.0 mm 0.00 in0.0 mm 0.00 in0.0 mm
01:11 AM 55.6°F13.1°C 43.2°F6.2°C 63% 4.7 mph WNW7.6 kmh WNW 7.8 mph12.6 kmh 30.10 in1019.3 mb 0.00 in0.0 mm 0.00 in0.0 mm 0.00 in0.0 mm
01:12 AM 55.6°F13.1°C 42.8°F6.0°C 62% 9.4 mph NNW15.1 kmh NNW 9.4 mph15.1 kmh 30.10 in1019.3 mb 0.00 in0.0 mm 0.00 in0.0 mm 0.00 in0.0 mm
01:13 AM 55.6°F13.1°C 42.8°F6.0°C 62% 5.8 mph SW9.3 kmh SW 9.9 mph15.9 kmh 30.10 in1019.3 mb 0.00 in0.0 mm 0.00 in0.0 mm 0.00 in0.0 mm
01:14 AM 55.6°F13.1°C 42.4°F5.8°C 61% 6.8 mph WNW10.9 kmh WNW 9.9 mph15.9 kmh 30.10 in1019.3 mb 0.00 in0.0 mm 0.00 in0.0 mm 0.00 in0.0 mm
01:15 AM 55.6°F13.1°C 42.8°F6.0°C 62% 7.3 mph WNW11.7 kmh WNW 9.9 mph15.9 kmh 30.10 in1019.3 mb 0.00 in0.0 mm 0.00 in0.0 mm 0.00 in0.0 mm
01:16 AM 55.6°F13.1°C 42.8°F6.0°C 62% 5.3 mph NW8.5 kmh NW 9.9 mph15.9 kmh 30.10 in1019.3 mb 0.00 in0.0 mm 0.00 in0.0 mm 0.00 in0.0 mm
01:17 AM 55.6°F13.1°C 42.4°F5.8°C 61% 4.2 mph W6.8 kmh W 9.9 mph15.9 kmh 30.10 in1019.3 mb 0.00 in0.0 mm 0.00 in0.0 mm 0.00 in0.0 mm
01:18 AM 55.6°F13.1°C 42.4°F5.8°C 61% 5.8 mph WNW9.3 kmh WNW 9.9 mph15.9 kmh 30.10 in1019.3 mb 0.00 in0.0 mm 0.00 in0.0 mm 0.00 in0.0 mm
01:19 AM 55.6°F13.1°C 42.4°F5.8°C 61% 4.7 mph NW7.6 kmh NW 9.9 mph15.9 kmh 30.10 in1019.3 mb 0.00 in0.0 mm 0.00 in0.0 mm 0.00 in0.0 mm
01:20 AM 55.6°F13.1°C 42.4°F5.8°C 61% 4.7 mph WNW7.6 kmh WNW 9.9 mph15.9 kmh 30.10 in1019.3 mb 0.00 in0.0 mm 0.00 in0.0 mm 0.00 in0.0 mm
01:21 AM 55.6°F13.1°C 42.4°F5.8°C 61% 7.8 mph WNW12.6 kmh WNW 9.9 mph15.9 kmh 30.10 in1019.3 mb 0.00 in0.0 mm 0.00 in0.0 mm 0.00 in0.0 mm
01:22 AM 55.6°F13.1°C 42.4°F5.8°C 61% 5.3 mph W8.5 kmh W 9.9 mph15.9 kmh 30.10 in1019.3 mb 0.00 in0.0 mm 0.00 in0.0 mm 0.00 in0.0 mm
01:23 AM 55.6°F13.1°C 42.4°F5.8°C 61% 7.8 mph WNW12.6 kmh WNW 8.3 mph13.4 kmh 30.10 in1019.3 mb 0.00 in0.0 mm 0.00 in0.0 mm 0.00 in0.0 mm
01:24 AM 55.6°F13.1°C 42.4°F5.8°C 61% 6.8 mph NW10.9 kmh NW 8.3 mph13.4 kmh 30.10 in1019.3 mb 0.00 in0.0 mm 0.00 in0.0 mm 0.00 in0.0 mm
01:25 AM 55.6°F13.1°C 42.4°F5.8°C 61% 7.3 mph WNW11.7 kmh WNW 9.4 mph15.1 kmh 30.10 in1019.3 mb 0.00 in0.0 mm 0.00 in0.0 mm 0.00 in0.0 mm
01:26 AM 55.6°F13.1°C 42.4°F5.8°C 61% 6.3 mph W10.1 kmh W 9.4 mph15.1 kmh 30.10 in1019.3 mb 0.00 in0.0 mm 0.00 in0.0 mm 0.00 in0.0 mm
01:27 AM 55.6°F13.1°C 42.4°F5.8°C 61% 5.8 mph WNW9.3 kmh WNW 9.4 mph15.1 kmh 30.10 in1019.3 mb 0.00 in0.0 mm 0.00 in0.0 mm 0.00 in0.0 mm
01:28 AM 55.6°F13.1°C 42.4°F5.8°C 61% 5.3 mph WNW8.5 kmh WNW 9.4 mph15.1 kmh 30.10 in1019.3 mb 0.00 in0.0 mm 0.00 in0.0 mm 0.00 in0.0 mm
01:29 AM 55.6°F13.1°C 42.4°F5.8°C 61% 9.4 mph W15.1 kmh W 9.4 mph15.1 kmh 30.10 in1019.3 mb 0.00 in0.0 mm 0.00 in0.0 mm 0.00 in0.0 mm
01:30 AM 55.6°F13.1°C 42.4°F5.8°C 61% 5.3 mph W8.5 kmh W 9.4 mph15.1 kmh 30.10 in1019.3 mb 0.00 in0.0 mm 0.00 in0.0 mm 0.00 in0.0 mm
01:31 AM 55.6°F13.1°C 42.4°F5.8°C 61% 5.8 mph NW9.3 kmh NW 9.4 mph15.1 kmh 30.10 in1019.3 mb 0.00 in0.0 mm 0.00 in0.0 mm 0.00 in0.0 mm
01:32 AM 55.6°F13.1°C 42.8°F6.0°C 62% 3.7 mph E6.0 kmh E 9.4 mph15.1 kmh 30.10 in1019.3 mb 0.00 in0.0 mm 0.00 in0.0 mm 0.00 in0.0 mm
01:33 AM 55.6°F13.1°C 42.8°F6.0°C 62% 4.7 mph WNW7.6 kmh WNW 9.4 mph15.1 kmh 30.10 in1019.3 mb 0.00 in0.0 mm 0.00 in0.0 mm 0.00 in0.0 mm
01:34 AM 55.6°F13.1°C 42.8°F6.0°C 62% 4.7 mph W7.6 kmh W 9.4 mph15.1 kmh 30.10 in1019.3 mb 0.00 in0.0 mm 0.00 in0.0 mm 0.00 in0.0 mm
01:35 AM 55.6°F13.1°C 42.8°F6.0°C 62% 3.2 mph W5.1 kmh W 9.4 mph15.1 kmh 30.10 in1019.3 mb 0.00 in0.0 mm 0.00 in0.0 mm 0.00 in0.0 mm
01:36 AM 55.6°F13.1°C 42.8°F6.0°C 62% 4.2 mph WNW6.8 kmh WNW 9.4 mph15.1 kmh 30.10 in1019.3 mb 0.00 in0.0 mm 0.00 in0.0 mm 0.00 in0.0 mm
01:37 AM 55.6°F13.1°C 42.8°F6.0°C 62% 5.8 mph W9.3 kmh W 9.4 mph15.1 kmh 30.10 in1019.3 mb 0.00 in0.0 mm 0.00 in0.0 mm 0.00 in0.0 mm
01:38 AM 55.6°F13.1°C 42.8°F6.0°C 62% 4.7 mph W7.6 kmh W 9.4 mph15.1 kmh 30.10 in1019.3 mb 0.00 in0.0 mm 0.00 in0.0 mm 0.00 in0.0 mm
01:39 AM 55.6°F13.1°C 42.8°F6.0°C 62% 4.2 mph WNW6.8 kmh WNW 9.4 mph15.1 kmh 30.10 in1019.3 mb 0.00 in0.0 mm 0.00 in0.0 mm 0.00 in0.0 mm
01:40 AM 55.6°F13.1°C 42.8°F6.0°C 62% 6.3 mph WNW10.1 kmh WNW 8.9 mph14.3 kmh 30.10 in1019.3 mb 0.00 in0.0 mm 0.00 in0.0 mm 0.00 in0.0 mm
01:41 AM 55.6°F13.1°C 42.8°F6.0°C 62% 9.4 mph WNW15.1 kmh WNW 9.4 mph15.1 kmh 30.10 in1019.3 mb 0.00 in0.0 mm 0.00 in0.0 mm 0.00 in0.0 mm
01:42 AM 55.6°F13.1°C 42.8°F6.0°C 62% 5.3 mph W8.5 kmh W 9.4 mph15.1 kmh 30.10 in1019.3 mb 0.00 in0.0 mm 0.00 in0.0 mm 0.00 in0.0 mm
01:43 AM 55.6°F13.1°C 42.8°F6.0°C 62% 6.3 mph W10.1 kmh W 9.4 mph15.1 kmh 30.10 in1019.3 mb 0.00 in0.0 mm 0.00 in0.0 mm 0.00 in0.0 mm
01:44 AM 55.6°F13.1°C 42.8°F6.0°C 62% 4.7 mph WNW7.6 kmh WNW 9.4 mph15.1 kmh 30.10 in1019.3 mb 0.00 in0.0 mm 0.00 in0.0 mm 0.00 in0.0 mm
01:45 AM 55.6°F13.1°C 42.8°F6.0°C 62% 7.8 mph WNW12.6 kmh WNW 9.4 mph15.1 kmh 30.10 in1019.3 mb 0.00 in0.0 mm 0.00 in0.0 mm 0.00 in0.0 mm
01:46 AM 55.6°F13.1°C 42.8°F6.0°C 62% 5.8 mph NW9.3 kmh NW 9.4 mph15.1 kmh 30.10 in1019.3 mb 0.00 in0.0 mm 0.00 in0.0 mm 0.00 in0.0 mm
01:47 AM 55.6°F13.1°C 42.8°F6.0°C 62% 5.8 mph WNW9.3 kmh WNW 9.4 mph15.1 kmh 30.10 in1019.3 mb 0.00 in0.0 mm 0.00 in0.0 mm 0.00 in0.0 mm
01:48 AM 55.6°F13.1°C 42.8°F6.0°C 62% 5.3 mph W8.5 kmh W 9.4 mph15.1 kmh 30.10 in1019.3 mb 0.00 in0.0 mm 0.00 in0.0 mm 0.00 in0.0 mm
01:49 AM 55.6°F13.1°C 42.8°F6.0°C 62% 5.8 mph WNW9.3 kmh WNW 9.4 mph15.1 kmh 30.10 in1019.3 mb 0.00 in0.0 mm 0.00 in0.0 mm 0.00 in0.0 mm
01:50 AM 55.6°F13.1°C 42.8°F6.0°C 62% 6.8 mph WNW10.9 kmh WNW 9.4 mph15.1 kmh 30.10 in1019.3 mb 0.00 in0.0 mm 0.00 in0.0 mm 0.00 in0.0 mm
01:51 AM 55.6°F13.1°C 42.8°F6.0°C 62% 4.2 mph WNW6.8 kmh WNW 7.8 mph12.6 kmh 30.10 in1019.3 mb 0.00 in0.0 mm 0.00 in0.0 mm 0.00 in0.0 mm
01:52 AM 55.4°F13.0°C 42.6°F5.9°C 62% 5.8 mph WNW9.3 kmh WNW 7.8 mph12.6 kmh 30.10 in1019.3 mb 0.00 in0.0 mm 0.00 in0.0 mm 0.00 in0.0 mm
01:53 AM 55.4°F13.0°C 42.6°F5.9°C 62% 6.3 mph WNW10.1 kmh WNW 7.8 mph12.6 kmh 30.10 in1019.3 mb 0.00 in0.0 mm 0.00 in0.0 mm 0.00 in0.0 mm
01:54 AM 55.4°F13.0°C 42.6°F5.9°C 62% 7.3 mph WNW11.7 kmh WNW 7.8 mph12.6 kmh 30.10 in1019.3 mb 0.00 in0.0 mm 0.00 in0.0 mm 0.00 in0.0 mm
01:55 AM 55.4°F13.0°C 42.6°F5.9°C 62% 7.3 mph SW11.7 kmh SW 8.9 mph14.3 kmh 30.10 in1019.3 mb 0.00 in0.0 mm 0.00 in0.0 mm 0.00 in0.0 mm
01:56 AM 55.4°F13.0°C 42.6°F5.9°C 62% 7.3 mph WNW11.7 kmh WNW 8.9 mph14.3 kmh 30.10 in1019.3 mb 0.00 in0.0 mm 0.00 in0.0 mm 0.00 in0.0 mm
01:57 AM 55.4°F13.0°C 42.6°F5.9°C 62% 8.3 mph NW13.4 kmh NW 8.9 mph14.3 kmh 30.10 in1019.3 mb 0.00 in0.0 mm 0.00 in0.0 mm 0.00 in0.0 mm
01:58 AM 55.4°F13.0°C 42.6°F5.9°C 62% 7.8 mph WNW12.6 kmh WNW 8.9 mph14.3 kmh 30.10 in1019.3 mb 0.00 in0.0 mm 0.00 in0.0 mm 0.00 in0.0 mm
01:59 AM 55.4°F13.0°C 42.6°F5.9°C 62% 6.8 mph WNW10.9 kmh WNW 8.9 mph14.3 kmh 30.10 in1019.3 mb 0.00 in0.0 mm 0.00 in0.0 mm 0.00 in0.0 mm
02:00 AM 55.4°F13.0°C 42.6°F5.9°C 62% 5.8 mph W9.3 kmh W 9.4 mph15.1 kmh 30.10 in1019.3 mb 0.00 in0.0 mm 0.00 in0.0 mm 0.00 in0.0 mm
02:01 AM 55.4°F13.0°C 42.6°F5.9°C 62% 4.7 mph WNW7.6 kmh WNW 9.4 mph15.1 kmh 30.10 in1019.3 mb 0.00 in0.0 mm 0.00 in0.0 mm 0.00 in0.0 mm
02:02 AM 55.4°F13.0°C 42.6°F5.9°C 62% 6.3 mph WNW10.1 kmh WNW 9.4 mph15.1 kmh 30.10 in1019.3 mb 0.00 in0.0 mm 0.00 in0.0 mm 0.00 in0.0 mm
02:03 AM 55.4°F13.0°C 42.6°F5.9°C 62% 4.2 mph WNW6.8 kmh WNW 9.4 mph15.1 kmh 30.10 in1019.3 mb 0.00 in0.0 mm 0.00 in0.0 mm 0.00 in0.0 mm
02:04 AM 55.4°F13.0°C 43.0°F6.1°C 63% 6.8 mph W10.9 kmh W 9.4 mph15.1 kmh 30.10 in1019.3 mb 0.00 in0.0 mm 0.00 in0.0 mm 0.00 in0.0 mm
02:05 AM 55.2°F12.9°C 42.8°F6.0°C 63% 6.3 mph WNW10.1 kmh WNW 9.4 mph15.1 kmh 30.10 in1019.3 mb 0.00 in0.0 mm 0.00 in0.0 mm 0.00 in0.0 mm
02:06 AM 55.2°F12.9°C 42.8°F6.0°C 63% 7.3 mph WNW11.7 kmh WNW 9.4 mph15.1 kmh 30.10 in1019.3 mb 0.00 in0.0 mm 0.00 in0.0 mm 0.00 in0.0 mm
02:07 AM 55.2°F12.9°C 42.8°F6.0°C 63% 4.7 mph WSW7.6 kmh WSW 9.4 mph15.1 kmh 30.10 in1019.3 mb 0.00 in0.0 mm 0.00 in0.0 mm 0.00 in0.0 mm
02:08 AM 55.2°F12.9°C 42.8°F6.0°C 63% 5.3 mph WNW8.5 kmh WNW 9.4 mph15.1 kmh 30.10 in1019.3 mb 0.00 in0.0 mm 0.00 in0.0 mm 0.00 in0.0 mm
02:09 AM 55.2°F12.9°C 42.8°F6.0°C 63% 6.3 mph WNW10.1 kmh WNW 9.4 mph15.1 kmh 30.10 in1019.3 mb 0.00 in0.0 mm 0.00 in0.0 mm 0.00 in0.0 mm
02:10 AM 55.2°F12.9°C 42.8°F6.0°C 63% 4.2 mph WNW6.8 kmh WNW 8.9 mph14.3 kmh 30.10 in1019.3 mb 0.00 in0.0 mm 0.00 in0.0 mm 0.00 in0.0 mm
02:11 AM 55.0°F12.8°C 42.6°F5.9°C 63% 5.3 mph NW8.5 kmh NW 8.9 mph14.3 kmh 30.10 in1019.3 mb 0.00 in0.0 mm 0.00 in0.0 mm 0.00 in0.0 mm
02:12 AM 55.0°F12.8°C 42.6°F5.9°C 63% 4.2 mph WNW6.8 kmh WNW 8.9 mph14.3 kmh 30.10 in1019.3 mb 0.00 in0.0 mm 0.00 in0.0 mm 0.00 in0.0 mm
02:13 AM 55.0°F12.8°C 43.0°F6.1°C 64% 2.2 mph W3.5 kmh W 8.9 mph14.3 kmh 30.10 in1019.3 mb 0.00 in0.0 mm 0.00 in0.0 mm 0.00 in0.0 mm
02:14 AM 55.0°F12.8°C 43.0°F6.1°C 64% 5.8 mph WNW9.3 kmh WNW 8.9 mph14.3 kmh 30.10 in1019.3 mb 0.00 in0.0 mm 0.00 in0.0 mm 0.00 in0.0 mm
02:15 AM 54.9°F12.7°C 42.5°F5.8°C 63% 7.3 mph WNW11.7 kmh WNW 8.9 mph14.3 kmh 30.10 in1019.3 mb 0.00 in0.0 mm 0.00 in0.0 mm 0.00 in0.0 mm
02:16 AM 54.9°F12.7°C 42.5°F5.8°C 63% 6.8 mph W10.9 kmh W 7.3 mph11.7 kmh 30.10 in1019.3 mb 0.00 in0.0 mm 0.00 in0.0 mm 0.00 in0.0 mm
02:17 AM 54.9°F12.7°C 42.5°F5.8°C 63% 5.3 mph WNW8.5 kmh WNW 8.9 mph14.3 kmh 30.10 in1019.3 mb 0.00 in0.0 mm 0.00 in0.0 mm 0.00 in0.0 mm
02:18 AM 54.9°F12.7°C 42.5°F5.8°C 63% 8.3 mph NW13.4 kmh NW 8.9 mph14.3 kmh 30.10 in1019.3 mb 0.00 in0.0 mm 0.00 in0.0 mm 0.00 in0.0 mm
02:19 AM 54.9°F12.7°C 42.1°F5.6°C 62% 8.9 mph WNW14.3 kmh WNW 8.9 mph14.3 kmh 30.10 in1019.3 mb 0.00 in0.0 mm 0.00 in0.0 mm 0.00 in0.0 mm
02:20 AM 54.9°F12.7°C 42.1°F5.6°C 62% 5.3 mph WNW8.5 kmh WNW 8.9 mph14.3 kmh 30.10 in1019.3 mb 0.00 in0.0 mm 0.00 in0.0 mm 0.00 in0.0 mm
02:21 AM 54.9°F12.7°C 42.1°F5.6°C 62% 6.3 mph WNW10.1 kmh WNW 8.9 mph14.3 kmh 30.10 in1019.3 mb 0.00 in0.0 mm 0.00 in0.0 mm 0.00 in0.0 mm
02:22 AM 54.9°F12.7°C 42.1°F5.6°C 62% 7.3 mph NW11.7 kmh NW 8.9 mph14.3 kmh 30.10 in1019.3 mb 0.00 in0.0 mm 0.00 in0.0 mm 0.00 in0.0 mm
02:23 AM 54.9°F12.7°C 42.1°F5.6°C 62% 7.3 mph NW11.7 kmh NW 8.9 mph14.3 kmh 30.10 in1019.3 mb 0.00 in0.0 mm 0.00 in0.0 mm 0.00 in0.0 mm
02:24 AM 54.9°F12.7°C 42.1°F5.6°C 62% 5.8 mph W9.3 kmh W 8.9 mph14.3 kmh 30.10 in1019.3 mb 0.00 in0.0 mm 0.00 in0.0 mm 0.00 in0.0 mm
02:25 AM 54.9°F12.7°C 42.1°F5.6°C 62% 5.3 mph WNW8.5 kmh WNW 8.9 mph14.3 kmh 30.10 in1019.3 mb 0.00 in0.0 mm 0.00 in0.0 mm 0.00 in0.0 mm
02:26 AM 54.9°F12.7°C 42.1°F5.6°C 62% 7.3 mph WNW11.7 kmh WNW 8.9 mph14.3 kmh 30.10 in1019.3 mb 0.00 in0.0 mm 0.00 in0.0 mm 0.00 in0.0 mm
02:27 AM 54.7°F12.6°C 41.9°F5.5°C 62% 6.3 mph W10.1 kmh W 8.9 mph14.3 kmh 30.10 in1019.3 mb 0.00 in0.0 mm 0.00 in0.0 mm 0.00 in0.0 mm
02:28 AM 54.7°F12.6°C 41.9°F5.5°C 62% 6.8 mph WNW10.9 kmh WNW 8.9 mph14.3 kmh 30.10 in1019.3 mb 0.00 in0.0 mm 0.00 in0.0 mm 0.00 in0.0 mm
02:29 AM 54.7°F12.6°C 42.4°F5.8°C 63% 5.8 mph W9.3 kmh W 7.8 mph12.6 kmh 30.10 in1019.3 mb 0.00 in0.0 mm 0.00 in0.0 mm 0.00 in0.0 mm
02:30 AM 54.7°F12.6°C 42.4°F5.8°C 63% 5.3 mph W8.5 kmh W 7.8 mph12.6 kmh 30.10 in1019.3 mb 0.00 in0.0 mm 0.00 in0.0 mm 0.00 in0.0 mm
02:31 AM 54.7°F12.6°C 42.4°F5.8°C 63% 4.2 mph WNW6.8 kmh WNW 7.8 mph12.6 kmh 30.11 in1019.6 mb 0.00 in0.0 mm 0.00 in0.0 mm 0.00 in0.0 mm
02:32 AM 54.5°F12.5°C 42.2°F5.7°C 63% 4.7 mph NNW7.6 kmh NNW 7.8 mph12.6 kmh 30.11 in1019.6 mb 0.00 in0.0 mm 0.00 in0.0 mm 0.00 in0.0 mm
02:33 AM 54.5°F12.5°C 42.2°F5.7°C 63% 4.7 mph S7.6 kmh S 7.8 mph12.6 kmh 30.11 in1019.6 mb 0.00 in0.0 mm 0.00 in0.0 mm 0.00 in0.0 mm
02:34 AM 54.5°F12.5°C 42.2°F5.7°C 63% 5.8 mph WNW9.3 kmh WNW 7.8 mph12.6 kmh 30.11 in1019.6 mb 0.00 in0.0 mm 0.00 in0.0 mm 0.00 in0.0 mm
02:35 AM 54.3°F12.4°C 42.0°F5.6°C 63% 4.7 mph WNW7.6 kmh WNW 7.8 mph12.6 kmh 30.11 in1019.6 mb 0.00 in0.0 mm 0.00 in0.0 mm 0.00 in0.0 mm
02:36 AM 54.3°F12.4°C 42.0°F5.6°C 63% 4.2 mph WNW6.8 kmh WNW 7.8 mph12.6 kmh 30.11 in1019.6 mb 0.00 in0.0 mm 0.00 in0.0 mm 0.00 in0.0 mm
02:37 AM 54.3°F12.4°C 42.4°F5.8°C 64% 6.8 mph WNW10.9 kmh WNW 7.8 mph12.6 kmh 30.11 in1019.6 mb 0.00 in0.0 mm 0.00 in0.0 mm 0.00 in0.0 mm
02:38 AM 54.3°F12.4°C 42.4°F5.8°C 64% 8.3 mph W13.4 kmh W 8.3 mph13.4 kmh 30.11 in1019.6 mb 0.00 in0.0 mm 0.00 in0.0 mm 0.00 in0.0 mm
02:39 AM 54.3°F12.4°C 42.4°F5.8°C 64% 6.3 mph NW10.1 kmh NW 9.9 mph15.9 kmh 30.11 in1019.6 mb 0.00 in0.0 mm 0.00 in0.0 mm 0.00 in0.0 mm
02:40 AM 54.3°F12.4°C 42.4°F5.8°C 64% 6.8 mph W10.9 kmh W 9.9 mph15.9 kmh 30.11 in1019.6 mb 0.00 in0.0 mm 0.00 in0.0 mm 0.00 in0.0 mm
02:41 AM 54.3°F12.4°C 42.4°F5.8°C 64% Calm Calm 9.9 mph15.9 kmh 30.11 in1019.6 mb 0.00 in0.0 mm 0.00 in0.0 mm 0.00 in0.0 mm
02:42 AM 54.3°F12.4°C 42.4°F5.8°C 64% Calm Calm 9.9 mph15.9 kmh 30.11 in1019.6 mb 0.00 in0.0 mm 0.00 in0.0 mm 0.00 in0.0 mm
02:43 AM 54.3°F12.4°C 42.4°F5.8°C 64% Calm Calm 9.9 mph15.9 kmh 30.11 in1019.6 mb 0.00 in0.0 mm 0.00 in0.0 mm 0.00 in0.0 mm
02:44 AM 54.1°F12.3°C 42.2°F5.7°C 64% 6.3 mph W10.1 kmh W 9.9 mph15.9 kmh 30.10 in1019.3 mb 0.00 in0.0 mm 0.00 in0.0 mm 0.00 in0.0 mm
02:45 AM 54.1°F12.3°C 42.2°F5.7°C 64% 5.3 mph WNW8.5 kmh WNW 9.9 mph15.9 kmh 30.10 in1019.3 mb 0.00 in0.0 mm 0.00 in0.0 mm 0.00 in0.0 mm
02:46 AM 54.1°F12.3°C 42.2°F5.7°C 64% 6.3 mph WNW10.1 kmh WNW 9.9 mph15.9 kmh 30.10 in1019.3 mb 0.00 in0.0 mm 0.00 in0.0 mm 0.00 in0.0 mm
02:47 AM 54.1°F12.3°C 42.2°F5.7°C 64% 9.4 mph WNW15.1 kmh WNW 9.4 mph15.1 kmh 30.10 in1019.3 mb 0.00 in0.0 mm 0.00 in0.0 mm 0.00 in0.0 mm
02:48 AM 54.0°F12.2°C 42.1°F5.6°C 64% 7.3 mph WNW11.7 kmh WNW 9.4 mph15.1 kmh 30.10 in1019.3 mb 0.00 in0.0 mm 0.00 in0.0 mm 0.00 in0.0 mm
02:49 AM 54.0°F12.2°C 42.1°F5.6°C 64% 5.8 mph W9.3 kmh W 9.4 mph15.1 kmh 30.10 in1019.3 mb 0.00 in0.0 mm 0.00 in0.0 mm 0.00 in0.0 mm
02:50 AM 54.0°F12.2°C 42.1°F5.6°C 64% 6.8 mph WNW10.9 kmh WNW 9.4 mph15.1 kmh 30.10 in1019.3 mb 0.00 in0.0 mm 0.00 in0.0 mm 0.00 in0.0 mm
02:51 AM 54.0°F12.2°C 42.1°F5.6°C 64% 5.3 mph NW8.5 kmh NW 9.4 mph15.1 kmh 30.10 in1019.3 mb 0.00 in0.0 mm 0.00 in0.0 mm 0.00 in0.0 mm
02:52 AM 53.8°F12.1°C 41.9°F5.5°C 64% 5.8 mph NNW9.3 kmh NNW 9.4 mph15.1 kmh 30.10 in1019.3 mb 0.00 in0.0 mm 0.00 in0.0 mm 0.00 in0.0 mm
02:53 AM 53.8°F12.1°C 41.9°F5.5°C 64% 8.9 mph WNW14.3 kmh WNW 9.4 mph15.1 kmh 30.10 in1019.3 mb 0.00 in0.0 mm 0.00 in0.0 mm 0.00 in0.0 mm
02:54 AM 53.8°F12.1°C 41.9°F5.5°C 64% 5.8 mph NW9.3 kmh NW 9.4 mph15.1 kmh 30.10 in1019.3 mb 0.00 in0.0 mm 0.00 in0.0 mm 0.00 in0.0 mm
02:55 AM 53.8°F12.1°C 41.9°F5.5°C 64% 6.3 mph NW10.1 kmh NW 9.4 mph15.1 kmh 30.10 in1019.3 mb 0.00 in0.0 mm 0.00 in0.0 mm 0.00 in0.0 mm
02:56 AM 53.8°F12.1°C 41.9°F5.5°C 64% 8.9 mph W14.3 kmh W 9.4 mph15.1 kmh 30.10 in1019.3 mb 0.00 in0.0 mm 0.00 in0.0 mm 0.00 in0.0 mm
02:57 AM 53.8°F12.1°C 41.9°F5.5°C 64% 5.3 mph WNW8.5 kmh WNW 9.4 mph15.1 kmh 30.10 in1019.3 mb 0.00 in0.0 mm 0.00 in0.0 mm 0.00 in0.0 mm
02:58 AM 53.6°F12.0°C 41.7°F5.4°C 64% 7.8 mph WNW12.6 kmh WNW 8.9 mph14.3 kmh 30.10 in1019.3 mb 0.00 in0.0 mm 0.00 in0.0 mm 0.00 in0.0 mm
02:59 AM 53.6°F12.0°C 41.7°F5.4°C 64% 5.3 mph N8.5 kmh N 8.9 mph14.3 kmh 30.10 in1019.3 mb 0.00 in0.0 mm 0.00 in0.0 mm 0.00 in0.0 mm
03:00 AM 53.6°F12.0°C 41.7°F5.4°C 64% 9.9 mph NNW15.9 kmh NNW 9.9 mph15.9 kmh 30.10 in1019.3 mb 0.00 in0.0 mm 0.00 in0.0 mm 0.00 in0.0 mm
03:01 AM 53.6°F12.0°C 41.7°F5.4°C 64% 7.8 mph NNW12.6 kmh NNW 9.9 mph15.9 kmh 30.10 in1019.3 mb 0.00 in0.0 mm 0.00 in0.0 mm 0.00 in0.0 mm
03:02 AM 53.6°F12.0°C 41.7°F5.4°C 64% 3.7 mph W6.0 kmh W 9.9 mph15.9 kmh 30.10 in1019.3 mb 0.00 in0.0 mm 0.00 in0.0 mm 0.00 in0.0 mm
03:03 AM 53.4°F11.9°C 41.5°F5.3°C 64% 5.8 mph N9.3 kmh N 9.9 mph15.9 kmh 30.10 in1019.3 mb 0.00 in0.0 mm 0.00 in0.0 mm 0.00 in0.0 mm
03:04 AM 53.4°F11.9°C 41.5°F5.3°C 64% 6.3 mph WNW10.1 kmh WNW 9.9 mph15.9 kmh 30.10 in1019.3 mb 0.00 in0.0 mm 0.00 in0.0 mm 0.00 in0.0 mm
03:05 AM 53.4°F11.9°C 41.5°F5.3°C 64% 6.3 mph W10.1 kmh W 9.9 mph15.9 kmh 30.10 in1019.3 mb 0.00 in0.0 mm 0.00 in0.0 mm 0.00 in0.0 mm
03:06 AM 53.4°F11.9°C 41.5°F5.3°C 64% 6.3 mph W10.1 kmh W 9.9 mph15.9 kmh 30.10 in1019.3 mb 0.00 in0.0 mm 0.00 in0.0 mm 0.00 in0.0 mm
03:07 AM 53.4°F11.9°C 41.5°F5.3°C 64% 4.7 mph NW7.6 kmh NW 9.9 mph15.9 kmh 30.09 in1019.0 mb 0.00 in0.0 mm 0.00 in0.0 mm 0.00 in0.0 mm
03:08 AM 53.2°F11.8°C 41.3°F5.2°C 64% 6.8 mph NW10.9 kmh NW 9.9 mph15.9 kmh 30.09 in1019.0 mb 0.00 in0.0 mm 0.00 in0.0 mm 0.00 in0.0 mm
03:09 AM 53.2°F11.8°C 41.3°F5.2°C 64% 4.2 mph WNW6.8 kmh WNW 9.9 mph15.9 kmh 30.09 in1019.0 mb 0.00 in0.0 mm 0.00 in0.0 mm 0.00 in0.0 mm
03:10 AM 53.2°F11.8°C 41.3°F5.2°C 64% 6.3 mph WNW10.1 kmh WNW 7.8 mph12.6 kmh 30.09 in1019.0 mb 0.00 in0.0 mm 0.00 in0.0 mm 0.00 in0.0 mm
03:11 AM 53.2°F11.8°C 41.3°F5.2°C 64% 6.3 mph W10.1 kmh W 7.8 mph12.6 kmh 30.09 in1019.0 mb 0.00 in0.0 mm 0.00 in0.0 mm 0.00 in0.0 mm
03:12 AM 53.2°F11.8°C 41.3°F5.2°C 64% 6.8 mph W10.9 kmh W 7.8 mph12.6 kmh 30.09 in1019.0 mb 0.00 in0.0 mm 0.00 in0.0 mm 0.00 in0.0 mm
03:13 AM 53.2°F11.8°C 41.3°F5.2°C 64% 6.3 mph WNW10.1 kmh WNW 7.8 mph12.6 kmh 30.09 in1019.0 mb 0.00 in0.0 mm 0.00 in0.0 mm 0.00 in0.0 mm
03:14 AM 53.1°F11.7°C 41.2°F5.1°C 64% 7.3 mph NNW11.7 kmh NNW 7.8 mph12.6 kmh 30.09 in1019.0 mb 0.00 in0.0 mm 0.00 in0.0 mm 0.00 in0.0 mm
03:15 AM 53.1°F11.7°C 41.2°F5.1°C 64% 7.3 mph W11.7 kmh W 7.8 mph12.6 kmh 30.09 in1019.0 mb 0.00 in0.0 mm 0.00 in0.0 mm 0.00 in0.0 mm
03:16 AM 53.1°F11.7°C 41.2°F5.1°C 64% 6.8 mph WNW10.9 kmh WNW 7.8 mph12.6 kmh 30.09 in1019.0 mb 0.00 in0.0 mm 0.00 in0.0 mm 0.00 in0.0 mm
03:17 AM 52.9°F11.6°C 41.1°F5.1°C 64% 5.8 mph WNW9.3 kmh WNW 7.8 mph12.6 kmh 30.09 in1019.0 mb 0.00 in0.0 mm 0.00 in0.0 mm 0.00 in0.0 mm
03:18 AM 52.9°F11.6°C 41.1°F5.1°C 64% 4.7 mph WNW7.6 kmh WNW 7.8 mph12.6 kmh 30.09 in1019.0 mb 0.00 in0.0 mm 0.00 in0.0 mm 0.00 in0.0 mm
03:19 AM 52.9°F11.6°C 41.1°F5.1°C 64% 5.8 mph W9.3 kmh W 7.8 mph12.6 kmh 30.10 in1019.3 mb 0.00 in0.0 mm 0.00 in0.0 mm 0.00 in0.0 mm
03:20 AM 52.9°F11.6°C 40.7°F4.8°C 63% 8.9 mph WNW14.3 kmh WNW 11.4 mph18.3 kmh 30.10 in1019.3 mb 0.00 in0.0 mm 0.00 in0.0 mm 0.00 in0.0 mm
03:21 AM 52.9°F11.6°C 40.2°F4.6°C 62% 7.3 mph N11.7 kmh N 11.4 mph18.3 kmh 30.10 in1019.3 mb 0.00 in0.0 mm 0.00 in0.0 mm 0.00 in0.0 mm
03:22 AM 52.9°F11.6°C 40.2°F4.6°C 62% 5.3 mph W8.5 kmh W 11.4 mph18.3 kmh 30.10 in1019.3 mb 0.00 in0.0 mm 0.00 in0.0 mm 0.00 in0.0 mm
03:23 AM 52.9°F11.6°C 40.2°F4.6°C 62% 5.8 mph NW9.3 kmh NW 11.4 mph18.3 kmh 30.10 in1019.3 mb 0.00 in0.0 mm 0.00 in0.0 mm 0.00 in0.0 mm
03:24 AM 52.9°F11.6°C 40.2°F4.6°C 62% 9.4 mph WNW15.1 kmh WNW 11.4 mph18.3 kmh 30.10 in1019.3 mb 0.00 in0.0 mm 0.00 in0.0 mm 0.00 in0.0 mm
03:25 AM 52.9°F11.6°C 40.2°F4.6°C 62% 6.3 mph W10.1 kmh W 11.4 mph18.3 kmh 30.10 in1019.3 mb 0.00 in0.0 mm 0.00 in0.0 mm 0.00 in0.0 mm
03:26 AM 52.9°F11.6°C 40.2°F4.6°C 62% 6.3 mph WNW10.1 kmh WNW 11.4 mph18.3 kmh 30.10 in1019.3 mb 0.00 in0.0 mm 0.00 in0.0 mm 0.00 in0.0 mm
03:27 AM 52.7°F11.5°C 40.1°F4.5°C 62% 5.8 mph NW9.3 kmh NW 11.4 mph18.3 kmh 30.10 in1019.3 mb 0.00 in0.0 mm 0.00 in0.0 mm 0.00 in0.0 mm
03:28 AM 52.7°F11.5°C 40.1°F4.5°C 62% 4.7 mph N7.6 kmh N 11.4 mph18.3 kmh 30.10 in1019.3 mb 0.00 in0.0 mm 0.00 in0.0 mm 0.00 in0.0 mm
03:29 AM 52.7°F11.5°C 40.1°F4.5°C 62% 5.8 mph NW9.3 kmh NW 11.4 mph18.3 kmh 30.10 in1019.3 mb 0.00 in0.0 mm 0.00 in0.0 mm 0.00 in0.0 mm
03:30 AM 52.7°F11.5°C 40.1°F4.5°C 62% 3.7 mph NW6.0 kmh NW 10.4 mph16.7 kmh 30.10 in1019.3 mb 0.00 in0.0 mm 0.00 in0.0 mm 0.00 in0.0 mm
03:31 AM 52.5°F11.4°C 39.9°F4.4°C 62% 9.9 mph NNW15.9 kmh NNW 10.4 mph16.7 kmh 30.10 in1019.3 mb 0.00 in0.0 mm 0.00 in0.0 mm 0.00 in0.0 mm
03:32 AM 52.5°F11.4°C 39.9°F4.4°C 62% 4.7 mph NW7.6 kmh NW 10.4 mph16.7 kmh 30.10 in1019.3 mb 0.00 in0.0 mm 0.00 in0.0 mm 0.00 in0.0 mm
03:33 AM 52.5°F11.4°C 39.9°F4.4°C 62% 4.2 mph WNW6.8 kmh WNW 10.4 mph16.7 kmh 30.10 in1019.3 mb 0.00 in0.0 mm 0.00 in0.0 mm 0.00 in0.0 mm
03:34 AM 52.5°F11.4°C 39.9°F4.4°C 62% 6.3 mph WNW10.1 kmh WNW 10.4 mph16.7 kmh 30.10 in1019.3 mb 0.00 in0.0 mm 0.00 in0.0 mm 0.00 in0.0 mm
03:35 AM 52.5°F11.4°C 40.3°F4.6°C 63% 6.3 mph WNW10.1 kmh WNW 9.9 mph15.9 kmh 30.10 in1019.3 mb 0.00 in0.0 mm 0.00 in0.0 mm 0.00 in0.0 mm
03:36 AM 52.5°F11.4°C 40.3°F4.6°C 63% 5.8 mph NW9.3 kmh NW 9.9 mph15.9 kmh 30.10 in1019.3 mb 0.00 in0.0 mm 0.00 in0.0 mm 0.00 in0.0 mm
03:37 AM 52.3°F11.3°C 40.1°F4.5°C 63% 5.8 mph W9.3 kmh W 9.9 mph15.9 kmh 30.10 in1019.3 mb 0.00 in0.0 mm 0.00 in0.0 mm 0.00 in0.0 mm
03:38 AM 52.3°F11.3°C 40.1°F4.5°C 63% 8.3 mph W13.4 kmh W 9.9 mph15.9 kmh 30.10 in1019.3 mb 0.00 in0.0 mm 0.00 in0.0 mm 0.00 in0.0 mm
03:39 AM 52.3°F11.3°C 40.1°F4.5°C 63% 7.8 mph WNW12.6 kmh WNW 9.9 mph15.9 kmh 30.10 in1019.3 mb 0.00 in0.0 mm 0.00 in0.0 mm 0.00 in0.0 mm
03:40 AM 52.3°F11.3°C 40.1°F4.5°C 63% 4.7 mph NNW7.6 kmh NNW 9.9 mph15.9 kmh 30.10 in1019.3 mb 0.00 in0.0 mm 0.00 in0.0 mm 0.00 in0.0 mm
03:41 AM 52.3°F11.3°C 40.1°F4.5°C 63% 5.8 mph W9.3 kmh W 8.3 mph13.4 kmh 30.10 in1019.3 mb 0.00 in0.0 mm 0.00 in0.0 mm 0.00 in0.0 mm
03:42 AM 52.3°F11.3°C 40.1°F4.5°C 63% 5.3 mph W8.5 kmh W 8.3 mph13.4 kmh 30.10 in1019.3 mb 0.00 in0.0 mm 0.00 in0.0 mm 0.00 in0.0 mm
03:43 AM 52.3°F11.3°C 40.1°F4.5°C 63% 4.7 mph W7.6 kmh W 8.3 mph13.4 kmh 30.10 in1019.3 mb 0.00 in0.0 mm 0.00 in0.0 mm 0.00 in0.0 mm
03:44 AM 52.2°F11.2°C 40.0°F4.4°C 63% 6.8 mph WSW10.9 kmh WSW 8.3 mph13.4 kmh 30.10 in1019.3 mb 0.00 in0.0 mm 0.00 in0.0 mm 0.00 in0.0 mm
03:45 AM 52.2°F11.2°C 40.0°F4.4°C 63% 7.3 mph WNW11.7 kmh WNW 8.3 mph13.4 kmh 30.10 in1019.3 mb 0.00 in0.0 mm 0.00 in0.0 mm 0.00 in0.0 mm
03:46 AM 52.2°F11.2°C 40.0°F4.4°C 63% 5.3 mph WNW8.5 kmh WNW 8.3 mph13.4 kmh 30.10 in1019.3 mb 0.00 in0.0 mm 0.00 in0.0 mm 0.00 in0.0 mm
03:47 AM 52.2°F11.2°C 40.0°F4.4°C 63% 6.3 mph W10.1 kmh W 8.3 mph13.4 kmh 30.10 in1019.3 mb 0.00 in0.0 mm 0.00 in0.0 mm 0.00 in0.0 mm
03:48 AM 52.2°F11.2°C 40.0°F4.4°C 63% 4.2 mph W6.8 kmh W 8.3 mph13.4 kmh 30.10 in1019.3 mb 0.00 in0.0 mm 0.00 in0.0 mm 0.00 in0.0 mm
03:49 AM 52.2°F11.2°C 40.0°F4.4°C 63% 4.2 mph W6.8 kmh W 8.3 mph13.4 kmh 30.10 in1019.3 mb 0.00 in0.0 mm 0.00 in0.0 mm 0.00 in0.0 mm
03:50 AM 52.2°F11.2°C 40.0°F4.4°C 63% 5.8 mph W9.3 kmh W 8.3 mph13.4 kmh 30.10 in1019.3 mb 0.00 in0.0 mm 0.00 in0.0 mm 0.00 in0.0 mm
03:51 AM 52.2°F11.2°C 40.0°F4.4°C 63% 6.3 mph WNW10.1 kmh WNW 8.3 mph13.4 kmh 30.10 in1019.3 mb 0.00 in0.0 mm 0.00 in0.0 mm 0.00 in0.0 mm
03:52 AM 52.2°F11.2°C 40.0°F4.4°C 63% 3.7 mph NW6.0 kmh NW 8.3 mph13.4 kmh 30.10 in1019.3 mb 0.00 in0.0 mm 0.00 in0.0 mm 0.00 in0.0 mm
03:53 AM 52.2°F11.2°C 40.0°F4.4°C 63% 5.8 mph N9.3 kmh N 8.3 mph13.4 kmh 30.10 in1019.3 mb 0.00 in0.0 mm 0.00 in0.0 mm 0.00 in0.0 mm
03:54 AM 52.0°F11.1°C 39.8°F4.3°C 63% 7.3 mph NW11.7 kmh NW 7.3 mph11.7 kmh 30.10 in1019.3 mb 0.00 in0.0 mm 0.00 in0.0 mm 0.00 in0.0 mm
03:55 AM 52.0°F11.1°C 39.8°F4.3°C 63% 5.8 mph NW9.3 kmh NW 7.3 mph11.7 kmh 30.10 in1019.3 mb 0.00 in0.0 mm 0.00 in0.0 mm 0.00 in0.0 mm
03:56 AM 52.0°F11.1°C 39.8°F4.3°C 63% 4.2 mph W6.8 kmh W 7.3 mph11.7 kmh 30.10 in1019.3 mb 0.00 in0.0 mm 0.00 in0.0 mm 0.00 in0.0 mm
03:57 AM 52.0°F11.1°C 39.8°F4.3°C 63% 5.8 mph NW9.3 kmh NW 7.3 mph11.7 kmh 30.10 in1019.3 mb 0.00 in0.0 mm 0.00 in0.0 mm 0.00 in0.0 mm
03:58 AM 52.0°F11.1°C 39.8°F4.3°C 63% 4.7 mph WNW7.6 kmh WNW 7.3 mph11.7 kmh 30.10 in1019.3 mb 0.00 in0.0 mm 0.00 in0.0 mm 0.00 in0.0 mm
03:59 AM 52.0°F11.1°C 39.8°F4.3°C 63% 6.3 mph WNW10.1 kmh WNW 7.3 mph11.7 kmh 30.10 in1019.3 mb 0.00 in0.0 mm 0.00 in0.0 mm 0.00 in0.0 mm
04:00 AM 52.0°F11.1°C 39.8°F4.3°C 63% 6.3 mph NE10.1 kmh NE 7.8 mph12.6 kmh 30.10 in1019.3 mb 0.00 in0.0 mm 0.00 in0.0 mm 0.00 in0.0 mm
04:01 AM 52.0°F11.1°C 39.8°F4.3°C 63% 5.3 mph WNW8.5 kmh WNW 7.8 mph12.6 kmh 30.10 in1019.3 mb 0.00 in0.0 mm 0.00 in0.0 mm 0.00 in0.0 mm
04:02 AM 52.0°F11.1°C 39.8°F4.3°C 63% 6.8 mph WNW10.9 kmh WNW 7.8 mph12.6 kmh 30.10 in1019.3 mb 0.00 in0.0 mm 0.00 in0.0 mm 0.00 in0.0 mm
04:03 AM 52.0°F11.1°C 39.8°F4.3°C 63% 3.7 mph W6.0 kmh W 7.8 mph12.6 kmh 30.10 in1019.3 mb 0.00 in0.0 mm 0.00 in0.0 mm 0.00 in0.0 mm
04:04 AM 52.0°F11.1°C 39.8°F4.3°C 63% 5.3 mph W8.5 kmh W 8.3 mph13.4 kmh 30.10 in1019.3 mb 0.00 in0.0 mm 0.00 in0.0 mm 0.00 in0.0 mm
04:05 AM 52.0°F11.1°C 39.8°F4.3°C 63% 5.8 mph W9.3 kmh W 8.3 mph13.4 kmh 30.10 in1019.3 mb 0.00 in0.0 mm 0.00 in0.0 mm 0.00 in0.0 mm
04:06 AM 52.0°F11.1°C 39.8°F4.3°C 63% 5.3 mph W8.5 kmh W 8.9 mph14.3 kmh 30.10 in1019.3 mb 0.00 in0.0 mm 0.00 in0.0 mm 0.00 in0.0 mm
04:07 AM 52.0°F11.1°C 39.8°F4.3°C 63% 6.8 mph W10.9 kmh W 8.9 mph14.3 kmh 30.10 in1019.3 mb 0.00 in0.0 mm 0.00 in0.0 mm 0.00 in0.0 mm
04:08 AM 52.0°F11.1°C 39.8°F4.3°C 63% 7.8 mph WSW12.6 kmh WSW 8.9 mph14.3 kmh 30.10 in1019.3 mb 0.00 in0.0 mm 0.00 in0.0 mm 0.00 in0.0 mm
04:09 AM 52.0°F11.1°C 39.8°F4.3°C 63% 5.3 mph NW8.5 kmh NW 8.9 mph14.3 kmh 30.10 in1019.3 mb 0.00 in0.0 mm 0.00 in0.0 mm 0.00 in0.0 mm
04:10 AM 52.0°F11.1°C 39.8°F4.3°C 63% 8.9 mph NW14.3 kmh NW 12.5 mph20.1 kmh 30.10 in1019.3 mb 0.00 in0.0 mm 0.00 in0.0 mm 0.00 in0.0 mm
04:11 AM 52.0°F11.1°C 39.8°F4.3°C 63% 7.8 mph NW12.6 kmh NW 12.5 mph20.1 kmh 30.10 in1019.3 mb 0.00 in0.0 mm 0.00 in0.0 mm 0.00 in0.0 mm
04:12 AM 52.0°F11.1°C 39.8°F4.3°C 63% 5.8 mph NW9.3 kmh NW 12.5 mph20.1 kmh 30.10 in1019.3 mb 0.00 in0.0 mm 0.00 in0.0 mm 0.00 in0.0 mm
04:13 AM 52.0°F11.1°C 39.8°F4.3°C 63% 6.8 mph NNW10.9 kmh NNW 12.5 mph20.1 kmh 30.10 in1019.3 mb 0.00 in0.0 mm 0.00 in0.0 mm 0.00 in0.0 mm
04:14 AM 52.0°F11.1°C 39.8°F4.3°C 63% 5.3 mph WNW8.5 kmh WNW 12.5 mph20.1 kmh 30.10 in1019.3 mb 0.00 in0.0 mm 0.00 in0.0 mm 0.00 in0.0 mm
04:15 AM 52.0°F11.1°C 39.8°F4.3°C 63% 8.3 mph NNW13.4 kmh NNW 12.5 mph20.1 kmh 30.10 in1019.3 mb 0.00 in0.0 mm 0.00 in0.0 mm 0.00 in0.0 mm
04:16 AM 52.0°F11.1°C 39.8°F4.3°C 63% 6.8 mph NW10.9 kmh NW 12.5 mph20.1 kmh 30.10 in1019.3 mb 0.00 in0.0 mm 0.00 in0.0 mm 0.00 in0.0 mm
04:17 AM 52.0°F11.1°C 39.8°F4.3°C 63% 4.7 mph WNW7.6 kmh WNW 12.5 mph20.1 kmh 30.10 in1019.3 mb 0.00 in0.0 mm 0.00 in0.0 mm 0.00 in0.0 mm
04:18 AM 51.8°F11.0°C 39.6°F4.2°C 63% 6.3 mph NW10.1 kmh NW 12.5 mph20.1 kmh 30.10 in1019.3 mb 0.00 in0.0 mm 0.00 in0.0 mm 0.00 in0.0 mm
04:19 AM 51.8°F11.0°C 39.6°F4.2°C 63% 5.8 mph NW9.3 kmh NW 12.5 mph20.1 kmh 30.09 in1019.0 mb 0.00 in0.0 mm 0.00 in0.0 mm 0.00 in0.0 mm
04:20 AM 51.8°F11.0°C 39.6°F4.2°C 63% 4.2 mph WNW6.8 kmh WNW 8.9 mph14.3 kmh 30.09 in1019.0 mb 0.00 in0.0 mm 0.00 in0.0 mm 0.00 in0.0 mm
04:21 AM 51.8°F11.0°C 39.6°F4.2°C 63% 8.3 mph WNW13.4 kmh WNW 8.9 mph14.3 kmh 30.09 in1019.0 mb 0.00 in0.0 mm 0.00 in0.0 mm 0.00 in0.0 mm
04:22 AM 51.8°F11.0°C 39.6°F4.2°C 63% 4.7 mph WNW7.6 kmh WNW 8.9 mph14.3 kmh 30.09 in1019.0 mb 0.00 in0.0 mm 0.00 in0.0 mm 0.00 in0.0 mm
04:23 AM 51.8°F11.0°C 39.6°F4.2°C 63% 4.7 mph WNW7.6 kmh WNW 8.9 mph14.3 kmh 30.09 in1019.0 mb 0.00 in0.0 mm 0.00 in0.0 mm 0.00 in0.0 mm
04:24 AM 51.8°F11.0°C 39.6°F4.2°C 63% 5.8 mph WNW9.3 kmh WNW 8.9 mph14.3 kmh 30.09 in1019.0 mb 0.00 in0.0 mm 0.00 in0.0 mm 0.00 in0.0 mm
04:25 AM 51.8°F11.0°C 39.6°F4.2°C 63% 5.3 mph NNW8.5 kmh NNW 8.9 mph14.3 kmh 30.09 in1019.0 mb 0.00 in0.0 mm 0.00 in0.0 mm 0.00 in0.0 mm
04:26 AM 51.8°F11.0°C 39.6°F4.2°C 63% 6.3 mph WNW10.1 kmh WNW 8.9 mph14.3 kmh 30.09 in1019.0 mb 0.00 in0.0 mm 0.00 in0.0 mm 0.00 in0.0 mm
04:27 AM 51.8°F11.0°C 39.6°F4.2°C 63% 5.8 mph W9.3 kmh W 8.9 mph14.3 kmh 30.09 in1019.0 mb 0.00 in0.0 mm 0.00 in0.0 mm 0.00 in0.0 mm
04:28 AM 51.8°F11.0°C 39.6°F4.2°C 63% 6.3 mph NW10.1 kmh NW 8.9 mph14.3 kmh 30.09 in1019.0 mb 0.00 in0.0 mm 0.00 in0.0 mm 0.00 in0.0 mm
04:29 AM 51.8°F11.0°C 39.6°F4.2°C 63% 4.7 mph WNW7.6 kmh WNW 8.3 mph13.4 kmh 30.09 in1019.0 mb 0.00 in0.0 mm 0.00 in0.0 mm 0.00 in0.0 mm
04:30 AM 51.8°F11.0°C 40.0°F4.4°C 64% 6.3 mph WNW10.1 kmh WNW 8.3 mph13.4 kmh 30.09 in1019.0 mb 0.00 in0.0 mm 0.00 in0.0 mm 0.00 in0.0 mm
04:31 AM 51.8°F11.0°C 40.0°F4.4°C 64% 6.3 mph WNW10.1 kmh WNW 8.3 mph13.4 kmh 30.09 in1019.0 mb 0.00 in0.0 mm 0.00 in0.0 mm 0.00 in0.0 mm
04:32 AM 51.8°F11.0°C 40.0°F4.4°C 64% 4.2 mph WNW6.8 kmh WNW 7.3 mph11.7 kmh 30.09 in1019.0 mb 0.00 in0.0 mm 0.00 in0.0 mm 0.00 in0.0 mm
04:33 AM 51.8°F11.0°C 40.0°F4.4°C 64% 5.3 mph WNW8.5 kmh WNW 7.3 mph11.7 kmh 30.09 in1019.0 mb 0.00 in0.0 mm 0.00 in0.0 mm 0.00 in0.0 mm
04:34 AM 51.8°F11.0°C 40.0°F4.4°C 64% 6.8 mph WNW10.9 kmh WNW 7.3 mph11.7 kmh 30.09 in1019.0 mb 0.00 in0.0 mm 0.00 in0.0 mm 0.00 in0.0 mm
04:35 AM 51.8°F11.0°C 40.0°F4.4°C 64% 7.3 mph NW11.7 kmh NW 8.9 mph14.3 kmh 30.09 in1019.0 mb 0.00 in0.0 mm 0.00 in0.0 mm 0.00 in0.0 mm
04:36 AM 51.8°F11.0°C 40.0°F4.4°C 64% 5.8 mph WNW9.3 kmh WNW 8.9 mph14.3 kmh 30.09 in1019.0 mb 0.00 in0.0 mm 0.00 in0.0 mm 0.00 in0.0 mm
04:37 AM 51.8°F11.0°C 40.0°F4.4°C 64% 6.3 mph WNW10.1 kmh WNW 8.9 mph14.3 kmh 30.09 in1019.0 mb 0.00 in0.0 mm 0.00 in0.0 mm 0.00 in0.0 mm
04:38 AM 51.8°F11.0°C 40.0°F4.4°C 64% 5.8 mph WNW9.3 kmh WNW 8.9 mph14.3 kmh 30.09 in1019.0 mb 0.00 in0.0 mm 0.00 in0.0 mm 0.00 in0.0 mm
04:39 AM 51.8°F11.0°C 40.0°F4.4°C 64% 4.7 mph N7.6 kmh N 8.9 mph14.3 kmh 30.09 in1019.0 mb 0.00 in0.0 mm 0.00 in0.0 mm 0.00 in0.0 mm
04:40 AM 51.8°F11.0°C 40.0°F4.4°C 64% 4.7 mph WNW7.6 kmh WNW 8.9 mph14.3 kmh 30.09 in1019.0 mb 0.00 in0.0 mm 0.00 in0.0 mm 0.00 in0.0 mm
04:41 AM 51.8°F11.0°C 40.0°F4.4°C 64% 6.8 mph NNW10.9 kmh NNW 8.9 mph14.3 kmh 30.09 in1019.0 mb 0.00 in0.0 mm 0.00 in0.0 mm 0.00 in0.0 mm
04:42 AM 51.8°F11.0°C 40.0°F4.4°C 64% 5.8 mph NW9.3 kmh NW 8.9 mph14.3 kmh 30.09 in1019.0 mb 0.00 in0.0 mm 0.00 in0.0 mm 0.00 in0.0 mm
04:43 AM 51.8°F11.0°C 40.0°F4.4°C 64% 7.8 mph WNW12.6 kmh WNW 8.9 mph14.3 kmh 30.10 in1019.3 mb 0.00 in0.0 mm 0.00 in0.0 mm 0.00 in0.0 mm
04:44 AM 51.8°F11.0°C 40.0°F4.4°C 64% 7.8 mph NNW12.6 kmh NNW 8.9 mph14.3 kmh 30.10 in1019.3 mb 0.00 in0.0 mm 0.00 in0.0 mm 0.00 in0.0 mm
04:45 AM 51.8°F11.0°C 39.6°F4.2°C 63% 6.3 mph WNW10.1 kmh WNW 9.4 mph15.1 kmh 30.10 in1019.3 mb 0.00 in0.0 mm 0.00 in0.0 mm 0.00 in0.0 mm
04:46 AM 51.8°F11.0°C 39.6°F4.2°C 63% 7.3 mph WNW11.7 kmh WNW 9.4 mph15.1 kmh 30.10 in1019.3 mb 0.00 in0.0 mm 0.00 in0.0 mm 0.00 in0.0 mm
04:47 AM 51.8°F11.0°C 39.6°F4.2°C 63% 9.9 mph WNW15.9 kmh WNW 9.9 mph15.9 kmh 30.10 in1019.3 mb 0.00 in0.0 mm 0.00 in0.0 mm 0.00 in0.0 mm
04:48 AM 51.8°F11.0°C 39.6°F4.2°C 63% 6.8 mph NW10.9 kmh NW 9.9 mph15.9 kmh 30.10 in1019.3 mb 0.00 in0.0 mm 0.00 in0.0 mm 0.00 in0.0 mm
04:49 AM 51.8°F11.0°C 39.6°F4.2°C 63% 7.8 mph WNW12.6 kmh WNW 9.9 mph15.9 kmh 30.10 in1019.3 mb 0.00 in0.0 mm 0.00 in0.0 mm 0.00 in0.0 mm
04:50 AM 51.8°F11.0°C 39.6°F4.2°C 63% 7.3 mph WNW11.7 kmh WNW 9.9 mph15.9 kmh 30.10 in1019.3 mb 0.00 in0.0 mm 0.00 in0.0 mm 0.00 in0.0 mm
04:51 AM 51.8°F11.0°C 39.6°F4.2°C 63% 5.8 mph NW9.3 kmh NW 9.9 mph15.9 kmh 30.10 in1019.3 mb 0.00 in0.0 mm 0.00 in0.0 mm 0.00 in0.0 mm
04:52 AM 51.8°F11.0°C 39.6°F4.2°C 63% 5.3 mph NNW8.5 kmh NNW 9.9 mph15.9 kmh 30.10 in1019.3 mb 0.00 in0.0 mm 0.00 in0.0 mm 0.00 in0.0 mm
04:53 AM 51.8°F11.0°C 39.6°F4.2°C 63% 6.3 mph NW10.1 kmh NW 9.9 mph15.9 kmh 30.10 in1019.3 mb 0.00 in0.0 mm 0.00 in0.0 mm 0.00 in0.0 mm
04:54 AM 51.8°F11.0°C 39.6°F4.2°C 63% 9.4 mph WNW15.1 kmh WNW 9.9 mph15.9 kmh 30.10 in1019.3 mb 0.00 in0.0 mm 0.00 in0.0 mm 0.00 in0.0 mm
04:55 AM 51.8°F11.0°C 39.6°F4.2°C 63% 4.2 mph NNW6.8 kmh NNW 9.9 mph15.9 kmh 30.10 in1019.3 mb 0.00 in0.0 mm 0.00 in0.0 mm 0.00 in0.0 mm
04:56 AM 51.8°F11.0°C 39.6°F4.2°C 63% 7.3 mph NW11.7 kmh NW 9.9 mph15.9 kmh 30.10 in1019.3 mb 0.00 in0.0 mm 0.00 in0.0 mm 0.00 in0.0 mm
04:57 AM 51.8°F11.0°C 40.0°F4.4°C 64% 5.3 mph NW8.5 kmh NW 9.9 mph15.9 kmh 30.10 in1019.3 mb 0.00 in0.0 mm 0.00 in0.0 mm 0.00 in0.0 mm
04:58 AM 51.8°F11.0°C 40.0°F4.4°C 64% 6.3 mph WNW10.1 kmh WNW 9.9 mph15.9 kmh 30.10 in1019.3 mb 0.00 in0.0 mm 0.00 in0.0 mm 0.00 in0.0 mm
04:59 AM 51.8°F11.0°C 40.0°F4.4°C 64% 5.8 mph WNW9.3 kmh WNW 9.9 mph15.9 kmh 30.10 in1019.3 mb 0.00 in0.0 mm 0.00 in0.0 mm 0.00 in0.0 mm
05:00 AM 51.8°F11.0°C 40.0°F4.4°C 64% 4.7 mph NW7.6 kmh NW 9.9 mph15.9 kmh 30.10 in1019.3 mb 0.00 in0.0 mm 0.00 in0.0 mm 0.00 in0.0 mm
05:01 AM 51.6°F10.9°C 39.8°F4.3°C 64% 4.7 mph NNW7.6 kmh NNW 9.9 mph15.9 kmh 30.10 in1019.3 mb 0.00 in0.0 mm 0.00 in0.0 mm 0.00 in0.0 mm
05:02 AM 51.6°F10.9°C 39.8°F4.3°C 64% 5.8 mph WNW9.3 kmh WNW 9.9 mph15.9 kmh 30.10 in1019.3 mb 0.00 in0.0 mm 0.00 in0.0 mm 0.00 in0.0 mm
05:03 AM 51.6°F10.9°C 39.8°F4.3°C 64% 5.8 mph WNW9.3 kmh WNW 9.4 mph15.1 kmh 30.10 in1019.3 mb 0.00 in0.0 mm 0.00 in0.0 mm 0.00 in0.0 mm
05:04 AM 51.6°F10.9°C 39.8°F4.3°C 64% 7.8 mph N12.6 kmh N 7.8 mph12.6 kmh 30.10 in1019.3 mb 0.00 in0.0 mm 0.00 in0.0 mm 0.00 in0.0 mm
05:05 AM 51.6°F10.9°C 39.8°F4.3°C 64% 5.3 mph NW8.5 kmh NW 7.8 mph12.6 kmh 30.10 in1019.3 mb 0.00 in0.0 mm 0.00 in0.0 mm 0.00 in0.0 mm
05:06 AM 51.6°F10.9°C 39.8°F4.3°C 64% 4.7 mph WNW7.6 kmh WNW 7.8 mph12.6 kmh 30.10 in1019.3 mb 0.00 in0.0 mm 0.00 in0.0 mm 0.00 in0.0 mm
05:07 AM 51.6°F10.9°C 39.8°F4.3°C 64% 5.8 mph WNW9.3 kmh WNW 7.8 mph12.6 kmh 30.10 in1019.3 mb 0.00 in0.0 mm 0.00 in0.0 mm 0.00 in0.0 mm
05:08 AM 51.6°F10.9°C 39.8°F4.3°C 64% 7.8 mph WNW12.6 kmh WNW 7.8 mph12.6 kmh 30.10 in1019.3 mb 0.00 in0.0 mm 0.00 in0.0 mm 0.00 in0.0 mm
05:09 AM 51.6°F10.9°C 39.8°F4.3°C 64% 6.3 mph NNW10.1 kmh NNW 7.8 mph12.6 kmh 30.10 in1019.3 mb 0.00 in0.0 mm 0.00 in0.0 mm 0.00 in0.0 mm
05:10 AM 51.6°F10.9°C 39.8°F4.3°C 64% 5.8 mph NW9.3 kmh NW 7.8 mph12.6 kmh 30.10 in1019.3 mb 0.00 in0.0 mm 0.00 in0.0 mm 0.00 in0.0 mm
05:11 AM 51.6°F10.9°C 39.8°F4.3°C 64% 10.9 mph W17.5 kmh W 10.9 mph17.5 kmh 30.10 in1019.3 mb 0.00 in0.0 mm 0.00 in0.0 mm 0.00 in0.0 mm
05:12 AM 51.6°F10.9°C 39.4°F4.1°C 63% 6.3 mph WNW10.1 kmh WNW 10.9 mph17.5 kmh 30.10 in1019.3 mb 0.00 in0.0 mm 0.00 in0.0 mm 0.00 in0.0 mm
05:13 AM 51.6°F10.9°C 39.4°F4.1°C 63% 5.8 mph WNW9.3 kmh WNW 10.9 mph17.5 kmh 30.10 in1019.3 mb 0.00 in0.0 mm 0.00 in0.0 mm 0.00 in0.0 mm
05:14 AM 51.6°F10.9°C 39.4°F4.1°C 63% 7.8 mph WNW12.6 kmh WNW 10.9 mph17.5 kmh 30.10 in1019.3 mb 0.00 in0.0 mm 0.00 in0.0 mm 0.00 in0.0 mm
05:15 AM 51.6°F10.9°C 39.4°F4.1°C 63% 5.3 mph N8.5 kmh N 10.9 mph17.5 kmh 30.10 in1019.3 mb 0.00 in0.0 mm 0.00 in0.0 mm 0.00 in0.0 mm
05:16 AM 51.6°F10.9°C 39.4°F4.1°C 63% 5.8 mph WNW9.3 kmh WNW 10.9 mph17.5 kmh 30.10 in1019.3 mb 0.00 in0.0 mm 0.00 in0.0 mm 0.00 in0.0 mm
05:17 AM 51.6°F10.9°C 39.4°F4.1°C 63% 4.2 mph NNW6.8 kmh NNW 10.9 mph17.5 kmh 30.10 in1019.3 mb 0.00 in0.0 mm 0.00 in0.0 mm 0.00 in0.0 mm
05:18 AM 51.6°F10.9°C 39.4°F4.1°C 63% 4.2 mph W6.8 kmh W 10.9 mph17.5 kmh 30.10 in1019.3 mb 0.00 in0.0 mm 0.00 in0.0 mm 0.00 in0.0 mm
05:19 AM 51.6°F10.9°C 39.4°F4.1°C 63% 4.2 mph WNW6.8 kmh WNW 10.9 mph17.5 kmh 30.10 in1019.3 mb 0.00 in0.0 mm 0.00 in0.0 mm 0.00 in0.0 mm
05:20 AM 51.6°F10.9°C 39.4°F4.1°C 63% 5.3 mph WNW8.5 kmh WNW 10.9 mph17.5 kmh 30.10 in1019.3 mb 0.00 in0.0 mm 0.00 in0.0 mm 0.00 in0.0 mm
05:21 AM 51.6°F10.9°C 39.4°F4.1°C 63% 7.3 mph NW11.7 kmh NW 10.9 mph17.5 kmh 30.10 in1019.3 mb 0.00 in0.0 mm 0.00 in0.0 mm 0.00 in0.0 mm
05:22 AM 51.6°F10.9°C 39.4°F4.1°C 63% 6.3 mph WNW10.1 kmh WNW 8.3 mph13.4 kmh 30.10 in1019.3 mb 0.00 in0.0 mm 0.00 in0.0 mm 0.00 in0.0 mm
05:23 AM 51.6°F10.9°C 39.4°F4.1°C 63% 6.3 mph W10.1 kmh W 8.3 mph13.4 kmh 30.10 in1019.3 mb 0.00 in0.0 mm 0.00 in0.0 mm 0.00 in0.0 mm
05:24 AM 51.6°F10.9°C 39.4°F4.1°C 63% 4.7 mph WNW7.6 kmh WNW 8.3 mph13.4 kmh 30.10 in1019.3 mb 0.00 in0.0 mm 0.00 in0.0 mm 0.00 in0.0 mm
05:25 AM 51.6°F10.9°C 39.4°F4.1°C 63% 4.7 mph ESE7.6 kmh ESE 8.3 mph13.4 kmh 30.10 in1019.3 mb 0.00 in0.0 mm 0.00 in0.0 mm 0.00 in0.0 mm
05:26 AM 51.6°F10.9°C 39.4°F4.1°C 63% 6.8 mph NNE10.9 kmh NNE 8.3 mph13.4 kmh 30.10 in1019.3 mb 0.00 in0.0 mm 0.00 in0.0 mm 0.00 in0.0 mm
05:27 AM 51.6°F10.9°C 39.4°F4.1°C 63% 4.7 mph WNW7.6 kmh WNW 8.3 mph13.4 kmh 30.10 in1019.3 mb 0.00 in0.0 mm 0.00 in0.0 mm 0.00 in0.0 mm
05:28 AM 51.6°F10.9°C 39.4°F4.1°C 63% 3.7 mph NNE6.0 kmh NNE 8.3 mph13.4 kmh 30.10 in1019.3 mb 0.00 in0.0 mm 0.00 in0.0 mm 0.00 in0.0 mm
05:29 AM 51.6°F10.9°C 39.4°F4.1°C 63% 4.2 mph WNW6.8 kmh WNW 8.3 mph13.4 kmh 30.10 in1019.3 mb 0.00 in0.0 mm 0.00 in0.0 mm 0.00 in0.0 mm
05:30 AM 51.6°F10.9°C 39.4°F4.1°C 63% 3.7 mph WNW6.0 kmh WNW 8.3 mph13.4 kmh 30.10 in1019.3 mb 0.00 in0.0 mm 0.00 in0.0 mm 0.00 in0.0 mm
05:31 AM 51.6°F10.9°C 39.4°F4.1°C 63% 4.7 mph W7.6 kmh W 7.3 mph11.7 kmh 30.10 in1019.3 mb 0.00 in0.0 mm 0.00 in0.0 mm 0.00 in0.0 mm
05:32 AM 51.6°F10.9°C 39.4°F4.1°C 63% 6.3 mph NW10.1 kmh NW 7.3 mph11.7 kmh 30.09 in1019.0 mb 0.00 in0.0 mm 0.00 in0.0 mm 0.00 in0.0 mm
05:33 AM 51.6°F10.9°C 39.4°F4.1°C 63% 4.2 mph NW6.8 kmh NW 6.8 mph10.9 kmh 30.09 in1019.0 mb 0.00 in0.0 mm 0.00 in0.0 mm 0.00 in0.0 mm
05:34 AM 51.6°F10.9°C 39.4°F4.1°C 63% 5.3 mph W8.5 kmh W 6.8 mph10.9 kmh 30.09 in1019.0 mb 0.00 in0.0 mm 0.00 in0.0 mm 0.00 in0.0 mm
05:35 AM 51.6°F10.9°C 39.4°F4.1°C 63% 4.7 mph W7.6 kmh W 6.8 mph10.9 kmh 30.09 in1019.0 mb 0.00 in0.0 mm 0.00 in0.0 mm 0.00 in0.0 mm
05:36 AM 51.6°F10.9°C 39.4°F4.1°C 63% 5.8 mph WNW9.3 kmh WNW 6.8 mph10.9 kmh 30.09 in1019.0 mb 0.00 in0.0 mm 0.00 in0.0 mm 0.00 in0.0 mm
05:37 AM 51.6°F10.9°C 39.4°F4.1°C 63% 5.3 mph WNW8.5 kmh WNW 6.8 mph10.9 kmh 30.09 in1019.0 mb 0.00 in0.0 mm 0.00 in0.0 mm 0.00 in0.0 mm
05:38 AM 51.6°F10.9°C 39.4°F4.1°C 63% 4.7 mph W7.6 kmh W 6.8 mph10.9 kmh 30.09 in1019.0 mb 0.00 in0.0 mm 0.00 in0.0 mm 0.00 in0.0 mm
05:39 AM 51.6°F10.9°C 39.4°F4.1°C 63% 4.7 mph W7.6 kmh W 6.8 mph10.9 kmh 30.09 in1019.0 mb 0.00 in0.0 mm 0.00 in0.0 mm 0.00 in0.0 mm
05:40 AM 51.6°F10.9°C 39.4°F4.1°C 63% 4.2 mph WNW6.8 kmh WNW 6.8 mph10.9 kmh 30.09 in1019.0 mb 0.00 in0.0 mm 0.00 in0.0 mm 0.00 in0.0 mm
05:41 AM 51.6°F10.9°C 39.4°F4.1°C 63% 3.7 mph NW6.0 kmh NW 6.8 mph10.9 kmh 30.09 in1019.0 mb 0.00 in0.0 mm 0.00 in0.0 mm 0.00 in0.0 mm
05:42 AM 51.6°F10.9°C 39.4°F4.1°C 63% 5.8 mph WNW9.3 kmh WNW 6.8 mph10.9 kmh 30.09 in1019.0 mb 0.00 in0.0 mm 0.00 in0.0 mm 0.00 in0.0 mm
05:43 AM 51.6°F10.9°C 39.4°F4.1°C 63% 4.7 mph WNW7.6 kmh WNW 7.3 mph11.7 kmh 30.10 in1019.3 mb 0.00 in0.0 mm 0.00 in0.0 mm 0.00 in0.0 mm
05:44 AM 51.6°F10.9°C 39.4°F4.1°C 63% 6.3 mph NNW10.1 kmh NNW 7.3 mph11.7 kmh 30.10 in1019.3 mb 0.00 in0.0 mm 0.00 in0.0 mm 0.00 in0.0 mm
05:45 AM 51.6°F10.9°C 39.4°F4.1°C 63% 4.7 mph W7.6 kmh W 7.3 mph11.7 kmh 30.10 in1019.3 mb 0.00 in0.0 mm 0.00 in0.0 mm 0.00 in0.0 mm
05:46 AM 51.6°F10.9°C 39.4°F4.1°C 63% 5.8 mph NW9.3 kmh NW 7.3 mph11.7 kmh 30.10 in1019.3 mb 0.00 in0.0 mm 0.00 in0.0 mm 0.00 in0.0 mm
05:47 AM 51.6°F10.9°C 39.4°F4.1°C 63% 6.8 mph WNW10.9 kmh WNW 7.3 mph11.7 kmh 30.10 in1019.3 mb 0.00 in0.0 mm 0.00 in0.0 mm 0.00 in0.0 mm
05:48 AM 51.6°F10.9°C 39.4°F4.1°C 63% 5.8 mph W9.3 kmh W 7.8 mph12.6 kmh 30.10 in1019.3 mb 0.00 in0.0 mm 0.00 in0.0 mm 0.00 in0.0 mm
05:49 AM 51.6°F10.9°C 39.4°F4.1°C 63% 5.3 mph W8.5 kmh W 7.8 mph12.6 kmh 30.10 in1019.3 mb 0.00 in0.0 mm 0.00 in0.0 mm 0.00 in0.0 mm
05:50 AM 51.6°F10.9°C 39.4°F4.1°C 63% 3.7 mph NNW6.0 kmh NNW 7.8 mph12.6 kmh 30.10 in1019.3 mb 0.00 in0.0 mm 0.00 in0.0 mm 0.00 in0.0 mm
05:51 AM 51.6°F10.9°C 39.4°F4.1°C 63% 7.3 mph NW11.7 kmh NW 7.8 mph12.6 kmh 30.10 in1019.3 mb 0.00 in0.0 mm 0.00 in0.0 mm 0.00 in0.0 mm
05:52 AM 51.8°F11.0°C 39.6°F4.2°C 63% 4.7 mph NW7.6 kmh NW 7.8 mph12.6 kmh 30.10 in1019.3 mb 0.00 in0.0 mm 0.00 in0.0 mm 0.00 in0.0 mm
05:53 AM 51.8°F11.0°C 39.6°F4.2°C 63% 5.3 mph N8.5 kmh N 7.8 mph12.6 kmh 30.10 in1019.3 mb 0.00 in0.0 mm 0.00 in0.0 mm 0.00 in0.0 mm
05:54 AM 51.8°F11.0°C 39.6°F4.2°C 63% 4.2 mph WNW6.8 kmh WNW 7.8 mph12.6 kmh 30.10 in1019.3 mb 0.00 in0.0 mm 0.00 in0.0 mm 0.00 in0.0 mm
05:55 AM 51.8°F11.0°C 39.2°F4.0°C 62% 7.3 mph NW11.7 kmh NW 7.8 mph12.6 kmh 30.10 in1019.3 mb 0.00 in0.0 mm 0.00 in0.0 mm 0.00 in0.0 mm
05:56 AM 51.8°F11.0°C 39.2°F4.0°C 62% 7.3 mph WNW11.7 kmh WNW 7.8 mph12.6 kmh 30.10 in1019.3 mb 0.00 in0.0 mm 0.00 in0.0 mm 0.00 in0.0 mm
05:57 AM 51.8°F11.0°C 39.2°F4.0°C 62% 5.8 mph WNW9.3 kmh WNW 7.8 mph12.6 kmh 30.10 in1019.3 mb 0.00 in0.0 mm 0.00 in0.0 mm 0.00 in0.0 mm
05:58 AM 51.8°F11.0°C 39.2°F4.0°C 62% 7.3 mph WNW11.7 kmh WNW 7.3 mph11.7 kmh 30.10 in1019.3 mb 0.00 in0.0 mm 0.00 in0.0 mm 0.00 in0.0 mm
05:59 AM 51.8°F11.0°C 39.2°F4.0°C 62% 7.3 mph WNW11.7 kmh WNW 7.3 mph11.7 kmh 30.10 in1019.3 mb 0.00 in0.0 mm 0.00 in0.0 mm 0.00 in0.0 mm
06:00 AM 51.8°F11.0°C 39.6°F4.2°C 63% 6.8 mph WNW10.9 kmh WNW 7.3 mph11.7 kmh 30.10 in1019.3 mb 0.00 in0.0 mm 0.00 in0.0 mm 0.00 in0.0 mm
06:01 AM 51.8°F11.0°C 39.6°F4.2°C 63% 9.4 mph WNW15.1 kmh WNW 9.4 mph15.1 kmh 30.10 in1019.3 mb 0.00 in0.0 mm 0.00 in0.0 mm 0.00 in0.0 mm
06:02 AM 51.8°F11.0°C 39.6°F4.2°C 63% 8.9 mph NNW14.3 kmh NNW 9.4 mph15.1 kmh 30.10 in1019.3 mb 0.00 in0.0 mm 0.00 in0.0 mm 0.00 in0.0 mm
06:03 AM 51.8°F11.0°C 39.6°F4.2°C 63% 7.8 mph WNW12.6 kmh WNW 9.4 mph15.1 kmh 30.10 in1019.3 mb 0.00 in0.0 mm 0.00 in0.0 mm 0.00 in0.0 mm
06:04 AM 51.8°F11.0°C 39.6°F4.2°C 63% 4.7 mph W7.6 kmh W 9.4 mph15.1 kmh 30.10 in1019.3 mb 0.00 in0.0 mm 0.00 in0.0 mm 0.00 in0.0 mm
06:05 AM 51.8°F11.0°C 40.0°F4.4°C 64% 5.3 mph W8.5 kmh W 9.4 mph15.1 kmh 30.10 in1019.3 mb 0.00 in0.0 mm 0.00 in0.0 mm 0.00 in0.0 mm
06:06 AM 51.8°F11.0°C 40.4°F4.7°C 65% 4.2 mph WNW6.8 kmh WNW 9.4 mph15.1 kmh 30.10 in1019.3 mb 0.00 in0.0 mm 0.00 in0.0 mm 0.00 in0.0 mm
06:07 AM 51.8°F11.0°C 40.4°F4.7°C 65% 4.2 mph WNW6.8 kmh WNW 9.4 mph15.1 kmh 30.11 in1019.6 mb 0.00 in0.0 mm 0.00 in0.0 mm 0.00 in0.0 mm
06:08 AM 51.8°F11.0°C 40.8°F4.9°C 66% 6.8 mph WNW10.9 kmh WNW 9.4 mph15.1 kmh 30.11 in1019.6 mb 0.00 in0.0 mm 0.00 in0.0 mm 0.00 in0.0 mm
06:09 AM 51.8°F11.0°C 40.4°F4.7°C 65% 4.2 mph WNW6.8 kmh WNW 9.4 mph15.1 kmh 30.11 in1019.6 mb 0.00 in0.0 mm 0.00 in0.0 mm 0.00 in0.0 mm
06:10 AM 51.6°F10.9°C 40.2°F4.6°C 65% 8.3 mph W13.4 kmh W 9.4 mph15.1 kmh 30.11 in1019.6 mb 0.00 in0.0 mm 0.00 in0.0 mm 0.00 in0.0 mm
06:11 AM 51.6°F10.9°C 40.2°F4.6°C 65% 4.2 mph W6.8 kmh W 8.9 mph14.3 kmh 30.11 in1019.6 mb 0.00 in0.0 mm 0.00 in0.0 mm 0.00 in0.0 mm
06:12 AM 51.6°F10.9°C 40.6°F4.8°C 66% 6.3 mph NW10.1 kmh NW 8.9 mph14.3 kmh 30.11 in1019.6 mb 0.00 in0.0 mm 0.00 in0.0 mm 0.00 in0.0 mm
06:13 AM 51.6°F10.9°C 40.6°F4.8°C 66% 4.7 mph W7.6 kmh W 8.9 mph14.3 kmh 30.11 in1019.6 mb 0.00 in0.0 mm 0.00 in0.0 mm 0.00 in0.0 mm
06:14 AM 51.6°F10.9°C 40.2°F4.6°C 65% 7.8 mph WNW12.6 kmh WNW 8.3 mph13.4 kmh 30.11 in1019.6 mb 0.00 in0.0 mm 0.00 in0.0 mm 0.00 in0.0 mm
06:15 AM 51.6°F10.9°C 39.8°F4.3°C 64% 8.9 mph N14.3 kmh N 8.9 mph14.3 kmh 30.11 in1019.6 mb 0.00 in0.0 mm 0.00 in0.0 mm 0.00 in0.0 mm
06:16 AM 51.6°F10.9°C 39.8°F4.3°C 64% 5.8 mph W9.3 kmh W 8.9 mph14.3 kmh 30.11 in1019.6 mb 0.00 in0.0 mm 0.00 in0.0 mm 0.00 in0.0 mm
06:17 AM 51.6°F10.9°C 40.2°F4.6°C 65% 3.7 mph W6.0 kmh W 8.9 mph14.3 kmh 30.11 in1019.6 mb 0.00 in0.0 mm 0.00 in0.0 mm 0.00 in0.0 mm
06:18 AM 51.6°F10.9°C 40.6°F4.8°C 66% 7.8 mph W12.6 kmh W 8.9 mph14.3 kmh 30.11 in1019.6 mb 0.00 in0.0 mm 0.00 in0.0 mm 0.00 in0.0 mm
06:19 AM 51.6°F10.9°C 40.2°F4.6°C 65% 5.3 mph WNW8.5 kmh WNW 8.9 mph14.3 kmh 30.11 in1019.6 mb 0.00 in0.0 mm 0.00 in0.0 mm 0.00 in0.0 mm
06:20 AM 51.6°F10.9°C 40.2°F4.6°C 65% 5.8 mph W9.3 kmh W 8.9 mph14.3 kmh 30.12 in1020.0 mb 0.00 in0.0 mm 0.00 in0.0 mm 0.00 in0.0 mm
06:21 AM 51.6°F10.9°C 40.2°F4.6°C 65% 5.3 mph SW8.5 kmh SW 8.9 mph14.3 kmh 30.12 in1020.0 mb 0.00 in0.0 mm 0.00 in0.0 mm 0.00 in0.0 mm
06:22 AM 51.6°F10.9°C 40.2°F4.6°C 65% 5.3 mph NW8.5 kmh NW 8.9 mph14.3 kmh 30.12 in1020.0 mb 0.00 in0.0 mm 0.00 in0.0 mm 0.00 in0.0 mm
06:23 AM 51.6°F10.9°C 40.2°F4.6°C 65% 5.8 mph WNW9.3 kmh WNW 9.4 mph15.1 kmh 30.12 in1020.0 mb 0.00 in0.0 mm 0.00 in0.0 mm 0.00 in0.0 mm
06:24 AM 51.6°F10.9°C 40.6°F4.8°C 66% 5.8 mph E9.3 kmh E 9.4 mph15.1 kmh 30.12 in1020.0 mb 0.00 in0.0 mm 0.00 in0.0 mm 0.00 in0.0 mm
06:25 AM 51.6°F10.9°C 40.6°F4.8°C 66% 8.3 mph WNW13.4 kmh WNW 9.4 mph15.1 kmh 30.12 in1020.0 mb 0.00 in0.0 mm 0.00 in0.0 mm 0.00 in0.0 mm
06:26 AM 51.6°F10.9°C 40.6°F4.8°C 66% 7.3 mph NNW11.7 kmh NNW 9.4 mph15.1 kmh 30.12 in1020.0 mb 0.00 in0.0 mm 0.00 in0.0 mm 0.00 in0.0 mm
06:27 AM 51.6°F10.9°C 40.6°F4.8°C 66% 5.3 mph WNW8.5 kmh WNW 9.4 mph15.1 kmh 30.12 in1020.0 mb 0.00 in0.0 mm 0.00 in0.0 mm 0.00 in0.0 mm
06:28 AM 51.6°F10.9°C 40.6°F4.8°C 66% 4.7 mph NNW7.6 kmh NNW 9.4 mph15.1 kmh 30.12 in1020.0 mb 0.00 in0.0 mm 0.00 in0.0 mm 0.00 in0.0 mm
06:29 AM 51.6°F10.9°C 40.6°F4.8°C 66% 5.8 mph NW9.3 kmh NW 9.4 mph15.1 kmh 30.12 in1020.0 mb 0.00 in0.0 mm 0.00 in0.0 mm 0.00 in0.0 mm
06:30 AM 51.6°F10.9°C 41.0°F5.0°C 67% 3.7 mph WNW6.0 kmh WNW 9.4 mph15.1 kmh 30.12 in1020.0 mb 0.00 in0.0 mm 0.00 in0.0 mm 0.00 in0.0 mm
06:31 AM 51.6°F10.9°C 40.6°F4.8°C 66% 5.8 mph N9.3 kmh N 9.4 mph15.1 kmh 30.12 in1020.0 mb 0.00 in0.0 mm 0.00 in0.0 mm 0.00 in0.0 mm
06:32 AM 51.6°F10.9°C 40.6°F4.8°C 66% 6.8 mph WNW10.9 kmh WNW 9.4 mph15.1 kmh 30.12 in1020.0 mb 0.00 in0.0 mm 0.00 in0.0 mm 0.00 in0.0 mm
06:33 AM 51.6°F10.9°C 40.2°F4.6°C 65% 7.3 mph WNW11.7 kmh WNW 8.3 mph13.4 kmh 30.12 in1020.0 mb 0.00 in0.0 mm 0.00 in0.0 mm 0.00 in0.0 mm
06:34 AM 51.6°F10.9°C 40.2°F4.6°C 65% 4.2 mph NW6.8 kmh NW 8.3 mph13.4 kmh 30.12 in1020.0 mb 0.00 in0.0 mm 0.00 in0.0 mm 0.00 in0.0 mm
06:35 AM 51.6°F10.9°C 41.0°F5.0°C 67% 4.7 mph WNW7.6 kmh WNW 8.3 mph13.4 kmh 30.12 in1020.0 mb 0.00 in0.0 mm 0.00 in0.0 mm 0.00 in0.0 mm
06:36 AM 51.6°F10.9°C 40.6°F4.8°C 66% 4.7 mph ENE7.6 kmh ENE 8.3 mph13.4 kmh 30.12 in1020.0 mb 0.00 in0.0 mm 0.00 in0.0 mm 0.00 in0.0 mm
06:37 AM 51.6°F10.9°C 40.6°F4.8°C 66% 8.9 mph W14.3 kmh W 10.4 mph16.7 kmh 30.12 in1020.0 mb 0.00 in0.0 mm 0.00 in0.0 mm 0.00 in0.0 mm
06:38 AM 51.6°F10.9°C 40.2°F4.6°C 65% 7.3 mph WNW11.7 kmh WNW 10.4 mph16.7 kmh 30.12 in1020.0 mb 0.00 in0.0 mm 0.00 in0.0 mm 0.00 in0.0 mm
06:39 AM 51.6°F10.9°C 40.6°F4.8°C 66% 7.8 mph WNW12.6 kmh WNW 10.4 mph16.7 kmh 30.12 in1020.0 mb 0.00 in0.0 mm 0.00 in0.0 mm 0.00 in0.0 mm
06:40 AM 51.6°F10.9°C 39.8°F4.3°C 64% 4.7 mph NNW7.6 kmh NNW 10.4 mph16.7 kmh 30.12 in1020.0 mb 0.00 in0.0 mm 0.00 in0.0 mm 0.00 in0.0 mm
06:41 AM 51.6°F10.9°C 39.8°F4.3°C 64% 6.3 mph W10.1 kmh W 10.4 mph16.7 kmh 30.12 in1020.0 mb 0.00 in0.0 mm 0.00 in0.0 mm 0.00 in0.0 mm
06:42 AM 51.6°F10.9°C 39.8°F4.3°C 64% 6.3 mph WNW10.1 kmh WNW 10.4 mph16.7 kmh 30.12 in1020.0 mb 0.00 in0.0 mm 0.00 in0.0 mm 0.00 in0.0 mm
06:43 AM 51.6°F10.9°C 39.8°F4.3°C 64% 6.3 mph W10.1 kmh W 10.4 mph16.7 kmh 30.12 in1020.0 mb 0.00 in0.0 mm 0.00 in0.0 mm 0.00 in0.0 mm
06:44 AM 51.6°F10.9°C 39.8°F4.3°C 64% 8.3 mph WNW13.4 kmh WNW 10.4 mph16.7 kmh 30.12 in1020.0 mb 0.00 in0.0 mm 0.00 in0.0 mm 0.00 in0.0 mm
06:45 AM 51.6°F10.9°C 39.8°F4.3°C 64% 6.3 mph NW10.1 kmh NW 10.4 mph16.7 kmh 30.12 in1020.0 mb 0.00 in0.0 mm 0.00 in0.0 mm 0.00 in0.0 mm
06:46 AM 51.6°F10.9°C 39.8°F4.3°C 64% 4.7 mph N7.6 kmh N 10.4 mph16.7 kmh 30.12 in1020.0 mb 0.00 in0.0 mm 0.00 in0.0 mm 0.00 in0.0 mm
06:47 AM 51.6°F10.9°C 39.8°F4.3°C 64% 5.3 mph WNW8.5 kmh WNW 9.9 mph15.9 kmh 30.12 in1020.0 mb 0.00 in0.0 mm 0.00 in0.0 mm 0.00 in0.0 mm
06:48 AM 51.6°F10.9°C 39.8°F4.3°C 64% 5.3 mph N8.5 kmh N 9.9 mph15.9 kmh 30.12 in1020.0 mb 0.00 in0.0 mm 0.00 in0.0 mm 0.00 in0.0 mm
06:49 AM 51.6°F10.9°C 39.8°F4.3°C 64% 5.3 mph WNW8.5 kmh WNW 9.9 mph15.9 kmh 30.12 in1020.0 mb 0.00 in0.0 mm 0.00 in0.0 mm 0.00 in0.0 mm
06:50 AM 51.6°F10.9°C 39.4°F4.1°C 63% 6.8 mph WNW10.9 kmh WNW 9.9 mph15.9 kmh 30.12 in1020.0 mb 0.00 in0.0 mm 0.00 in0.0 mm 0.00 in0.0 mm
06:51 AM 51.6°F10.9°C 39.8°F4.3°C 64% 4.7 mph NNW7.6 kmh NNW 9.9 mph15.9 kmh 30.12 in1020.0 mb 0.00 in0.0 mm 0.00 in0.0 mm 0.00 in0.0 mm
06:52 AM 51.6°F10.9°C 39.8°F4.3°C 64% 4.7 mph WNW7.6 kmh WNW 9.9 mph15.9 kmh 30.12 in1020.0 mb 0.00 in0.0 mm 0.00 in0.0 mm 0.00 in0.0 mm
06:53 AM 51.6°F10.9°C 39.8°F4.3°C 64% 3.2 mph WNW5.1 kmh WNW 8.3 mph13.4 kmh 30.12 in1020.0 mb 0.00 in0.0 mm 0.00 in0.0 mm 0.00 in0.0 mm
06:54 AM 51.6°F10.9°C 39.8°F4.3°C 64% 6.8 mph W10.9 kmh W 7.3 mph11.7 kmh 30.12 in1020.0 mb 0.00 in0.0 mm 0.00 in0.0 mm 0.00 in0.0 mm
06:55 AM 51.6°F10.9°C 39.4°F4.1°C 63% 5.8 mph WNW9.3 kmh WNW 7.3 mph11.7 kmh 30.13 in1020.3 mb 0.00 in0.0 mm 0.00 in0.0 mm 0.00 in0.0 mm
06:56 AM 51.6°F10.9°C 39.4°F4.1°C 63% 5.3 mph N8.5 kmh N 7.3 mph11.7 kmh 30.13 in1020.3 mb 0.00 in0.0 mm 0.00 in0.0 mm 0.00 in0.0 mm
06:57 AM 51.6°F10.9°C 39.4°F4.1°C 63% 7.3 mph WNW11.7 kmh WNW 7.3 mph11.7 kmh 30.13 in1020.3 mb 0.00 in0.0 mm 0.00 in0.0 mm 0.00 in0.0 mm
06:58 AM 51.6°F10.9°C 39.4°F4.1°C 63% 4.2 mph WNW6.8 kmh WNW 7.3 mph11.7 kmh 30.13 in1020.3 mb 0.00 in0.0 mm 0.00 in0.0 mm 0.00 in0.0 mm
06:59 AM 51.6°F10.9°C 39.4°F4.1°C 63% 4.2 mph WNW6.8 kmh WNW 7.3 mph11.7 kmh 30.13 in1020.3 mb 0.00 in0.0 mm 0.00 in0.0 mm 0.00 in0.0 mm
07:00 AM 51.6°F10.9°C 39.4°F4.1°C 63% 6.8 mph NNE10.9 kmh NNE 7.3 mph11.7 kmh 30.13 in1020.3 mb 0.00 in0.0 mm 0.00 in0.0 mm 0.00 in0.0 mm
07:01 AM 51.6°F10.9°C 39.4°F4.1°C 63% 8.9 mph W14.3 kmh W 8.9 mph14.3 kmh 30.13 in1020.3 mb 0.00 in0.0 mm 0.00 in0.0 mm 0.00 in0.0 mm
07:02 AM 51.8°F11.0°C 39.2°F4.0°C 62% 7.3 mph NW11.7 kmh NW 10.9 mph17.5 kmh 30.13 in1020.3 mb 0.00 in0.0 mm 0.00 in0.0 mm 0.00 in0.0 mm
07:03 AM 51.8°F11.0°C 39.2°F4.0°C 62% 6.3 mph NNW10.1 kmh NNW 10.9 mph17.5 kmh 30.13 in1020.3 mb 0.00 in0.0 mm 0.00 in0.0 mm 0.00 in0.0 mm
07:04 AM 51.8°F11.0°C 39.2°F4.0°C 62% 8.9 mph WNW14.3 kmh WNW 10.9 mph17.5 kmh 30.13 in1020.3 mb 0.00 in0.0 mm 0.00 in0.0 mm 0.00 in0.0 mm
07:05 AM 51.8°F11.0°C 38.8°F3.8°C 61% 5.3 mph WNW8.5 kmh WNW 10.9 mph17.5 kmh 30.13 in1020.3 mb 0.00 in0.0 mm 0.00 in0.0 mm 0.00 in0.0 mm
07:06 AM 51.8°F11.0°C 38.8°F3.8°C 61% 5.3 mph WNW8.5 kmh WNW 10.9 mph17.5 kmh 30.13 in1020.3 mb 0.00 in0.0 mm 0.00 in0.0 mm 0.00 in0.0 mm
07:07 AM 51.8°F11.0°C 38.8°F3.8°C 61% 6.8 mph NW10.9 kmh NW 10.9 mph17.5 kmh 30.13 in1020.3 mb 0.00 in0.0 mm 0.00 in0.0 mm 0.00 in0.0 mm
07:08 AM 51.8°F11.0°C 38.8°F3.8°C 61% 4.7 mph WNW7.6 kmh WNW 10.9 mph17.5 kmh 30.13 in1020.3 mb 0.00 in0.0 mm 0.00 in0.0 mm 0.00 in0.0 mm
07:09 AM 51.8°F11.0°C 39.2°F4.0°C 62% 5.3 mph WNW8.5 kmh WNW 10.9 mph17.5 kmh 30.13 in1020.3 mb 0.00 in0.0 mm 0.00 in0.0 mm 0.00 in0.0 mm
07:10 AM 51.8°F11.0°C 39.2°F4.0°C 62% 6.8 mph WNW10.9 kmh WNW 10.9 mph17.5 kmh 30.13 in1020.3 mb 0.00 in0.0 mm 0.00 in0.0 mm 0.00 in0.0 mm
07:11 AM 51.8°F11.0°C 39.2°F4.0°C 62% 5.8 mph WNW9.3 kmh WNW 10.9 mph17.5 kmh 30.13 in1020.3 mb 0.00 in0.0 mm 0.00 in0.0 mm 0.00 in0.0 mm
07:12 AM 51.8°F11.0°C 39.2°F4.0°C 62% 4.2 mph WNW6.8 kmh WNW 9.4 mph15.1 kmh 30.13 in1020.3 mb 0.00 in0.0 mm 0.00 in0.0 mm 0.00 in0.0 mm
07:13 AM 51.8°F11.0°C 39.2°F4.0°C 62% 6.8 mph W10.9 kmh W 9.4 mph15.1 kmh 30.13 in1020.3 mb 0.00 in0.0 mm 0.00 in0.0 mm 0.00 in0.0 mm
07:14 AM 51.8°F11.0°C 39.2°F4.0°C 62% 5.8 mph WNW9.3 kmh WNW 9.4 mph15.1 kmh 30.13 in1020.3 mb 0.00 in0.0 mm 0.00 in0.0 mm 0.00 in0.0 mm
07:15 AM 51.8°F11.0°C 39.2°F4.0°C 62% 4.7 mph NW7.6 kmh NW 9.4 mph15.1 kmh 30.13 in1020.3 mb 0.00 in0.0 mm 0.00 in0.0 mm 0.00 in0.0 mm
07:16 AM 51.8°F11.0°C 39.2°F4.0°C 62% 3.7 mph NNW6.0 kmh NNW 9.4 mph15.1 kmh 30.13 in1020.3 mb 0.00 in0.0 mm 0.00 in0.0 mm 0.00 in0.0 mm
07:17 AM 51.8°F11.0°C 39.2°F4.0°C 62% 5.8 mph WNW9.3 kmh WNW 9.4 mph15.1 kmh 30.13 in1020.3 mb 0.00 in0.0 mm 0.00 in0.0 mm 0.00 in0.0 mm
07:18 AM 51.8°F11.0°C 38.8°F3.8°C 61% 6.3 mph NW10.1 kmh NW 7.8 mph12.6 kmh 30.13 in1020.3 mb 0.00 in0.0 mm 0.00 in0.0 mm 0.00 in0.0 mm
07:19 AM 51.8°F11.0°C 38.8°F3.8°C 61% 7.8 mph WNW12.6 kmh WNW 7.8 mph12.6 kmh 30.13 in1020.3 mb 0.00 in0.0 mm 0.00 in0.0 mm 0.00 in0.0 mm
07:20 AM 52.0°F11.1°C 38.6°F3.7°C 60% 5.3 mph WNW8.5 kmh WNW 8.9 mph14.3 kmh 30.13 in1020.3 mb 0.00 in0.0 mm 0.00 in0.0 mm 0.00 in0.0 mm
07:21 AM 52.0°F11.1°C 39.0°F3.9°C 61% 7.8 mph NNW12.6 kmh NNW 8.9 mph14.3 kmh 30.13 in1020.3 mb 0.00 in0.0 mm 0.00 in0.0 mm 0.00 in0.0 mm
07:22 AM 52.0°F11.1°C 38.6°F3.7°C 60% 5.8 mph WNW9.3 kmh WNW 8.9 mph14.3 kmh 30.13 in1020.3 mb 0.00 in0.0 mm 0.00 in0.0 mm 0.00 in0.0 mm
07:23 AM 52.0°F11.1°C 38.6°F3.7°C 60% 9.4 mph W15.1 kmh W 9.4 mph15.1 kmh 30.13 in1020.3 mb 0.00 in0.0 mm 0.00 in0.0 mm 0.00 in0.0 mm
07:24 AM 52.0°F11.1°C 38.6°F3.7°C 60% 4.7 mph WNW7.6 kmh WNW 9.4 mph15.1 kmh 30.13 in1020.3 mb 0.00 in0.0 mm 0.00 in0.0 mm 0.00 in0.0 mm
07:25 AM 52.0°F11.1°C 38.6°F3.7°C 60% 3.7 mph WNW6.0 kmh WNW 9.4 mph15.1 kmh 30.13 in1020.3 mb 0.00 in0.0 mm 0.00 in0.0 mm 0.00 in0.0 mm
07:26 AM 52.0°F11.1°C 39.0°F3.9°C 61% 4.7 mph WNW7.6 kmh WNW 9.4 mph15.1 kmh 30.13 in1020.3 mb 0.00 in0.0 mm 0.00 in0.0 mm 0.00 in0.0 mm
07:27 AM 52.0°F11.1°C 39.0°F3.9°C 61% 6.3 mph NW10.1 kmh NW 9.4 mph15.1 kmh 30.13 in1020.3 mb 0.00 in0.0 mm 0.00 in0.0 mm 0.00 in0.0 mm
07:28 AM 52.0°F11.1°C 38.6°F3.7°C 60% 5.3 mph NW8.5 kmh NW 9.4 mph15.1 kmh 30.13 in1020.3 mb 0.00 in0.0 mm 0.00 in0.0 mm 0.00 in0.0 mm
07:29 AM 52.0°F11.1°C 38.6°F3.7°C 60% 4.2 mph NW6.8 kmh NW 9.4 mph15.1 kmh 30.13 in1020.3 mb 0.00 in0.0 mm 0.00 in0.0 mm 0.00 in0.0 mm
07:30 AM 52.0°F11.1°C 39.0°F3.9°C 61% 3.7 mph NNW6.0 kmh NNW 9.4 mph15.1 kmh 30.13 in1020.3 mb 0.00 in0.0 mm 0.00 in0.0 mm 0.00 in0.0 mm
07:31 AM 52.0°F11.1°C 39.0°F3.9°C 61% 6.3 mph NNW10.1 kmh NNW 9.4 mph15.1 kmh 30.13 in1020.3 mb 0.00 in0.0 mm 0.00 in0.0 mm 0.00 in0.0 mm
07:32 AM 52.0°F11.1°C 38.6°F3.7°C 60% 6.8 mph WNW10.9 kmh WNW 9.4 mph15.1 kmh 30.14 in1020.7 mb 0.00 in0.0 mm 0.00 in0.0 mm 0.00 in0.0 mm
07:33 AM 52.0°F11.1°C 38.6°F3.7°C 60% 5.3 mph NNW8.5 kmh NNW 8.9 mph14.3 kmh 30.14 in1020.7 mb 0.00 in0.0 mm 0.00 in0.0 mm 0.00 in0.0 mm
07:34 AM 52.0°F11.1°C 39.0°F3.9°C 61% 5.3 mph WNW8.5 kmh WNW 8.3 mph13.4 kmh 30.14 in1020.7 mb 0.00 in0.0 mm 0.00 in0.0 mm 0.00 in0.0 mm
07:35 AM 52.0°F11.1°C 39.0°F3.9°C 61% 5.8 mph WNW9.3 kmh WNW 8.3 mph13.4 kmh 30.14 in1020.7 mb 0.00 in0.0 mm 0.00 in0.0 mm 0.00 in0.0 mm
07:36 AM 52.0°F11.1°C 39.0°F3.9°C 61% 5.3 mph SSE8.5 kmh SSE 8.3 mph13.4 kmh 30.14 in1020.7 mb 0.00 in0.0 mm 0.00 in0.0 mm 0.00 in0.0 mm
07:37 AM 52.0°F11.1°C 38.6°F3.7°C 60% 8.3 mph WNW13.4 kmh WNW 8.3 mph13.4 kmh 30.14 in1020.7 mb 0.00 in0.0 mm 0.00 in0.0 mm 0.00 in0.0 mm
07:38 AM 52.0°F11.1°C 38.6°F3.7°C 60% 7.8 mph WNW12.6 kmh WNW 8.3 mph13.4 kmh 30.14 in1020.7 mb 0.00 in0.0 mm 0.00 in0.0 mm 0.00 in0.0 mm
07:39 AM 52.0°F11.1°C 38.6°F3.7°C 60% 6.3 mph NNW10.1 kmh NNW 8.3 mph13.4 kmh 30.14 in1020.7 mb 0.00 in0.0 mm 0.00 in0.0 mm 0.00 in0.0 mm
07:40 AM 52.0°F11.1°C 38.1°F3.4°C 59% 6.8 mph W10.9 kmh W 8.3 mph13.4 kmh 30.14 in1020.7 mb 0.00 in0.0 mm 0.00 in0.0 mm 0.00 in0.0 mm
07:41 AM 52.0°F11.1°C 38.1°F3.4°C 59% 5.3 mph WNW8.5 kmh WNW 8.3 mph13.4 kmh 30.14 in1020.7 mb 0.00 in0.0 mm 0.00 in0.0 mm 0.00 in0.0 mm
07:42 AM 52.0°F11.1°C 38.1°F3.4°C 59% 5.8 mph WNW9.3 kmh WNW 8.3 mph13.4 kmh 30.14 in1020.7 mb 0.00 in0.0 mm 0.00 in0.0 mm 0.00 in0.0 mm
07:43 AM 52.0°F11.1°C 38.6°F3.7°C 60% 5.3 mph W8.5 kmh W 8.3 mph13.4 kmh 30.14 in1020.7 mb 0.00 in0.0 mm 0.00 in0.0 mm 0.00 in0.0 mm
07:44 AM 52.0°F11.1°C 38.6°F3.7°C 60% 5.3 mph W8.5 kmh W 9.4 mph15.1 kmh 30.14 in1020.7 mb 0.00 in0.0 mm 0.00 in0.0 mm 0.00 in0.0 mm
07:45 AM 52.0°F11.1°C 38.6°F3.7°C 60% 7.3 mph N11.7 kmh N 9.4 mph15.1 kmh 30.14 in1020.7 mb 0.00 in0.0 mm 0.00 in0.0 mm 0.00 in0.0 mm
07:46 AM 52.2°F11.2°C 38.7°F3.7°C 60% 6.8 mph NW10.9 kmh NW 9.4 mph15.1 kmh 30.14 in1020.7 mb 0.00 in0.0 mm 0.00 in0.0 mm 0.00 in0.0 mm
07:47 AM 52.2°F11.2°C 38.7°F3.7°C 60% 6.3 mph WNW10.1 kmh WNW 9.4 mph15.1 kmh 30.14 in1020.7 mb 0.00 in0.0 mm 0.00 in0.0 mm 0.00 in0.0 mm
07:48 AM 52.2°F11.2°C 38.7°F3.7°C 60% 6.3 mph NW10.1 kmh NW 9.4 mph15.1 kmh 30.14 in1020.7 mb 0.00 in0.0 mm 0.00 in0.0 mm 0.00 in0.0 mm
07:49 AM 52.2°F11.2°C 38.7°F3.7°C 60% 4.2 mph WNW6.8 kmh WNW 9.4 mph15.1 kmh 30.14 in1020.7 mb 0.00 in0.0 mm 0.00 in0.0 mm 0.00 in0.0 mm
07:50 AM 52.2°F11.2°C 38.7°F3.7°C 60% 6.3 mph WNW10.1 kmh WNW 9.4 mph15.1 kmh 30.14 in1020.7 mb 0.00 in0.0 mm 0.00 in0.0 mm 0.00 in0.0 mm
07:51 AM 52.2°F11.2°C 38.7°F3.7°C 60% 4.2 mph WNW6.8 kmh WNW 9.4 mph15.1 kmh 30.14 in1020.7 mb 0.00 in0.0 mm 0.00 in0.0 mm 0.00 in0.0 mm
07:52 AM 52.2°F11.2°C 38.7°F3.7°C 60% 5.3 mph NNW8.5 kmh NNW 9.4 mph15.1 kmh 30.14 in1020.7 mb 0.00 in0.0 mm 0.00 in0.0 mm 0.00 in0.0 mm
07:53 AM 52.2°F11.2°C 38.7°F3.7°C 60% 4.2 mph NNE6.8 kmh NNE 9.4 mph15.1 kmh 30.14 in1020.7 mb 0.00 in0.0 mm 0.00 in0.0 mm 0.00 in0.0 mm
07:54 AM 52.2°F11.2°C 38.7°F3.7°C 60% 3.7 mph NNW6.0 kmh NNW 7.8 mph12.6 kmh 30.14 in1020.7 mb 0.00 in0.0 mm 0.00 in0.0 mm 0.00 in0.0 mm
07:55 AM 52.2°F11.2°C 38.7°F3.7°C 60% 3.2 mph W5.1 kmh W 7.8 mph12.6 kmh 30.15 in1021.0 mb 0.00 in0.0 mm 0.00 in0.0 mm 0.00 in0.0 mm
07:56 AM 52.2°F11.2°C 38.7°F3.7°C 60% 5.8 mph W9.3 kmh W 7.8 mph12.6 kmh 30.15 in1021.0 mb 0.00 in0.0 mm 0.00 in0.0 mm 0.00 in0.0 mm
07:57 AM 52.2°F11.2°C 39.2°F4.0°C 61% 5.3 mph WNW8.5 kmh WNW 7.8 mph12.6 kmh 30.15 in1021.0 mb 0.00 in0.0 mm 0.00 in0.0 mm 0.00 in0.0 mm
07:58 AM 52.2°F11.2°C 39.6°F4.2°C 62% 4.7 mph NW7.6 kmh NW 6.8 mph10.9 kmh 30.15 in1021.0 mb 0.00 in0.0 mm 0.00 in0.0 mm 0.00 in0.0 mm
07:59 AM 52.2°F11.2°C 39.2°F4.0°C 61% 5.8 mph W9.3 kmh W 6.8 mph10.9 kmh 30.15 in1021.0 mb 0.00 in0.0 mm 0.00 in0.0 mm 0.00 in0.0 mm
08:00 AM 52.2°F11.2°C 39.2°F4.0°C 61% 6.8 mph WNW10.9 kmh WNW 6.8 mph10.9 kmh 30.15 in1021.0 mb 0.00 in0.0 mm 0.00 in0.0 mm 0.00 in0.0 mm
08:01 AM 52.2°F11.2°C 39.2°F4.0°C 61% 4.7 mph NNW7.6 kmh NNW 6.8 mph10.9 kmh 30.15 in1021.0 mb 0.00 in0.0 mm 0.00 in0.0 mm 0.00 in0.0 mm
08:02 AM 52.2°F11.2°C 39.2°F4.0°C 61% 5.8 mph NNW9.3 kmh NNW 6.8 mph10.9 kmh 30.15 in1021.0 mb 0.00 in0.0 mm 0.00 in0.0 mm 0.00 in0.0 mm
08:03 AM 52.2°F11.2°C 39.2°F4.0°C 61% 4.7 mph W7.6 kmh W 6.8 mph10.9 kmh 30.15 in1021.0 mb 0.00 in0.0 mm 0.00 in0.0 mm 0.00 in0.0 mm
08:04 AM 52.2°F11.2°C 39.2°F4.0°C 61% 5.8 mph NW9.3 kmh NW 6.8 mph10.9 kmh 30.15 in1021.0 mb 0.00 in0.0 mm 0.00 in0.0 mm 0.00 in0.0 mm
08:05 AM 52.2°F11.2°C 39.2°F4.0°C 61% 4.7 mph WNW7.6 kmh WNW 6.8 mph10.9 kmh 30.15 in1021.0 mb 0.00 in0.0 mm 0.00 in0.0 mm 0.00 in0.0 mm
08:06 AM 52.2°F11.2°C 39.2°F4.0°C 61% 4.7 mph WNW7.6 kmh WNW 6.8 mph10.9 kmh 30.15 in1021.0 mb 0.00 in0.0 mm 0.00 in0.0 mm 0.00 in0.0 mm
08:07 AM 52.3°F11.3°C 39.3°F4.1°C 61% 5.8 mph WNW9.3 kmh WNW 6.8 mph10.9 kmh 30.15 in1021.0 mb 0.00 in0.0 mm 0.00 in0.0 mm 0.00 in0.0 mm
08:08 AM 52.3°F11.3°C 39.3°F4.1°C 61% 5.8 mph WSW9.3 kmh WSW 6.8 mph10.9 kmh 30.16 in1021.3 mb 0.00 in0.0 mm 0.00 in0.0 mm 0.00 in0.0 mm
08:09 AM 52.3°F11.3°C 39.3°F4.1°C 61% 4.7 mph WNW7.6 kmh WNW 6.8 mph10.9 kmh 30.16 in1021.3 mb 0.00 in0.0 mm 0.00 in0.0 mm 0.00 in0.0 mm
08:10 AM 52.3°F11.3°C 39.3°F4.1°C 61% 7.3 mph NW11.7 kmh NW 7.3 mph11.7 kmh 30.16 in1021.3 mb 0.00 in0.0 mm 0.00 in0.0 mm 0.00 in0.0 mm
08:11 AM 52.3°F11.3°C 39.3°F4.1°C 61% 5.8 mph NW9.3 kmh NW 7.8 mph12.6 kmh 30.16 in1021.3 mb 0.00 in0.0 mm 0.00 in0.0 mm 0.00 in0.0 mm
08:12 AM 52.3°F11.3°C 39.3°F4.1°C 61% 4.2 mph WNW6.8 kmh WNW 7.8 mph12.6 kmh 30.16 in1021.3 mb 0.00 in0.0 mm 0.00 in0.0 mm 0.00 in0.0 mm
08:13 AM 52.3°F11.3°C 38.8°F3.8°C 60% 4.2 mph W6.8 kmh W 7.8 mph12.6 kmh 30.16 in1021.3 mb 0.00 in0.0 mm 0.00 in0.0 mm 0.00 in0.0 mm
08:14 AM 52.3°F11.3°C 39.3°F4.1°C 61% 6.8 mph WNW10.9 kmh WNW 7.8 mph12.6 kmh 30.16 in1021.3 mb 0.00 in0.0 mm 0.00 in0.0 mm 0.00 in0.0 mm
08:15 AM 52.3°F11.3°C 39.3°F4.1°C 61% 5.8 mph NNW9.3 kmh NNW 7.8 mph12.6 kmh 30.16 in1021.3 mb 0.00 in0.0 mm 0.00 in0.0 mm 0.00 in0.0 mm
08:16 AM 52.5°F11.4°C 39.4°F4.1°C 61% 6.3 mph WNW10.1 kmh WNW 7.8 mph12.6 kmh 30.16 in1021.3 mb 0.00 in0.0 mm 0.00 in0.0 mm 0.00 in0.0 mm
08:17 AM 52.5°F11.4°C 39.0°F3.9°C 60% 9.9 mph NW15.9 kmh NW 9.9 mph15.9 kmh 30.16 in1021.3 mb 0.00 in0.0 mm 0.00 in0.0 mm 0.00 in0.0 mm
08:18 AM 52.5°F11.4°C 39.0°F3.9°C 60% 5.8 mph WNW9.3 kmh WNW 9.9 mph15.9 kmh 30.16 in1021.3 mb 0.00 in0.0 mm 0.00 in0.0 mm 0.00 in0.0 mm
08:19 AM 52.5°F11.4°C 39.0°F3.9°C 60% 6.3 mph N10.1 kmh N 9.9 mph15.9 kmh 30.15 in1021.0 mb 0.00 in0.0 mm 0.00 in0.0 mm 0.00 in0.0 mm
08:20 AM 52.5°F11.4°C 39.0°F3.9°C 60% 7.3 mph W11.7 kmh W 9.9 mph15.9 kmh 30.15 in1021.0 mb 0.00 in0.0 mm 0.00 in0.0 mm 0.00 in0.0 mm
08:21 AM 52.5°F11.4°C 39.0°F3.9°C 60% 6.8 mph NW10.9 kmh NW 9.9 mph15.9 kmh 30.15 in1021.0 mb 0.00 in0.0 mm 0.00 in0.0 mm 0.00 in0.0 mm
08:22 AM 52.5°F11.4°C 39.0°F3.9°C 60% 6.3 mph WNW10.1 kmh WNW 9.9 mph15.9 kmh 30.15 in1021.0 mb 0.00 in0.0 mm 0.00 in0.0 mm 0.00 in0.0 mm
08:23 AM 52.5°F11.4°C 39.0°F3.9°C 60% 6.3 mph WNW10.1 kmh WNW 9.9 mph15.9 kmh 30.15 in1021.0 mb 0.00 in0.0 mm 0.00 in0.0 mm 0.00 in0.0 mm
08:24 AM 52.5°F11.4°C 39.0°F3.9°C 60% 5.3 mph WNW8.5 kmh WNW 9.9 mph15.9 kmh 30.15 in1021.0 mb 0.00 in0.0 mm 0.00 in0.0 mm 0.00 in0.0 mm
08:25 AM 52.5°F11.4°C 39.0°F3.9°C 60% 5.3 mph NW8.5 kmh NW 9.9 mph15.9 kmh 30.15 in1021.0 mb 0.00 in0.0 mm 0.00 in0.0 mm 0.00 in0.0 mm
08:26 AM 52.7°F11.5°C 39.2°F4.0°C 60% 5.8 mph NW9.3 kmh NW 9.9 mph15.9 kmh 30.15 in1021.0 mb 0.00 in0.0 mm 0.00 in0.0 mm 0.00 in0.0 mm
08:27 AM 52.7°F11.5°C 39.2°F4.0°C 60% 5.8 mph WNW9.3 kmh WNW 9.9 mph15.9 kmh 30.15 in1021.0 mb 0.00 in0.0 mm 0.00 in0.0 mm 0.00 in0.0 mm
08:28 AM 52.7°F11.5°C 39.2°F4.0°C 60% 4.7 mph WNW7.6 kmh WNW 9.4 mph15.1 kmh 30.15 in1021.0 mb 0.00 in0.0 mm 0.00 in0.0 mm 0.00 in0.0 mm
08:29 AM 52.7°F11.5°C 39.6°F4.2°C 61% 6.8 mph WNW10.9 kmh WNW 9.4 mph15.1 kmh 30.15 in1021.0 mb 0.00 in0.0 mm 0.00 in0.0 mm 0.00 in0.0 mm
08:30 AM 52.7°F11.5°C 39.2°F4.0°C 60% 5.3 mph WNW8.5 kmh WNW 9.4 mph15.1 kmh 30.15 in1021.0 mb 0.00 in0.0 mm 0.00 in0.0 mm 0.00 in0.0 mm
08:31 AM 52.7°F11.5°C 38.8°F3.8°C 59% 4.2 mph NW6.8 kmh NW 9.4 mph15.1 kmh 30.16 in1021.3 mb 0.00 in0.0 mm 0.00 in0.0 mm 0.00 in0.0 mm
08:32 AM 52.7°F11.5°C 38.8°F3.8°C 59% 7.8 mph WNW12.6 kmh WNW 9.4 mph15.1 kmh 30.16 in1021.3 mb 0.00 in0.0 mm 0.00 in0.0 mm 0.00 in0.0 mm
08:33 AM 52.7°F11.5°C 39.2°F4.0°C 60% 6.8 mph WNW10.9 kmh WNW 9.4 mph15.1 kmh 30.16 in1021.3 mb 0.00 in0.0 mm 0.00 in0.0 mm 0.00 in0.0 mm
08:34 AM 52.9°F11.6°C 39.0°F3.9°C 59% 6.8 mph N10.9 kmh N 9.4 mph15.1 kmh 30.16 in1021.3 mb 0.00 in0.0 mm 0.00 in0.0 mm 0.00 in0.0 mm
08:35 AM 52.9°F11.6°C 39.0°F3.9°C 59% 6.8 mph NW10.9 kmh NW 9.4 mph15.1 kmh 30.16 in1021.3 mb 0.00 in0.0 mm 0.00 in0.0 mm 0.00 in0.0 mm
08:36 AM 53.1°F11.7°C 39.2°F4.0°C 59% 4.2 mph W6.8 kmh W 9.4 mph15.1 kmh 30.16 in1021.3 mb 0.00 in0.0 mm 0.00 in0.0 mm 0.00 in0.0 mm
08:37 AM 53.1°F11.7°C 39.2°F4.0°C 59% 3.7 mph WNW6.0 kmh WNW 9.4 mph15.1 kmh 30.16 in1021.3 mb 0.00 in0.0 mm 0.00 in0.0 mm 0.00 in0.0 mm
08:38 AM 53.1°F11.7°C 39.2°F4.0°C 59% 6.3 mph NW10.1 kmh NW 9.4 mph15.1 kmh 30.16 in1021.3 mb 0.00 in0.0 mm 0.00 in0.0 mm 0.00 in0.0 mm
08:39 AM 53.1°F11.7°C 39.2°F4.0°C 59% 7.8 mph WNW12.6 kmh WNW 9.4 mph15.1 kmh 30.16 in1021.3 mb 0.00 in0.0 mm 0.00 in0.0 mm 0.00 in0.0 mm
08:40 AM 53.1°F11.7°C 39.2°F4.0°C 59% 6.3 mph WNW10.1 kmh WNW 9.4 mph15.1 kmh 30.16 in1021.3 mb 0.00 in0.0 mm 0.00 in0.0 mm 0.00 in0.0 mm
08:41 AM 53.1°F11.7°C 38.7°F3.7°C 58% 4.7 mph NW7.6 kmh NW 7.8 mph12.6 kmh 30.16 in1021.3 mb 0.00 in0.0 mm 0.00 in0.0 mm 0.00 in0.0 mm
08:42 AM 53.1°F11.7°C 38.7°F3.7°C 58% 3.7 mph WNW6.0 kmh WNW 7.8 mph12.6 kmh 30.16 in1021.3 mb 0.00 in0.0 mm 0.00 in0.0 mm 0.00 in0.0 mm
08:43 AM 53.1°F11.7°C 38.7°F3.7°C 58% 4.2 mph WNW6.8 kmh WNW 7.8 mph12.6 kmh 30.16 in1021.3 mb 0.00 in0.0 mm 0.00 in0.0 mm 0.00 in0.0 mm
08:44 AM 53.1°F11.7°C 38.7°F3.7°C 58% 3.7 mph WSW6.0 kmh WSW 7.8 mph12.6 kmh 30.16 in1021.3 mb 0.00 in0.0 mm 0.00 in0.0 mm 0.00 in0.0 mm
08:45 AM 53.2°F11.8°C 38.8°F3.8°C 58% 7.3 mph WNW11.7 kmh WNW 7.8 mph12.6 kmh 30.16 in1021.3 mb 0.00 in0.0 mm 0.00 in0.0 mm 0.00 in0.0 mm
08:46 AM 53.2°F11.8°C 38.4°F3.6°C 57% 3.7 mph W6.0 kmh W 7.8 mph12.6 kmh 30.16 in1021.3 mb 0.00 in0.0 mm 0.00 in0.0 mm 0.00 in0.0 mm
08:47 AM 53.2°F11.8°C 38.4°F3.6°C 57% 5.8 mph WNW9.3 kmh WNW 7.8 mph12.6 kmh 30.16 in1021.3 mb 0.00 in0.0 mm 0.00 in0.0 mm 0.00 in0.0 mm
08:48 AM 53.2°F11.8°C 38.4°F3.6°C 57% 5.3 mph WNW8.5 kmh WNW 7.8 mph12.6 kmh 30.16 in1021.3 mb 0.00 in0.0 mm 0.00 in0.0 mm 0.00 in0.0 mm
08:49 AM 53.2°F11.8°C 38.4°F3.6°C 57% 5.3 mph NW8.5 kmh NW 7.8 mph12.6 kmh 30.16 in1021.3 mb 0.00 in0.0 mm 0.00 in0.0 mm 0.00 in0.0 mm
08:50 AM 53.2°F11.8°C 38.4°F3.6°C 57% 5.8 mph NW9.3 kmh NW 7.8 mph12.6 kmh 30.16 in1021.3 mb 0.00 in0.0 mm 0.00 in0.0 mm 0.00 in0.0 mm
08:51 AM 53.2°F11.8°C 38.4°F3.6°C 57% 3.2 mph WNW5.1 kmh WNW 7.3 mph11.7 kmh 30.16 in1021.3 mb 0.00 in0.0 mm 0.00 in0.0 mm 0.00 in0.0 mm
08:52 AM 53.2°F11.8°C 38.4°F3.6°C 57% 4.7 mph WNW7.6 kmh WNW 7.3 mph11.7 kmh 30.16 in1021.3 mb 0.00 in0.0 mm 0.00 in0.0 mm 0.00 in0.0 mm
08:53 AM 53.2°F11.8°C 37.9°F3.3°C 56% 8.3 mph NW13.4 kmh NW 8.3 mph13.4 kmh 30.16 in1021.3 mb 0.00 in0.0 mm 0.00 in0.0 mm 0.00 in0.0 mm
08:54 AM 53.2°F11.8°C 37.9°F3.3°C 56% 6.8 mph NNW10.9 kmh NNW 8.3 mph13.4 kmh 30.16 in1021.3 mb 0.00 in0.0 mm 0.00 in0.0 mm 0.00 in0.0 mm
08:55 AM 53.4°F11.9°C 38.1°F3.4°C 56% 6.3 mph WNW10.1 kmh WNW 8.3 mph13.4 kmh 30.16 in1021.3 mb 0.00 in0.0 mm 0.00 in0.0 mm 0.00 in0.0 mm
08:56 AM 53.4°F11.9°C 37.6°F3.1°C 55% 4.2 mph WSW6.8 kmh WSW 8.3 mph13.4 kmh 30.16 in1021.3 mb 0.00 in0.0 mm 0.00 in0.0 mm 0.00 in0.0 mm
08:57 AM 53.4°F11.9°C 37.6°F3.1°C 55% 4.7 mph WNW7.6 kmh WNW 8.3 mph13.4 kmh 30.16 in1021.3 mb 0.00 in0.0 mm 0.00 in0.0 mm 0.00 in0.0 mm
08:58 AM 53.4°F11.9°C 37.6°F3.1°C 55% 4.2 mph WNW6.8 kmh WNW 8.3 mph13.4 kmh 30.16 in1021.3 mb 0.00 in0.0 mm 0.00 in0.0 mm 0.00 in0.0 mm
08:59 AM 53.4°F11.9°C 37.6°F3.1°C 55% 6.3 mph NW10.1 kmh NW 8.3 mph13.4 kmh 30.16 in1021.3 mb 0.00 in0.0 mm 0.00 in0.0 mm 0.00 in0.0 mm
09:00 AM 53.4°F11.9°C 37.2°F2.9°C 54% 7.8 mph NW12.6 kmh NW 8.3 mph13.4 kmh 30.16 in1021.3 mb 0.00 in0.0 mm 0.00 in0.0 mm 0.00 in0.0 mm
09:01 AM 53.4°F11.9°C 37.2°F2.9°C 54% 4.2 mph NW6.8 kmh NW 8.3 mph13.4 kmh 30.16 in1021.3 mb 0.00 in0.0 mm 0.00 in0.0 mm 0.00 in0.0 mm
09:02 AM 53.6°F12.0°C 37.4°F3.0°C 54% 4.2 mph W6.8 kmh W 8.3 mph13.4 kmh 30.16 in1021.3 mb 0.00 in0.0 mm 0.00 in0.0 mm 0.00 in0.0 mm
09:03 AM 53.6°F12.0°C 37.8°F3.2°C 55% 4.7 mph W7.6 kmh W 8.3 mph13.4 kmh 30.16 in1021.3 mb 0.00 in0.0 mm 0.00 in0.0 mm 0.00 in0.0 mm
09:04 AM 53.6°F12.0°C 37.8°F3.2°C 55% 4.2 mph W6.8 kmh W 8.3 mph13.4 kmh 30.16 in1021.3 mb 0.00 in0.0 mm 0.00 in0.0 mm 0.00 in0.0 mm
09:05 AM 53.6°F12.0°C 37.8°F3.2°C 55% 6.3 mph NW10.1 kmh NW 8.3 mph13.4 kmh 30.16 in1021.3 mb 0.00 in0.0 mm 0.00 in0.0 mm 0.00 in0.0 mm
09:06 AM 53.6°F12.0°C 37.4°F3.0°C 54% 7.3 mph W11.7 kmh W 10.4 mph16.7 kmh 30.16 in1021.3 mb 0.00 in0.0 mm 0.00 in0.0 mm 0.00 in0.0 mm
09:07 AM 53.6°F12.0°C 37.4°F3.0°C 54% 6.3 mph W10.1 kmh W 10.4 mph16.7 kmh 30.16 in1021.3 mb 0.00 in0.0 mm 0.00 in0.0 mm 0.00 in0.0 mm
09:08 AM 53.6°F12.0°C 37.4°F3.0°C 54% 5.8 mph W9.3 kmh W 10.4 mph16.7 kmh 30.17 in1021.7 mb 0.00 in0.0 mm 0.00 in0.0 mm 0.00 in0.0 mm
09:09 AM 53.6°F12.0°C 36.9°F2.7°C 53% 7.8 mph W12.6 kmh W 10.4 mph16.7 kmh 30.17 in1021.7 mb 0.00 in0.0 mm 0.00 in0.0 mm 0.00 in0.0 mm
09:10 AM 53.8°F12.1°C 37.1°F2.8°C 53% 4.2 mph NNW6.8 kmh NNW 10.4 mph16.7 kmh 30.17 in1021.7 mb 0.00 in0.0 mm 0.00 in0.0 mm 0.00 in0.0 mm
09:11 AM 53.8°F12.1°C 37.5°F3.1°C 54% 4.7 mph NNW7.6 kmh NNW 10.4 mph16.7 kmh 30.17 in1021.7 mb 0.00 in0.0 mm 0.00 in0.0 mm 0.00 in0.0 mm
09:12 AM 53.8°F12.1°C 37.1°F2.8°C 53% 8.3 mph WNW13.4 kmh WNW 10.4 mph16.7 kmh 30.17 in1021.7 mb 0.00 in0.0 mm 0.00 in0.0 mm 0.00 in0.0 mm
09:13 AM 53.8°F12.1°C 37.1°F2.8°C 53% 4.2 mph NW6.8 kmh NW 10.4 mph16.7 kmh 30.17 in1021.7 mb 0.00 in0.0 mm 0.00 in0.0 mm 0.00 in0.0 mm
09:14 AM 53.8°F12.1°C 36.6°F2.6°C 52% 6.8 mph WNW10.9 kmh WNW 10.4 mph16.7 kmh 30.17 in1021.7 mb 0.00 in0.0 mm 0.00 in0.0 mm 0.00 in0.0 mm
09:15 AM 54.0°F12.2°C 37.3°F2.9°C 53% 4.7 mph WNW7.6 kmh WNW 10.4 mph16.7 kmh 30.17 in1021.7 mb 0.00 in0.0 mm 0.00 in0.0 mm 0.00 in0.0 mm
09:16 AM 54.0°F12.2°C 37.3°F2.9°C 53% 7.8 mph WNW12.6 kmh WNW 9.9 mph15.9 kmh 30.17 in1021.7 mb 0.00 in0.0 mm 0.00 in0.0 mm 0.00 in0.0 mm
09:17 AM 54.0°F12.2°C 36.8°F2.7°C 52% 4.2 mph W6.8 kmh W 9.9 mph15.9 kmh 30.17 in1021.7 mb 0.00 in0.0 mm 0.00 in0.0 mm 0.00 in0.0 mm
09:18 AM 54.0°F12.2°C 36.3°F2.4°C 51% 6.3 mph WNW10.1 kmh WNW 9.9 mph15.9 kmh 30.17 in1021.7 mb 0.00 in0.0 mm 0.00 in0.0 mm 0.00 in0.0 mm
09:19 AM 54.0°F12.2°C 36.3°F2.4°C 51% 5.3 mph NW8.5 kmh NW 9.9 mph15.9 kmh 30.17 in1021.7 mb 0.00 in0.0 mm 0.00 in0.0 mm 0.00 in0.0 mm
09:20 AM 54.0°F12.2°C 36.3°F2.4°C 51% 8.3 mph NW13.4 kmh NW 9.9 mph15.9 kmh 30.16 in1021.3 mb 0.00 in0.0 mm 0.00 in0.0 mm 0.00 in0.0 mm
09:21 AM 54.1°F12.3°C 36.4°F2.4°C 51% 5.3 mph WNW8.5 kmh WNW 9.9 mph15.9 kmh 30.16 in1021.3 mb 0.00 in0.0 mm 0.00 in0.0 mm 0.00 in0.0 mm
09:22 AM 54.1°F12.3°C 36.4°F2.4°C 51% 4.2 mph WNW6.8 kmh WNW 9.9 mph15.9 kmh 30.16 in1021.3 mb 0.00 in0.0 mm 0.00 in0.0 mm 0.00 in0.0 mm
09:23 AM 54.3°F12.4°C 36.6°F2.6°C 51% 5.3 mph N8.5 kmh N 9.9 mph15.9 kmh 30.16 in1021.3 mb 0.00 in0.0 mm 0.00 in0.0 mm 0.00 in0.0 mm
09:24 AM 54.3°F12.4°C 36.6°F2.6°C 51% 7.8 mph WNW12.6 kmh WNW 8.9 mph14.3 kmh 30.16 in1021.3 mb 0.00 in0.0 mm 0.00 in0.0 mm 0.00 in0.0 mm
09:25 AM 54.3°F12.4°C 36.1°F2.3°C 50% 5.8 mph NW9.3 kmh NW 8.9 mph14.3 kmh 30.16 in1021.3 mb 0.00 in0.0 mm 0.00 in0.0 mm 0.00 in0.0 mm
09:26 AM 54.3°F12.4°C 36.1°F2.3°C 50% 13.5 mph WNW21.7 kmh WNW 13.5 mph21.7 kmh 30.16 in1021.3 mb 0.00 in0.0 mm 0.00 in0.0 mm 0.00 in0.0 mm
09:27 AM 54.3°F12.4°C 36.1°F2.3°C 50% 6.3 mph W10.1 kmh W 13.5 mph21.7 kmh 30.16 in1021.3 mb 0.00 in0.0 mm 0.00 in0.0 mm 0.00 in0.0 mm
09:28 AM 54.3°F12.4°C 36.1°F2.3°C 50% 5.8 mph NNW9.3 kmh NNW 13.5 mph21.7 kmh 30.16 in1021.3 mb 0.00 in0.0 mm 0.00 in0.0 mm 0.00 in0.0 mm
09:29 AM 54.3°F12.4°C 36.1°F2.3°C 50% 8.3 mph WNW13.4 kmh WNW 13.5 mph21.7 kmh 30.16 in1021.3 mb 0.00 in0.0 mm 0.00 in0.0 mm 0.00 in0.0 mm
09:30 AM 54.3°F12.4°C 36.1°F2.3°C 50% 6.3 mph NW10.1 kmh NW 13.5 mph21.7 kmh 30.16 in1021.3 mb 0.00 in0.0 mm 0.00 in0.0 mm 0.00 in0.0 mm
09:31 AM 54.3°F12.4°C 36.1°F2.3°C 50% 8.3 mph W13.4 kmh W 13.5 mph21.7 kmh 30.16 in1021.3 mb 0.00 in0.0 mm 0.00 in0.0 mm 0.00 in0.0 mm
09:32 AM 54.3°F12.4°C 36.1°F2.3°C 50% 7.3 mph WNW11.7 kmh WNW 13.5 mph21.7 kmh 30.16 in1021.3 mb 0.00 in0.0 mm 0.00 in0.0 mm 0.00 in0.0 mm
09:33 AM 54.3°F12.4°C 36.1°F2.3°C 50% 5.8 mph NW9.3 kmh NW 13.5 mph21.7 kmh 30.16 in1021.3 mb 0.00 in0.0 mm 0.00 in0.0 mm 0.00 in0.0 mm
09:34 AM 54.3°F12.4°C 36.1°F2.3°C 50% 4.2 mph NW6.8 kmh NW 13.5 mph21.7 kmh 30.16 in1021.3 mb 0.00 in0.0 mm 0.00 in0.0 mm 0.00 in0.0 mm
09:35 AM 54.3°F12.4°C 36.1°F2.3°C 50% 4.7 mph NNW7.6 kmh NNW 13.5 mph21.7 kmh 30.16 in1021.3 mb 0.00 in0.0 mm 0.00 in0.0 mm 0.00 in0.0 mm
09:36 AM 54.5°F12.5°C 36.2°F2.3°C 50% 4.7 mph WNW7.6 kmh WNW 8.9 mph14.3 kmh 30.16 in1021.3 mb 0.00 in0.0 mm 0.00 in0.0 mm 0.00 in0.0 mm
09:37 AM 54.5°F12.5°C 36.2°F2.3°C 50% 3.7 mph NW6.0 kmh NW 8.3 mph13.4 kmh 30.16 in1021.3 mb 0.00 in0.0 mm 0.00 in0.0 mm 0.00 in0.0 mm
09:38 AM 54.5°F12.5°C 36.7°F2.6°C 51% 2.7 mph SE4.3 kmh SE 8.3 mph13.4 kmh 30.16 in1021.3 mb 0.00 in0.0 mm 0.00 in0.0 mm 0.00 in0.0 mm
09:39 AM 54.5°F12.5°C 36.7°F2.6°C 51% 4.2 mph NW6.8 kmh NW 8.3 mph13.4 kmh 30.16 in1021.3 mb 0.00 in0.0 mm 0.00 in0.0 mm 0.00 in0.0 mm
09:40 AM 54.5°F12.5°C 36.2°F2.3°C 50% 5.3 mph NW8.5 kmh NW 8.3 mph13.4 kmh 30.16 in1021.3 mb 0.00 in0.0 mm 0.00 in0.0 mm 0.00 in0.0 mm
09:41 AM 54.5°F12.5°C 35.7°F2.1°C 49% 3.2 mph WNW5.1 kmh WNW 7.8 mph12.6 kmh 30.16 in1021.3 mb 0.00 in0.0 mm 0.00 in0.0 mm 0.00 in0.0 mm
09:42 AM 54.7°F12.6°C 35.9°F2.2°C 49% 3.7 mph W6.0 kmh W 7.8 mph12.6 kmh 30.16 in1021.3 mb 0.00 in0.0 mm 0.00 in0.0 mm 0.00 in0.0 mm
09:43 AM 54.7°F12.6°C 35.4°F1.9°C 48% 3.7 mph NNW6.0 kmh NNW 7.8 mph12.6 kmh 30.17 in1021.7 mb 0.00 in0.0 mm 0.00 in0.0 mm 0.00 in0.0 mm
09:44 AM 54.7°F12.6°C 36.4°F2.4°C 50% 3.2 mph NW5.1 kmh NW 7.8 mph12.6 kmh 30.17 in1021.7 mb 0.00 in0.0 mm 0.00 in0.0 mm 0.00 in0.0 mm
09:45 AM 54.7°F12.6°C 36.4°F2.4°C 50% 2.7 mph WNW4.3 kmh WNW 5.3 mph8.5 kmh 30.17 in1021.7 mb 0.00 in0.0 mm 0.00 in0.0 mm 0.00 in0.0 mm
09:46 AM 54.7°F12.6°C 36.9°F2.7°C 51% 2.7 mph W4.3 kmh W 5.3 mph8.5 kmh 30.17 in1021.7 mb 0.00 in0.0 mm 0.00 in0.0 mm 0.00 in0.0 mm
09:47 AM 54.7°F12.6°C 36.9°F2.7°C 51% 3.7 mph W6.0 kmh W 5.3 mph8.5 kmh 30.17 in1021.7 mb 0.00 in0.0 mm 0.00 in0.0 mm 0.00 in0.0 mm
09:48 AM 54.7°F12.6°C 36.9°F2.7°C 51% 2.7 mph WNW4.3 kmh WNW 5.3 mph8.5 kmh 30.17 in1021.7 mb 0.00 in0.0 mm 0.00 in0.0 mm 0.00 in0.0 mm
09:49 AM 54.7°F12.6°C 36.4°F2.4°C 50% 4.2 mph W6.8 kmh W 5.3 mph8.5 kmh 30.17 in1021.7 mb 0.00 in0.0 mm 0.00 in0.0 mm 0.00 in0.0 mm
09:50 AM 54.7°F12.6°C 36.4°F2.4°C 50% 5.3 mph W8.5 kmh W 5.3 mph8.5 kmh 30.17 in1021.7 mb 0.00 in0.0 mm 0.00 in0.0 mm 0.00 in0.0 mm
09:51 AM 54.7°F12.6°C 35.9°F2.2°C 49% 4.7 mph WNW7.6 kmh WNW 5.3 mph8.5 kmh 30.17 in1021.7 mb 0.00 in0.0 mm 0.00 in0.0 mm 0.00 in0.0 mm
09:52 AM 54.7°F12.6°C 35.9°F2.2°C 49% 3.7 mph NW6.0 kmh NW 5.3 mph8.5 kmh 30.17 in1021.7 mb 0.00 in0.0 mm 0.00 in0.0 mm 0.00 in0.0 mm
09:53 AM 54.7°F12.6°C 35.9°F2.2°C 49% 2.7 mph SW4.3 kmh SW 5.3 mph8.5 kmh 30.17 in1021.7 mb 0.00 in0.0 mm 0.00 in0.0 mm 0.00 in0.0 mm
09:54 AM 55.0°F12.8°C 36.7°F2.6°C 50% 3.7 mph NW6.0 kmh NW 6.3 mph10.1 kmh 30.17 in1021.7 mb 0.00 in0.0 mm 0.00 in0.0 mm 0.00 in0.0 mm
09:55 AM 55.2°F12.9°C 36.9°F2.7°C 50% 5.8 mph NNW9.3 kmh NNW 6.3 mph10.1 kmh 30.18 in1022.0 mb 0.00 in0.0 mm 0.00 in0.0 mm 0.00 in0.0 mm
09:56 AM 55.4°F13.0°C 36.6°F2.6°C 49% 4.2 mph W6.8 kmh W 6.3 mph10.1 kmh 30.18 in1022.0 mb 0.00 in0.0 mm 0.00 in0.0 mm 0.00 in0.0 mm
09:57 AM 55.8°F13.2°C 36.4°F2.4°C 48% 4.7 mph NW7.6 kmh NW 6.3 mph10.1 kmh 30.18 in1022.0 mb 0.00 in0.0 mm 0.00 in0.0 mm 0.00 in0.0 mm
09:58 AM 55.9°F13.3°C 37.0°F2.8°C 49% 5.3 mph WNW8.5 kmh WNW 6.3 mph10.1 kmh 30.18 in1022.0 mb 0.00 in0.0 mm 0.00 in0.0 mm 0.00 in0.0 mm
09:59 AM 56.3°F13.5°C 37.9°F3.3°C 50% 3.7 mph NW6.0 kmh NW 6.3 mph10.1 kmh 30.18 in1022.0 mb 0.00 in0.0 mm 0.00 in0.0 mm 0.00 in0.0 mm
10:00 AM 56.3°F13.5°C 37.4°F3.0°C 49% 4.7 mph WNW7.6 kmh WNW 6.3 mph10.1 kmh 30.18 in1022.0 mb 0.00 in0.0 mm 0.00 in0.0 mm 0.00 in0.0 mm
10:01 AM 56.7°F13.7°C 37.8°F3.2°C 49% 4.7 mph WNW7.6 kmh WNW 6.3 mph10.1 kmh 30.18 in1022.0 mb 0.00 in0.0 mm 0.00 in0.0 mm 0.00 in0.0 mm
10:02 AM 56.8°F13.8°C 38.4°F3.6°C 50% 5.8 mph NNW9.3 kmh NNW 6.3 mph10.1 kmh 30.18 in1022.0 mb 0.00 in0.0 mm 0.00 in0.0 mm 0.00 in0.0 mm
10:03 AM 56.8°F13.8°C 37.8°F3.2°C 49% 3.7 mph W6.0 kmh W 6.3 mph10.1 kmh 30.18 in1022.0 mb 0.00 in0.0 mm 0.00 in0.0 mm 0.00 in0.0 mm
10:04 AM 56.8°F13.8°C 37.8°F3.2°C 49% 4.7 mph WNW7.6 kmh WNW 6.3 mph10.1 kmh 30.18 in1022.0 mb 0.00 in0.0 mm 0.00 in0.0 mm 0.00 in0.0 mm
10:05 AM 57.0°F13.9°C 38.0°F3.3°C 49% 4.7 mph NNW7.6 kmh NNW 6.3 mph10.1 kmh 30.18 in1022.0 mb 0.00 in0.0 mm 0.00 in0.0 mm 0.00 in0.0 mm
10:06 AM 57.6°F14.2°C 38.6°F3.7°C 49% 6.3 mph WNW10.1 kmh WNW 6.3 mph10.1 kmh 30.18 in1022.0 mb 0.00 in0.0 mm 0.00 in0.0 mm 0.00 in0.0 mm
10:07 AM 57.6°F14.2°C 38.6°F3.7°C 49% 5.3 mph W8.5 kmh W 6.3 mph10.1 kmh 30.18 in1022.0 mb 0.00 in0.0 mm 0.00 in0.0 mm 0.00 in0.0 mm
10:08 AM 57.7°F14.3°C 38.7°F3.7°C 49% 5.3 mph WNW8.5 kmh WNW 6.3 mph10.1 kmh 30.18 in1022.0 mb 0.00 in0.0 mm 0.00 in0.0 mm 0.00 in0.0 mm
10:09 AM 57.9°F14.4°C 39.4°F4.1°C 50% 4.7 mph WNW7.6 kmh WNW 6.3 mph10.1 kmh 30.18 in1022.0 mb 0.00 in0.0 mm 0.00 in0.0 mm 0.00 in0.0 mm
10:10 AM 58.1°F14.5°C 39.6°F4.2°C 50% 5.8 mph WNW9.3 kmh WNW 7.3 mph11.7 kmh 30.18 in1022.0 mb 0.00 in0.0 mm 0.00 in0.0 mm 0.00 in0.0 mm
10:11 AM 58.3°F14.6°C 40.3°F4.6°C 51% 5.8 mph NW9.3 kmh NW 7.3 mph11.7 kmh 30.18 in1022.0 mb 0.00 in0.0 mm 0.00 in0.0 mm 0.00 in0.0 mm
10:12 AM 58.5°F14.7°C 39.9°F4.4°C 50% 5.3 mph NW8.5 kmh NW 7.3 mph11.7 kmh 30.18 in1022.0 mb 0.00 in0.0 mm 0.00 in0.0 mm 0.00 in0.0 mm
10:13 AM 58.5°F14.7°C 39.9°F4.4°C 50% 6.3 mph W10.1 kmh W 8.3 mph13.4 kmh 30.18 in1022.0 mb 0.00 in0.0 mm 0.00 in0.0 mm 0.00 in0.0 mm
10:14 AM 58.5°F14.7°C 39.4°F4.1°C 49% 3.2 mph NW5.1 kmh NW 8.3 mph13.4 kmh 30.18 in1022.0 mb 0.00 in0.0 mm 0.00 in0.0 mm 0.00 in0.0 mm
10:15 AM 58.3°F14.6°C 39.2°F4.0°C 49% 4.2 mph N6.8 kmh N 8.3 mph13.4 kmh 30.18 in1022.0 mb 0.00 in0.0 mm 0.00 in0.0 mm 0.00 in0.0 mm
10:16 AM 58.5°F14.7°C 39.4°F4.1°C 49% 4.7 mph WNW7.6 kmh WNW 8.3 mph13.4 kmh 30.18 in1022.0 mb 0.00 in0.0 mm 0.00 in0.0 mm 0.00 in0.0 mm
10:17 AM 59.0°F15.0°C 40.9°F4.9°C 51% 4.2 mph W6.8 kmh W 8.3 mph13.4 kmh 30.18 in1022.0 mb 0.00 in0.0 mm 0.00 in0.0 mm 0.00 in0.0 mm
10:18 AM 59.2°F15.1°C 40.6°F4.8°C 50% 5.8 mph WNW9.3 kmh WNW 8.3 mph13.4 kmh 30.18 in1022.0 mb 0.00 in0.0 mm 0.00 in0.0 mm 0.00 in0.0 mm
10:19 AM 59.2°F15.1°C 41.1°F5.1°C 51% 4.2 mph NNW6.8 kmh NNW 8.3 mph13.4 kmh 30.18 in1022.0 mb 0.00 in0.0 mm 0.00 in0.0 mm 0.00 in0.0 mm
10:20 AM 59.2°F15.1°C 41.1°F5.1°C 51% 7.8 mph NNW12.6 kmh NNW 8.3 mph13.4 kmh 30.18 in1022.0 mb 0.00 in0.0 mm 0.00 in0.0 mm 0.00 in0.0 mm
10:21 AM 59.2°F15.1°C 40.6°F4.8°C 50% 3.7 mph NNW6.0 kmh NNW 8.3 mph13.4 kmh 30.18 in1022.0 mb 0.00 in0.0 mm 0.00 in0.0 mm 0.00 in0.0 mm
10:22 AM 59.2°F15.1°C 40.6°F4.8°C 50% 5.3 mph N8.5 kmh N 8.3 mph13.4 kmh 30.18 in1022.0 mb 0.00 in0.0 mm 0.00 in0.0 mm 0.00 in0.0 mm
10:23 AM 59.2°F15.1°C 40.1°F4.5°C 49% 3.7 mph WNW6.0 kmh WNW 7.8 mph12.6 kmh 30.18 in1022.0 mb 0.00 in0.0 mm 0.00 in0.0 mm 0.00 in0.0 mm
10:24 AM 59.4°F15.2°C 40.8°F4.9°C 50% 4.2 mph W6.8 kmh W 7.8 mph12.6 kmh 30.18 in1022.0 mb 0.00 in0.0 mm 0.00 in0.0 mm 0.00 in0.0 mm
10:25 AM 59.4°F15.2°C 40.8°F4.9°C 50% 3.2 mph W5.1 kmh W 7.8 mph12.6 kmh 30.18 in1022.0 mb 0.00 in0.0 mm 0.00 in0.0 mm 0.00 in0.0 mm
10:26 AM 59.5°F15.3°C 41.9°F5.5°C 52% 6.8 mph W10.9 kmh W 7.8 mph12.6 kmh 30.18 in1022.0 mb 0.00 in0.0 mm 0.00 in0.0 mm 0.00 in0.0 mm
10:27 AM 59.5°F15.3°C 41.4°F5.2°C 51% 5.3 mph W8.5 kmh W 7.8 mph12.6 kmh 30.18 in1022.0 mb 0.00 in0.0 mm 0.00 in0.0 mm 0.00 in0.0 mm
10:28 AM 59.4°F15.2°C 41.3°F5.2°C 51% 6.3 mph NW10.1 kmh NW 7.8 mph12.6 kmh 30.18 in1022.0 mb 0.00 in0.0 mm 0.00 in0.0 mm 0.00 in0.0 mm
10:29 AM 59.4°F15.2°C 40.8°F4.9°C 50% 4.2 mph NW6.8 kmh NW 7.8 mph12.6 kmh 30.18 in1022.0 mb 0.00 in0.0 mm 0.00 in0.0 mm 0.00 in0.0 mm
10:30 AM 59.4°F15.2°C 40.8°F4.9°C 50% 3.2 mph WNW5.1 kmh WNW 7.8 mph12.6 kmh 30.18 in1022.0 mb 0.00 in0.0 mm 0.00 in0.0 mm 0.00 in0.0 mm
10:31 AM 59.7°F15.4°C 41.5°F5.3°C 51% 5.8 mph NW9.3 kmh NW 6.8 mph10.9 kmh 30.18 in1022.0 mb 0.00 in0.0 mm 0.00 in0.0 mm 0.00 in0.0 mm
10:32 AM 59.7°F15.4°C 41.0°F5.0°C 50% 6.8 mph WNW10.9 kmh WNW 6.8 mph10.9 kmh 30.18 in1022.0 mb 0.00 in0.0 mm 0.00 in0.0 mm 0.00 in0.0 mm
10:33 AM 59.7°F15.4°C 41.0°F5.0°C 50% 5.3 mph WNW8.5 kmh WNW 6.8 mph10.9 kmh 30.18 in1022.0 mb 0.00 in0.0 mm 0.00 in0.0 mm 0.00 in0.0 mm
10:34 AM 59.9°F15.5°C 41.2°F5.1°C 50% 3.7 mph NW6.0 kmh NW 6.8 mph10.9 kmh 30.18 in1022.0 mb 0.00 in0.0 mm 0.00 in0.0 mm 0.00 in0.0 mm
10:35 AM 59.9°F15.5°C 41.2°F5.1°C 50% 4.7 mph NW7.6 kmh NW 6.8 mph10.9 kmh 30.18 in1022.0 mb 0.00 in0.0 mm 0.00 in0.0 mm 0.00 in0.0 mm
10:36 AM 59.7°F15.4°C 41.0°F5.0°C 50% 3.2 mph W5.1 kmh W 6.8 mph10.9 kmh 30.18 in1022.0 mb 0.00 in0.0 mm 0.00 in0.0 mm 0.00 in0.0 mm
10:37 AM 59.9°F15.5°C 41.7°F5.4°C 51% 4.7 mph WNW7.6 kmh WNW 6.8 mph10.9 kmh 30.18 in1022.0 mb 0.00 in0.0 mm 0.00 in0.0 mm 0.00 in0.0 mm
10:38 AM 59.9°F15.5°C 41.7°F5.4°C 51% 5.3 mph NW8.5 kmh NW 6.8 mph10.9 kmh 30.18 in1022.0 mb 0.00 in0.0 mm 0.00 in0.0 mm 0.00 in0.0 mm
10:39 AM 60.1°F15.6°C 41.9°F5.5°C 51% 4.2 mph N6.8 kmh N 6.8 mph10.9 kmh 30.18 in1022.0 mb 0.00 in0.0 mm 0.00 in0.0 mm 0.00 in0.0 mm
10:40 AM 60.1°F15.6°C 41.9°F5.5°C 51% 6.8 mph NNW10.9 kmh NNW 7.3 mph11.7 kmh 30.18 in1022.0 mb 0.00 in0.0 mm 0.00 in0.0 mm 0.00 in0.0 mm
10:41 AM 59.9°F15.5°C 41.7°F5.4°C 51% 3.7 mph W6.0 kmh W 7.3 mph11.7 kmh 30.18 in1022.0 mb 0.00 in0.0 mm 0.00 in0.0 mm 0.00 in0.0 mm
10:42 AM 60.1°F15.6°C 41.9°F5.5°C 51% 4.7 mph W7.6 kmh W 7.3 mph11.7 kmh 30.18 in1022.0 mb 0.00 in0.0 mm 0.00 in0.0 mm 0.00 in0.0 mm
10:43 AM 60.3°F15.7°C 41.6°F5.3°C 50% 6.8 mph N10.9 kmh N 7.3 mph11.7 kmh 30.18 in1022.0 mb 0.00 in0.0 mm 0.00 in0.0 mm 0.00 in0.0 mm
10:44 AM 60.4°F15.8°C 41.7°F5.4°C 50% 5.3 mph SW8.5 kmh SW 7.3 mph11.7 kmh 30.18 in1022.0 mb 0.00 in0.0 mm 0.00 in0.0 mm 0.00 in0.0 mm
10:45 AM 60.6°F15.9°C 42.4°F5.8°C 51% 3.7 mph WNW6.0 kmh WNW 7.3 mph11.7 kmh 30.18 in1022.0 mb 0.00 in0.0 mm 0.00 in0.0 mm 0.00 in0.0 mm
10:46 AM 61.0°F16.1°C 42.7°F5.9°C 51% 4.7 mph NNW7.6 kmh NNW 7.3 mph11.7 kmh 30.18 in1022.0 mb 0.00 in0.0 mm 0.00 in0.0 mm 0.00 in0.0 mm
10:47 AM 61.2°F16.2°C 42.4°F5.8°C 50% 6.3 mph N10.1 kmh N 7.8 mph12.6 kmh 30.18 in1022.0 mb 0.00 in0.0 mm 0.00 in0.0 mm 0.00 in0.0 mm
10:48 AM 61.2°F16.2°C 41.9°F5.5°C 49% 6.8 mph NW10.9 kmh NW 7.8 mph12.6 kmh 30.18 in1022.0 mb 0.00 in0.0 mm 0.00 in0.0 mm 0.00 in0.0 mm
10:49 AM 61.3°F16.3°C 42.5°F5.8°C 50% 7.3 mph NNW11.7 kmh NNW 7.8 mph12.6 kmh 30.18 in1022.0 mb 0.00 in0.0 mm 0.00 in0.0 mm 0.00 in0.0 mm
10:50 AM 61.3°F16.3°C 42.5°F5.8°C 50% 6.3 mph WNW10.1 kmh WNW 7.8 mph12.6 kmh 30.18 in1022.0 mb 0.00 in0.0 mm 0.00 in0.0 mm 0.00 in0.0 mm
10:51 AM 61.3°F16.3°C 42.5°F5.8°C 50% 6.8 mph WNW10.9 kmh WNW 7.8 mph12.6 kmh 30.18 in1022.0 mb 0.00 in0.0 mm 0.00 in0.0 mm 0.00 in0.0 mm
10:52 AM 61.5°F16.4°C 42.7°F5.9°C 50% 4.7 mph WNW7.6 kmh WNW 7.8 mph12.6 kmh 30.18 in1022.0 mb 0.00 in0.0 mm 0.00 in0.0 mm 0.00 in0.0 mm
10:53 AM 61.7°F16.5°C 43.9°F6.6°C 52% 5.3 mph W8.5 kmh W 7.8 mph12.6 kmh 30.18 in1022.0 mb 0.00 in0.0 mm 0.00 in0.0 mm 0.00 in0.0 mm
10:54 AM 62.1°F16.7°C 43.2°F6.2°C 50% 5.3 mph NW8.5 kmh NW 7.8 mph12.6 kmh 30.18 in1022.0 mb 0.00 in0.0 mm 0.00 in0.0 mm 0.00 in0.0 mm
10:55 AM 62.2°F16.8°C 43.3°F6.3°C 50% 5.3 mph W8.5 kmh W 7.8 mph12.6 kmh 30.17 in1021.7 mb 0.00 in0.0 mm 0.00 in0.0 mm 0.00 in0.0 mm
10:56 AM 62.2°F16.8°C 43.3°F6.3°C 50% 6.3 mph WSW10.1 kmh WSW 7.8 mph12.6 kmh 30.17 in1021.7 mb 0.00 in0.0 mm 0.00 in0.0 mm 0.00 in0.0 mm
10:57 AM 62.2°F16.8°C 43.3°F6.3°C 50% 4.7 mph WNW7.6 kmh WNW 7.3 mph11.7 kmh 30.17 in1021.7 mb 0.00 in0.0 mm 0.00 in0.0 mm 0.00 in0.0 mm
10:58 AM 62.4°F16.9°C 43.5°F6.4°C 50% 8.9 mph WNW14.3 kmh WNW 8.9 mph14.3 kmh 30.17 in1021.7 mb 0.00 in0.0 mm 0.00 in0.0 mm 0.00 in0.0 mm
10:59 AM 62.2°F16.8°C 42.8°F6.0°C 49% 4.7 mph NNW7.6 kmh NNW 8.9 mph14.3 kmh 30.17 in1021.7 mb 0.00 in0.0 mm 0.00 in0.0 mm 0.00 in0.0 mm
11:00 AM 62.4°F16.9°C 43.0°F6.1°C 49% 4.2 mph NNW6.8 kmh NNW 8.9 mph14.3 kmh 30.17 in1021.7 mb 0.00 in0.0 mm 0.00 in0.0 mm 0.00 in0.0 mm
11:01 AM 62.6°F17.0°C 43.2°F6.2°C 49% 5.8 mph WNW9.3 kmh WNW 8.9 mph14.3 kmh 30.17 in1021.7 mb 0.00 in0.0 mm 0.00 in0.0 mm 0.00 in0.0 mm
11:02 AM 62.6°F17.0°C 43.2°F6.2°C 49% 3.7 mph W6.0 kmh W 8.9 mph14.3 kmh 30.17 in1021.7 mb 0.00 in0.0 mm 0.00 in0.0 mm 0.00 in0.0 mm
11:03 AM 62.6°F17.0°C 43.2°F6.2°C 49% 5.3 mph WNW8.5 kmh WNW 8.9 mph14.3 kmh 30.17 in1021.7 mb 0.00 in0.0 mm 0.00 in0.0 mm 0.00 in0.0 mm
11:04 AM 62.8°F17.1°C 43.9°F6.6°C 50% 4.7 mph WNW7.6 kmh WNW 8.9 mph14.3 kmh 30.17 in1021.7 mb 0.00 in0.0 mm 0.00 in0.0 mm 0.00 in0.0 mm
11:05 AM 63.0°F17.2°C 43.5°F6.4°C 49% 5.8 mph WNW9.3 kmh WNW 8.9 mph14.3 kmh 30.17 in1021.7 mb 0.00 in0.0 mm 0.00 in0.0 mm 0.00 in0.0 mm
11:06 AM 62.8°F17.1°C 42.8°F6.0°C 48% 3.7 mph NW6.0 kmh NW 8.9 mph14.3 kmh 30.17 in1021.7 mb 0.00 in0.0 mm 0.00 in0.0 mm 0.00 in0.0 mm
11:07 AM 62.6°F17.0°C 42.6°F5.9°C 48% 8.3 mph NW13.4 kmh NW 8.9 mph14.3 kmh 30.18 in1022.0 mb 0.00 in0.0 mm 0.00 in0.0 mm 0.00 in0.0 mm
11:08 AM 62.6°F17.0°C 43.2°F6.2°C 49% 5.3 mph NW8.5 kmh NW 8.9 mph14.3 kmh 30.18 in1022.0 mb 0.00 in0.0 mm 0.00 in0.0 mm 0.00 in0.0 mm
11:09 AM 62.8°F17.1°C 43.4°F6.3°C 49% 9.4 mph WNW15.1 kmh WNW 9.4 mph15.1 kmh 30.18 in1022.0 mb 0.00 in0.0 mm 0.00 in0.0 mm 0.00 in0.0 mm
11:10 AM 62.6°F17.0°C 43.7°F6.5°C 50% 6.8 mph WNW10.9 kmh WNW 9.4 mph15.1 kmh 30.18 in1022.0 mb 0.00 in0.0 mm 0.00 in0.0 mm 0.00 in0.0 mm
11:11 AM 62.8°F17.1°C 43.4°F6.3°C 49% 4.2 mph NNE6.8 kmh NNE 9.4 mph15.1 kmh 30.18 in1022.0 mb 0.00 in0.0 mm 0.00 in0.0 mm 0.00 in0.0 mm
11:12 AM 62.8°F17.1°C 43.4°F6.3°C 49% 4.7 mph NW7.6 kmh NW 9.4 mph15.1 kmh 30.18 in1022.0 mb 0.00 in0.0 mm 0.00 in0.0 mm 0.00 in0.0 mm
11:13 AM 62.8°F17.1°C 43.4°F6.3°C 49% 7.8 mph W12.6 kmh W 9.4 mph15.1 kmh 30.18 in1022.0 mb 0.00 in0.0 mm 0.00 in0.0 mm 0.00 in0.0 mm
11:14 AM 62.6°F17.0°C 43.2°F6.2°C 49% 4.2 mph WNW6.8 kmh WNW 9.4 mph15.1 kmh 30.18 in1022.0 mb 0.00 in0.0 mm 0.00 in0.0 mm 0.00 in0.0 mm
11:15 AM 62.6°F17.0°C 43.2°F6.2°C 49% 2.2 mph W3.5 kmh W 9.4 mph15.1 kmh 30.18 in1022.0 mb 0.00 in0.0 mm 0.00 in0.0 mm 0.00 in0.0 mm
11:16 AM 63.1°F17.3°C 43.6°F6.4°C 49% 3.2 mph NNW5.1 kmh NNW 9.4 mph15.1 kmh 30.18 in1022.0 mb 0.00 in0.0 mm 0.00 in0.0 mm 0.00 in0.0 mm
11:17 AM 63.7°F17.6°C 44.2°F6.8°C 49% 5.8 mph NNW9.3 kmh NNW 9.4 mph15.1 kmh 30.18 in1022.0 mb 0.00 in0.0 mm 0.00 in0.0 mm 0.00 in0.0 mm
11:18 AM 63.7°F17.6°C 43.6°F6.4°C 48% 6.3 mph NW10.1 kmh NW 9.4 mph15.1 kmh 30.18 in1022.0 mb 0.00 in0.0 mm 0.00 in0.0 mm 0.00 in0.0 mm
11:19 AM 63.3°F17.4°C 43.8°F6.6°C 49% 4.2 mph NW6.8 kmh NW 9.4 mph15.1 kmh 30.18 in1022.0 mb 0.00 in0.0 mm 0.00 in0.0 mm 0.00 in0.0 mm
11:20 AM 63.3°F17.4°C 43.8°F6.6°C 49% 3.7 mph W6.0 kmh W 7.8 mph12.6 kmh 30.17 in1021.7 mb 0.00 in0.0 mm 0.00 in0.0 mm 0.00 in0.0 mm
11:21 AM 63.3°F17.4°C 44.3°F6.8°C 50% 7.8 mph W12.6 kmh W 9.9 mph15.9 kmh 30.17 in1021.7 mb 0.00 in0.0 mm 0.00 in0.0 mm 0.00 in0.0 mm
11:22 AM 63.3°F17.4°C 44.9°F7.2°C 51% 6.3 mph NNE10.1 kmh NNE 9.9 mph15.9 kmh 30.17 in1021.7 mb 0.00 in0.0 mm 0.00 in0.0 mm 0.00 in0.0 mm
11:23 AM 63.3°F17.4°C 45.4°F7.4°C 52% 5.8 mph W9.3 kmh W 9.9 mph15.9 kmh 30.17 in1021.7 mb 0.00 in0.0 mm 0.00 in0.0 mm 0.00 in0.0 mm
11:24 AM 63.5°F17.5°C 45.0°F7.2°C 51% 7.8 mph W12.6 kmh W 9.9 mph15.9 kmh 30.17 in1021.7 mb 0.00 in0.0 mm 0.00 in0.0 mm 0.00 in0.0 mm
11:25 AM 63.5°F17.5°C 44.5°F6.9°C 50% 4.2 mph NNW6.8 kmh NNW 9.9 mph15.9 kmh 30.17 in1021.7 mb 0.00 in0.0 mm 0.00 in0.0 mm 0.00 in0.0 mm
11:26 AM 63.7°F17.6°C 44.7°F7.1°C 50% 6.3 mph WNW10.1 kmh WNW 9.9 mph15.9 kmh 30.17 in1021.7 mb 0.00 in0.0 mm 0.00 in0.0 mm 0.00 in0.0 mm
11:27 AM 63.7°F17.6°C 44.7°F7.1°C 50% 7.3 mph NNW11.7 kmh NNW 9.9 mph15.9 kmh 30.17 in1021.7 mb 0.00 in0.0 mm 0.00 in0.0 mm 0.00 in0.0 mm
11:28 AM 63.7°F17.6°C 44.7°F7.1°C 50% 7.3 mph NNW11.7 kmh NNW 9.9 mph15.9 kmh 30.17 in1021.7 mb 0.00 in0.0 mm 0.00 in0.0 mm 0.00 in0.0 mm
11:29 AM 63.7°F17.6°C 44.7°F7.1°C 50% 8.3 mph W13.4 kmh W 9.9 mph15.9 kmh 30.17 in1021.7 mb 0.00 in0.0 mm 0.00 in0.0 mm 0.00 in0.0 mm
11:30 AM 63.7°F17.6°C 44.7°F7.1°C 50% 4.7 mph SSW7.6 kmh SSW 9.9 mph15.9 kmh 30.17 in1021.7 mb 0.00 in0.0 mm 0.00 in0.0 mm 0.00 in0.0 mm
11:31 AM 63.7°F17.6°C 44.7°F7.1°C 50% 3.7 mph NE6.0 kmh NE 9.4 mph15.1 kmh 30.18 in1022.0 mb 0.00 in0.0 mm 0.00 in0.0 mm 0.00 in0.0 mm
11:32 AM 63.7°F17.6°C 44.2°F6.8°C 49% 3.7 mph WNW6.0 kmh WNW 8.3 mph13.4 kmh 30.18 in1022.0 mb 0.00 in0.0 mm 0.00 in0.0 mm 0.00 in0.0 mm
11:33 AM 63.9°F17.7°C 43.8°F6.6°C 48% 3.7 mph N6.0 kmh N 8.3 mph13.4 kmh 30.18 in1022.0 mb 0.00 in0.0 mm 0.00 in0.0 mm 0.00 in0.0 mm
11:34 AM 64.0°F17.8°C 45.0°F7.2°C 50% 3.7 mph NW6.0 kmh NW 8.3 mph13.4 kmh 30.18 in1022.0 mb 0.00 in0.0 mm 0.00 in0.0 mm 0.00 in0.0 mm
11:35 AM 64.0°F17.8°C 45.0°F7.2°C 50% 4.2 mph NW6.8 kmh NW 8.3 mph13.4 kmh 30.18 in1022.0 mb 0.00 in0.0 mm 0.00 in0.0 mm 0.00 in0.0 mm
11:36 AM 64.0°F17.8°C 44.5°F6.9°C 49% 5.3 mph W8.5 kmh W 9.4 mph15.1 kmh 30.18 in1022.0 mb 0.00 in0.0 mm 0.00 in0.0 mm 0.00 in0.0 mm
11:37 AM 64.0°F17.8°C 44.5°F6.9°C 49% 4.7 mph NW7.6 kmh NW 9.4 mph15.1 kmh 30.18 in1022.0 mb 0.00 in0.0 mm 0.00 in0.0 mm 0.00 in0.0 mm
11:38 AM 64.2°F17.9°C 44.6°F7.0°C 49% 3.2 mph SW5.1 kmh SW 9.4 mph15.1 kmh 30.18 in1022.0 mb 0.00 in0.0 mm 0.00 in0.0 mm 0.00 in0.0 mm
11:39 AM 64.4°F18.0°C 45.4°F7.4°C 50% 3.2 mph W5.1 kmh W 9.4 mph15.1 kmh 30.18 in1022.0 mb 0.00 in0.0 mm 0.00 in0.0 mm 0.00 in0.0 mm
11:40 AM 64.4°F18.0°C 44.8°F7.1°C 49% 5.8 mph W9.3 kmh W 9.4 mph15.1 kmh 30.18 in1022.0 mb 0.00 in0.0 mm 0.00 in0.0 mm 0.00 in0.0 mm
11:41 AM 64.4°F18.0°C 45.4°F7.4°C 50% 5.8 mph WNW9.3 kmh WNW 9.4 mph15.1 kmh 30.18 in1022.0 mb 0.00 in0.0 mm 0.00 in0.0 mm 0.00 in0.0 mm
11:42 AM 64.6°F18.1°C 45.0°F7.2°C 49% 6.3 mph NNW10.1 kmh NNW 9.4 mph15.1 kmh 30.18 in1022.0 mb 0.00 in0.0 mm 0.00 in0.0 mm 0.00 in0.0 mm
11:43 AM 64.6°F18.1°C 44.5°F6.9°C 48% 4.2 mph NW6.8 kmh NW 9.4 mph15.1 kmh 30.18 in1022.0 mb 0.00 in0.0 mm 0.00 in0.0 mm 0.00 in0.0 mm
11:44 AM 64.6°F18.1°C 45.0°F7.2°C 49% 5.3 mph NNW8.5 kmh NNW 9.4 mph15.1 kmh 30.18 in1022.0 mb 0.00 in0.0 mm 0.00 in0.0 mm 0.00 in0.0 mm
11:45 AM 64.4°F18.0°C 44.3°F6.8°C 48% 7.3 mph W11.7 kmh W 9.4 mph15.1 kmh 30.18 in1022.0 mb 0.00 in0.0 mm 0.00 in0.0 mm 0.00 in0.0 mm
11:46 AM 64.4°F18.0°C 44.3°F6.8°C 48% 2.7 mph W4.3 kmh W 7.3 mph11.7 kmh 30.18 in1022.0 mb 0.00 in0.0 mm 0.00 in0.0 mm 0.00 in0.0 mm
11:47 AM 64.2°F17.9°C 44.6°F7.0°C 49% 4.2 mph WNW6.8 kmh WNW 7.3 mph11.7 kmh 30.18 in1022.0 mb 0.00 in0.0 mm 0.00 in0.0 mm 0.00 in0.0 mm
11:48 AM 64.2°F17.9°C 44.6°F7.0°C 49% 5.8 mph NNW9.3 kmh NNW 7.3 mph11.7 kmh 30.18 in1022.0 mb 0.00 in0.0 mm 0.00 in0.0 mm 0.00 in0.0 mm
11:49 AM 64.2°F17.9°C 44.6°F7.0°C 49% 6.8 mph WNW10.9 kmh WNW 7.3 mph11.7 kmh 30.18 in1022.0 mb 0.00 in0.0 mm 0.00 in0.0 mm 0.00 in0.0 mm
11:50 AM 64.4°F18.0°C 44.8°F7.1°C 49% 7.3 mph WNW11.7 kmh WNW 7.8 mph12.6 kmh 30.18 in1022.0 mb 0.00 in0.0 mm 0.00 in0.0 mm 0.00 in0.0 mm
11:51 AM 64.4°F18.0°C 45.4°F7.4°C 50% 5.8 mph NNW9.3 kmh NNW 7.8 mph12.6 kmh 30.18 in1022.0 mb 0.00 in0.0 mm 0.00 in0.0 mm 0.00 in0.0 mm
11:52 AM 64.0°F17.8°C 44.5°F6.9°C 49% 4.7 mph NNW7.6 kmh NNW 7.8 mph12.6 kmh 30.18 in1022.0 mb 0.00 in0.0 mm 0.00 in0.0 mm 0.00 in0.0 mm
11:53 AM 64.4°F18.0°C 45.4°F7.4°C 50% 5.3 mph WNW8.5 kmh WNW 7.8 mph12.6 kmh 30.18 in1022.0 mb 0.00 in0.0 mm 0.00 in0.0 mm 0.00 in0.0 mm
11:54 AM 64.9°F18.3°C 46.3°F7.9°C 51% 4.2 mph WNW6.8 kmh WNW 7.8 mph12.6 kmh 30.18 in1022.0 mb 0.00 in0.0 mm 0.00 in0.0 mm 0.00 in0.0 mm
11:55 AM 64.9°F18.3°C 45.3°F7.4°C 49% 7.8 mph W12.6 kmh W 7.8 mph12.6 kmh 30.18 in1022.0 mb 0.00 in0.0 mm 0.00 in0.0 mm 0.00 in0.0 mm
11:56 AM 64.8°F18.2°C 44.6°F7.0°C 48% 7.3 mph NNW11.7 kmh NNW 7.8 mph12.6 kmh 30.18 in1022.0 mb 0.00 in0.0 mm 0.00 in0.0 mm 0.00 in0.0 mm
11:57 AM 64.9°F18.3°C 44.7°F7.1°C 48% 4.7 mph NNW7.6 kmh NNW 7.8 mph12.6 kmh 30.18 in1022.0 mb 0.00 in0.0 mm 0.00 in0.0 mm 0.00 in0.0 mm
11:58 AM 65.5°F18.6°C 45.3°F7.4°C 48% 4.7 mph NNE7.6 kmh NNE 7.8 mph12.6 kmh 30.18 in1022.0 mb 0.00 in0.0 mm 0.00 in0.0 mm 0.00 in0.0 mm
11:59 AM 65.7°F18.7°C 44.9°F7.2°C 47% 3.7 mph NW6.0 kmh NW 7.8 mph12.6 kmh 30.18 in1022.0 mb 0.00 in0.0 mm 0.00 in0.0 mm 0.00 in0.0 mm
12:00 PM 66.0°F18.9°C 45.2°F7.3°C 47% 2.7 mph NW4.3 kmh NW 7.8 mph12.6 kmh 30.18 in1022.0 mb 0.00 in0.0 mm 0.00 in0.0 mm 0.00 in0.0 mm
12:01 PM 66.2°F19.0°C 45.4°F7.4°C 47% 3.7 mph ESE6.0 kmh ESE 7.8 mph12.6 kmh 30.18 in1022.0 mb 0.00 in0.0 mm 0.00 in0.0 mm 0.00 in0.0 mm
12:02 PM 66.6°F19.2°C 46.3°F7.9°C 48% 3.7 mph NNW6.0 kmh NNW 7.8 mph12.6 kmh 30.18 in1022.0 mb 0.00 in0.0 mm 0.00 in0.0 mm 0.00 in0.0 mm
12:03 PM 67.1°F19.5°C 47.3°F8.5°C 49% 4.2 mph NNW6.8 kmh NNW 7.8 mph12.6 kmh 30.18 in1022.0 mb 0.00 in0.0 mm 0.00 in0.0 mm 0.00 in0.0 mm
12:04 PM 67.1°F19.5°C 45.6°F7.6°C 46% 5.8 mph NE9.3 kmh NE 7.8 mph12.6 kmh 30.18 in1022.0 mb 0.00 in0.0 mm 0.00 in0.0 mm 0.00 in0.0 mm
12:05 PM 67.1°F19.5°C 45.6°F7.6°C 46% 4.2 mph NE6.8 kmh NE 7.8 mph12.6 kmh 30.18 in1022.0 mb 0.00 in0.0 mm 0.00 in0.0 mm 0.00 in0.0 mm
12:06 PM 67.3°F19.6°C 45.2°F7.3°C 45% 4.7 mph WNW7.6 kmh WNW 7.3 mph11.7 kmh 30.18 in1022.0 mb 0.00 in0.0 mm 0.00 in0.0 mm 0.00 in0.0 mm
12:07 PM 67.3°F19.6°C 45.8°F7.7°C 46% 5.8 mph NE9.3 kmh NE 5.8 mph9.3 kmh 30.17 in1021.7 mb 0.00 in0.0 mm 0.00 in0.0 mm 0.00 in0.0 mm
12:08 PM 67.1°F19.5°C 45.6°F7.6°C 46% 5.3 mph NNW8.5 kmh NNW 8.3 mph13.4 kmh 30.17 in1021.7 mb 0.00 in0.0 mm 0.00 in0.0 mm 0.00 in0.0 mm
12:09 PM 66.6°F19.2°C 45.7°F7.6°C 47% 5.3 mph NNE8.5 kmh NNE 8.3 mph13.4 kmh 30.17 in1021.7 mb 0.00 in0.0 mm 0.00 in0.0 mm 0.00 in0.0 mm
12:10 PM 66.4°F19.1°C 45.0°F7.2°C 46% 4.7 mph N7.6 kmh N 8.3 mph13.4 kmh 30.17 in1021.7 mb 0.00 in0.0 mm 0.00 in0.0 mm 0.00 in0.0 mm
12:11 PM 66.2°F19.0°C 44.8°F7.1°C 46% 5.3 mph NNW8.5 kmh NNW 8.3 mph13.4 kmh 30.17 in1021.7 mb 0.00 in0.0 mm 0.00 in0.0 mm 0.00 in0.0 mm
12:12 PM 66.2°F19.0°C 44.2°F6.8°C 45% 5.8 mph NNW9.3 kmh NNW 8.3 mph13.4 kmh 30.17 in1021.7 mb 0.00 in0.0 mm 0.00 in0.0 mm 0.00 in0.0 mm
12:13 PM 66.2°F19.0°C 44.8°F7.1°C 46% 7.3 mph WNW11.7 kmh WNW 8.3 mph13.4 kmh 30.17 in1021.7 mb 0.00 in0.0 mm 0.00 in0.0 mm 0.00 in0.0 mm
12:14 PM 66.2°F19.0°C 45.4°F7.4°C 47% 6.3 mph N10.1 kmh N 8.3 mph13.4 kmh 30.17 in1021.7 mb 0.00 in0.0 mm 0.00 in0.0 mm 0.00 in0.0 mm
12:15 PM 66.0°F18.9°C 45.7°F7.6°C 48% 3.2 mph SSW5.1 kmh SSW 8.3 mph13.4 kmh 30.17 in1021.7 mb 0.00 in0.0 mm 0.00 in0.0 mm 0.00 in0.0 mm
12:16 PM 66.0°F18.9°C 44.6°F7.0°C 46% 5.8 mph NNE9.3 kmh NNE 8.3 mph13.4 kmh 30.17 in1021.7 mb 0.00 in0.0 mm 0.00 in0.0 mm 0.00 in0.0 mm
12:17 PM 66.2°F19.0°C 45.4°F7.4°C 47% 4.2 mph WNW6.8 kmh WNW 8.3 mph13.4 kmh 30.17 in1021.7 mb 0.00 in0.0 mm 0.00 in0.0 mm 0.00 in0.0 mm
12:18 PM 66.2°F19.0°C 45.4°F7.4°C 47% 9.9 mph W15.9 kmh W 9.9 mph15.9 kmh 30.17 in1021.7 mb 0.00 in0.0 mm 0.00 in0.0 mm 0.00 in0.0 mm
12:19 PM 66.6°F19.2°C 45.2°F7.3°C 46% 6.3 mph NW10.1 kmh NW 9.9 mph15.9 kmh 30.17 in1021.7 mb 0.00 in0.0 mm 0.00 in0.0 mm 0.00 in0.0 mm
12:20 PM 66.6°F19.2°C 45.7°F7.6°C 47% 4.2 mph WNW6.8 kmh WNW 9.9 mph15.9 kmh 30.17 in1021.7 mb 0.00 in0.0 mm 0.00 in0.0 mm 0.00 in0.0 mm
12:21 PM 66.9°F19.4°C 46.0°F7.8°C 47% 4.2 mph WNW6.8 kmh WNW 9.9 mph15.9 kmh 30.17 in1021.7 mb 0.00 in0.0 mm 0.00 in0.0 mm 0.00 in0.0 mm
12:22 PM 67.1°F19.5°C 45.0°F7.2°C 45% 2.7 mph NNW4.3 kmh NNW 9.9 mph15.9 kmh 30.17 in1021.7 mb 0.00 in0.0 mm 0.00 in0.0 mm 0.00 in0.0 mm
12:23 PM 67.5°F19.7°C 45.4°F7.4°C 45% 3.7 mph WNW6.0 kmh WNW 9.9 mph15.9 kmh 30.17 in1021.7 mb 0.00 in0.0 mm 0.00 in0.0 mm 0.00 in0.0 mm
12:24 PM 67.8°F19.9°C 45.1°F7.3°C 44% 6.3 mph N10.1 kmh N 9.9 mph15.9 kmh 30.17 in1021.7 mb 0.00 in0.0 mm 0.00 in0.0 mm 0.00 in0.0 mm
12:25 PM 67.8°F19.9°C 44.5°F6.9°C 43% 5.8 mph NW9.3 kmh NW 9.9 mph15.9 kmh 30.17 in1021.7 mb 0.00 in0.0 mm 0.00 in0.0 mm 0.00 in0.0 mm
12:26 PM 67.8°F19.9°C 44.5°F6.9°C 43% 7.3 mph NW11.7 kmh NW 9.9 mph15.9 kmh 30.17 in1021.7 mb 0.00 in0.0 mm 0.00 in0.0 mm 0.00 in0.0 mm
12:27 PM 68.0°F20.0°C 44.0°F6.7°C 42% 6.3 mph WNW10.1 kmh WNW 9.9 mph15.9 kmh 30.17 in1021.7 mb 0.00 in0.0 mm 0.00 in0.0 mm 0.00 in0.0 mm
12:28 PM 68.0°F20.0°C 44.0°F6.7°C 42% 7.3 mph ENE11.7 kmh ENE 9.9 mph15.9 kmh 30.17 in1021.7 mb 0.00 in0.0 mm 0.00 in0.0 mm 0.00 in0.0 mm
12:29 PM 68.0°F20.0°C 44.0°F6.7°C 42% 5.8 mph NNW9.3 kmh NNW 7.8 mph12.6 kmh 30.17 in1021.7 mb 0.00 in0.0 mm 0.00 in0.0 mm 0.00 in0.0 mm
12:30 PM 67.6°F19.8°C 43.7°F6.5°C 42% 2.7 mph NNW4.3 kmh NNW 7.8 mph12.6 kmh 30.17 in1021.7 mb 0.00 in0.0 mm 0.00 in0.0 mm 0.00 in0.0 mm
12:31 PM 68.0°F20.0°C 44.0°F6.7°C 42% 4.2 mph NNW6.8 kmh NNW 7.8 mph12.6 kmh 30.17 in1021.7 mb 0.00 in0.0 mm 0.00 in0.0 mm 0.00 in0.0 mm
12:32 PM 68.0°F20.0°C 43.4°F6.3°C 41% 3.7 mph NNW6.0 kmh NNW 7.8 mph12.6 kmh 30.17 in1021.7 mb 0.00 in0.0 mm 0.00 in0.0 mm 0.00 in0.0 mm
12:33 PM 68.0°F20.0°C 43.4°F6.3°C 41% 3.2 mph WNW5.1 kmh WNW 7.8 mph12.6 kmh 30.17 in1021.7 mb 0.00 in0.0 mm 0.00 in0.0 mm 0.00 in0.0 mm
12:34 PM 67.6°F19.8°C 43.1°F6.2°C 41% 4.7 mph NW7.6 kmh NW 7.8 mph12.6 kmh 30.17 in1021.7 mb 0.00 in0.0 mm 0.00 in0.0 mm 0.00 in0.0 mm
12:35 PM 67.3°F19.6°C 43.4°F6.3°C 42% 3.2 mph N5.1 kmh N 7.3 mph11.7 kmh 30.17 in1021.7 mb 0.00 in0.0 mm 0.00 in0.0 mm 0.00 in0.0 mm
12:36 PM 67.8°F19.9°C 43.9°F6.6°C 42% 3.7 mph S6.0 kmh S 7.3 mph11.7 kmh 30.17 in1021.7 mb 0.00 in0.0 mm 0.00 in0.0 mm 0.00 in0.0 mm
12:37 PM 67.8°F19.9°C 43.9°F6.6°C 42% 4.2 mph ENE6.8 kmh ENE 7.3 mph11.7 kmh 30.17 in1021.7 mb 0.00 in0.0 mm 0.00 in0.0 mm 0.00 in0.0 mm
12:38 PM 68.2°F20.1°C 44.2°F6.8°C 42% 3.7 mph NW6.0 kmh NW 7.3 mph11.7 kmh 30.17 in1021.7 mb 0.00 in0.0 mm 0.00 in0.0 mm 0.00 in0.0 mm
12:39 PM 68.7°F20.4°C 45.9°F7.7°C 44% 4.7 mph W7.6 kmh W 7.3 mph11.7 kmh 30.17 in1021.7 mb 0.00 in0.0 mm 0.00 in0.0 mm 0.00 in0.0 mm
12:40 PM 68.5°F20.3°C 45.1°F7.3°C 43% 5.3 mph NW8.5 kmh NW 7.3 mph11.7 kmh 30.17 in1021.7 mb 0.00 in0.0 mm 0.00 in0.0 mm 0.00 in0.0 mm
12:41 PM 68.2°F20.1°C 44.2°F6.8°C 42% 4.7 mph N7.6 kmh N 7.3 mph11.7 kmh 30.17 in1021.7 mb 0.00 in0.0 mm 0.00 in0.0 mm 0.00 in0.0 mm
12:42 PM 68.4°F20.2°C 43.8°F6.6°C 41% 5.8 mph NNE9.3 kmh NNE 6.8 mph10.9 kmh 30.17 in1021.7 mb 0.00 in0.0 mm 0.00 in0.0 mm 0.00 in0.0 mm
12:43 PM 68.4°F20.2°C 43.8°F6.6°C 41% 3.7 mph W6.0 kmh W 6.8 mph10.9 kmh 30.17 in1021.7 mb 0.00 in0.0 mm 0.00 in0.0 mm 0.00 in0.0 mm
12:44 PM 68.5°F20.3°C 43.9°F6.6°C 41% 6.3 mph NNW10.1 kmh NNW 8.3 mph13.4 kmh 30.17 in1021.7 mb 0.00 in0.0 mm 0.00 in0.0 mm 0.00 in0.0 mm
12:45 PM 68.4°F20.2°C 43.8°F6.6°C 41% 4.2 mph WNW6.8 kmh WNW 8.3 mph13.4 kmh 30.17 in1021.7 mb 0.00 in0.0 mm 0.00 in0.0 mm 0.00 in0.0 mm
12:46 PM 68.2°F20.1°C 43.6°F6.4°C 41% 5.3 mph WNW8.5 kmh WNW 8.3 mph13.4 kmh 30.17 in1021.7 mb 0.00 in0.0 mm 0.00 in0.0 mm 0.00 in0.0 mm
12:47 PM 68.4°F20.2°C 43.8°F6.6°C 41% 4.7 mph NNW7.6 kmh NNW 8.3 mph13.4 kmh 30.17 in1021.7 mb 0.00 in0.0 mm 0.00 in0.0 mm 0.00 in0.0 mm
12:48 PM 68.5°F20.3°C 43.9°F6.6°C 41% 4.2 mph NW6.8 kmh NW 8.3 mph13.4 kmh 30.17 in1021.7 mb 0.00 in0.0 mm 0.00 in0.0 mm 0.00 in0.0 mm
12:49 PM 69.3°F20.7°C 43.9°F6.6°C 40% 6.3 mph WSW10.1 kmh WSW 8.3 mph13.4 kmh 30.17 in1021.7 mb 0.00 in0.0 mm 0.00 in0.0 mm 0.00 in0.0 mm
12:50 PM 69.4°F20.8°C 44.0°F6.7°C 40% 5.8 mph NE9.3 kmh NE 8.3 mph13.4 kmh 30.17 in1021.7 mb 0.00 in0.0 mm 0.00 in0.0 mm 0.00 in0.0 mm
12:51 PM 68.9°F20.5°C 42.9°F6.1°C 39% 4.2 mph NW6.8 kmh NW 8.3 mph13.4 kmh 30.17 in1021.7 mb 0.00 in0.0 mm 0.00 in0.0 mm 0.00 in0.0 mm
12:52 PM 68.5°F20.3°C 43.2°F6.2°C 40% 4.7 mph WNW7.6 kmh WNW 8.9 mph14.3 kmh 30.17 in1021.7 mb 0.00 in0.0 mm 0.00 in0.0 mm 0.00 in0.0 mm
12:53 PM 68.5°F20.3°C 42.6°F5.9°C 39% 4.7 mph N7.6 kmh N 8.9 mph14.3 kmh 30.17 in1021.7 mb 0.00 in0.0 mm 0.00 in0.0 mm 0.00 in0.0 mm
12:54 PM 68.7°F20.4°C 42.7°F5.9°C 39% 5.3 mph WNW8.5 kmh WNW 8.9 mph14.3 kmh 30.17 in1021.7 mb 0.00 in0.0 mm 0.00 in0.0 mm 0.00 in0.0 mm
12:55 PM 68.7°F20.4°C 42.7°F5.9°C 39% 4.7 mph WNW7.6 kmh WNW 8.9 mph14.3 kmh 30.16 in1021.3 mb 0.00 in0.0 mm 0.00 in0.0 mm 0.00 in0.0 mm
12:56 PM 68.9°F20.5°C 42.9°F6.1°C 39% 2.7 mph W4.3 kmh W 8.9 mph14.3 kmh 30.16 in1021.3 mb 0.00 in0.0 mm 0.00 in0.0 mm 0.00 in0.0 mm
12:57 PM 69.1°F20.6°C 43.1°F6.2°C 39% 5.8 mph NE9.3 kmh NE 8.9 mph14.3 kmh 30.16 in1021.3 mb 0.00 in0.0 mm 0.00 in0.0 mm 0.00 in0.0 mm
12:58 PM 68.9°F20.5°C 42.9°F6.1°C 39% 3.7 mph W6.0 kmh W 8.9 mph14.3 kmh 30.16 in1021.3 mb 0.00 in0.0 mm 0.00 in0.0 mm 0.00 in0.0 mm
12:59 PM 69.1°F20.6°C 44.4°F6.9°C 41% 2.7 mph N4.3 kmh N 8.9 mph14.3 kmh 30.16 in1021.3 mb 0.00 in0.0 mm 0.00 in0.0 mm 0.00 in0.0 mm
01:00 PM 69.4°F20.8°C 44.0°F6.7°C 40% 7.3 mph NW11.7 kmh NW 8.9 mph14.3 kmh 30.16 in1021.3 mb 0.00 in0.0 mm 0.00 in0.0 mm 0.00 in0.0 mm
01:01 PM 69.4°F20.8°C 42.7°F5.9°C 38% 5.3 mph NNW8.5 kmh NNW 8.9 mph14.3 kmh 30.16 in1021.3 mb 0.00 in0.0 mm 0.00 in0.0 mm 0.00 in0.0 mm
01:02 PM 69.3°F20.7°C 42.6°F5.9°C 38% 9.4 mph NNW15.1 kmh NNW 9.4 mph15.1 kmh 30.16 in1021.3 mb 0.00 in0.0 mm 0.00 in0.0 mm 0.00 in0.0 mm
01:03 PM 69.3°F20.7°C 42.6°F5.9°C 38% 4.7 mph W7.6 kmh W 9.4 mph15.1 kmh 30.16 in1021.3 mb 0.00 in0.0 mm 0.00 in0.0 mm 0.00 in0.0 mm
01:04 PM 69.4°F20.8°C 42.7°F5.9°C 38% 5.8 mph ENE9.3 kmh ENE 9.4 mph15.1 kmh 30.16 in1021.3 mb 0.00 in0.0 mm 0.00 in0.0 mm 0.00 in0.0 mm
01:05 PM 69.4°F20.8°C 42.7°F5.9°C 38% 5.3 mph SW8.5 kmh SW 9.4 mph15.1 kmh 30.16 in1021.3 mb 0.00 in0.0 mm 0.00 in0.0 mm 0.00 in0.0 mm
01:06 PM 69.6°F20.9°C 42.9°F6.1°C 38% 5.3 mph N8.5 kmh N 9.4 mph15.1 kmh 30.16 in1021.3 mb 0.00 in0.0 mm 0.00 in0.0 mm 0.00 in0.0 mm
01:07 PM 69.1°F20.6°C 43.1°F6.2°C 39% 2.7 mph NNE4.3 kmh NNE 9.4 mph15.1 kmh 30.16 in1021.3 mb 0.00 in0.0 mm 0.00 in0.0 mm 0.00 in0.0 mm
01:08 PM 69.3°F20.7°C 43.3°F6.3°C 39% 3.7 mph ESE6.0 kmh ESE 9.4 mph15.1 kmh 30.16 in1021.3 mb 0.00 in0.0 mm 0.00 in0.0 mm 0.00 in0.0 mm
01:09 PM 70.0°F21.1°C 43.2°F6.2°C 38% 3.7 mph NW6.0 kmh NW 9.4 mph15.1 kmh 30.16 in1021.3 mb 0.00 in0.0 mm 0.00 in0.0 mm 0.00 in0.0 mm
01:10 PM 70.3°F21.3°C 42.8°F6.0°C 37% 3.7 mph WNW6.0 kmh WNW 9.4 mph15.1 kmh 30.16 in1021.3 mb 0.00 in0.0 mm 0.00 in0.0 mm 0.00 in0.0 mm
01:11 PM 70.7°F21.5°C 43.1°F6.2°C 37% 2.7 mph NE4.3 kmh NE 9.4 mph15.1 kmh 30.16 in1021.3 mb 0.00 in0.0 mm 0.00 in0.0 mm 0.00 in0.0 mm
01:12 PM 70.9°F21.6°C 43.3°F6.3°C 37% 4.2 mph ENE6.8 kmh ENE 9.4 mph15.1 kmh 30.16 in1021.3 mb 0.00 in0.0 mm 0.00 in0.0 mm 0.00 in0.0 mm
01:13 PM 70.0°F21.1°C 43.2°F6.2°C 38% 1.7 mph ESE2.7 kmh ESE 6.3 mph10.1 kmh 30.16 in1021.3 mb 0.00 in0.0 mm 0.00 in0.0 mm 0.00 in0.0 mm
01:14 PM 69.1°F20.6°C 43.1°F6.2°C 39% 4.2 mph ENE6.8 kmh ENE 5.8 mph9.3 kmh 30.16 in1021.3 mb 0.00 in0.0 mm 0.00 in0.0 mm 0.00 in0.0 mm
01:15 PM 69.1°F20.6°C 43.8°F6.6°C 40% 3.2 mph N5.1 kmh N 5.3 mph8.5 kmh 30.16 in1021.3 mb 0.00 in0.0 mm 0.00 in0.0 mm 0.00 in0.0 mm
01:16 PM 69.8°F21.0°C 44.4°F6.9°C 40% 3.7 mph NW6.0 kmh NW 5.3 mph8.5 kmh 30.16 in1021.3 mb 0.00 in0.0 mm 0.00 in0.0 mm 0.00 in0.0 mm
01:17 PM 69.8°F21.0°C 43.7°F6.5°C 39% 3.2 mph W5.1 kmh W 4.2 mph6.8 kmh 30.16 in1021.3 mb 0.00 in0.0 mm 0.00 in0.0 mm 0.00 in0.0 mm
01:18 PM 70.0°F21.1°C 43.2°F6.2°C 38% 2.7 mph NNE4.3 kmh NNE 4.2 mph6.8 kmh 30.16 in1021.3 mb 0.00 in0.0 mm 0.00 in0.0 mm 0.00 in0.0 mm
01:19 PM 70.3°F21.3°C 43.5°F6.4°C 38% 2.2 mph NE3.5 kmh NE 4.7 mph7.6 kmh 30.16 in1021.3 mb 0.00 in0.0 mm 0.00 in0.0 mm 0.00 in0.0 mm
01:20 PM 70.7°F21.5°C 43.8°F6.6°C 38% 3.7 mph N6.0 kmh N 4.7 mph7.6 kmh 30.16 in1021.3 mb 0.00 in0.0 mm 0.00 in0.0 mm 0.00 in0.0 mm
01:21 PM 69.8°F21.0°C 43.0°F6.1°C 38% 6.8 mph NW10.9 kmh NW 6.8 mph10.9 kmh 30.16 in1021.3 mb 0.00 in0.0 mm 0.00 in0.0 mm 0.00 in0.0 mm
01:22 PM 70.0°F21.1°C 44.6°F7.0°C 40% 4.2 mph WNW6.8 kmh WNW 6.8 mph10.9 kmh 30.16 in1021.3 mb 0.00 in0.0 mm 0.00 in0.0 mm 0.00 in0.0 mm
01:23 PM 70.3°F21.3°C 44.8°F7.1°C 40% 4.2 mph WNW6.8 kmh WNW 6.8 mph10.9 kmh 30.16 in1021.3 mb 0.00 in0.0 mm 0.00 in0.0 mm 0.00 in0.0 mm
01:24 PM 70.2°F21.2°C 44.1°F6.7°C 39% 6.3 mph NNW10.1 kmh NNW 6.8 mph10.9 kmh 30.16 in1021.3 mb 0.00 in0.0 mm 0.00 in0.0 mm 0.00 in0.0 mm
01:25 PM 69.6°F20.9°C 44.2°F6.8°C 40% 4.2 mph W6.8 kmh W 6.8 mph10.9 kmh 30.16 in1021.3 mb 0.00 in0.0 mm 0.00 in0.0 mm 0.00 in0.0 mm
01:26 PM 69.4°F20.8°C 44.0°F6.7°C 40% 5.3 mph N8.5 kmh N 6.8 mph10.9 kmh 30.16 in1021.3 mb 0.00 in0.0 mm 0.00 in0.0 mm 0.00 in0.0 mm
01:27 PM 69.3°F20.7°C 43.9°F6.6°C 40% 3.7 mph ESE6.0 kmh ESE 6.8 mph10.9 kmh 30.16 in1021.3 mb 0.00 in0.0 mm 0.00 in0.0 mm 0.00 in0.0 mm
01:28 PM 69.8°F21.0°C 44.4°F6.9°C 40% 5.8 mph NW9.3 kmh NW 6.8 mph10.9 kmh 30.16 in1021.3 mb 0.00 in0.0 mm 0.00 in0.0 mm 0.00 in0.0 mm
01:29 PM 69.8°F21.0°C 44.4°F6.9°C 40% 6.3 mph NNW10.1 kmh NNW 6.8 mph10.9 kmh 30.16 in1021.3 mb 0.00 in0.0 mm 0.00 in0.0 mm 0.00 in0.0 mm
01:30 PM 69.1°F20.6°C 44.4°F6.9°C 41% 2.7 mph WNW4.3 kmh WNW 6.8 mph10.9 kmh 30.16 in1021.3 mb 0.00 in0.0 mm 0.00 in0.0 mm 0.00 in0.0 mm
01:31 PM 69.1°F20.6°C 43.8°F6.6°C 40% 3.2 mph NNW5.1 kmh NNW 6.8 mph10.9 kmh 30.16 in1021.3 mb 0.00 in0.0 mm 0.00 in0.0 mm 0.00 in0.0 mm
01:32 PM 69.3°F20.7°C 43.3°F6.3°C 39% 4.2 mph NNE6.8 kmh NNE 6.8 mph10.9 kmh 30.16 in1021.3 mb 0.00 in0.0 mm 0.00 in0.0 mm 0.00 in0.0 mm
01:33 PM 69.4°F20.8°C 43.4°F6.3°C 39% 6.3 mph NW10.1 kmh NW 7.3 mph11.7 kmh 30.16 in1021.3 mb 0.00 in0.0 mm 0.00 in0.0 mm 0.00 in0.0 mm
01:34 PM 69.4°F20.8°C 44.0°F6.7°C 40% 5.3 mph WNW8.5 kmh WNW 7.3 mph11.7 kmh 30.16 in1021.3 mb 0.00 in0.0 mm 0.00 in0.0 mm 0.00 in0.0 mm
01:35 PM 69.4°F20.8°C 45.3°F7.4°C 42% 3.2 mph NNE5.1 kmh NNE 7.3 mph11.7 kmh 30.16 in1021.3 mb 0.00 in0.0 mm 0.00 in0.0 mm 0.00 in0.0 mm
01:36 PM 69.4°F20.8°C 44.7°F7.1°C 41% 5.3 mph NNE8.5 kmh NNE 7.3 mph11.7 kmh 30.16 in1021.3 mb 0.00 in0.0 mm 0.00 in0.0 mm 0.00 in0.0 mm
01:37 PM 69.6°F20.9°C 44.2°F6.8°C 40% 5.3 mph SE8.5 kmh SE 7.3 mph11.7 kmh 30.16 in1021.3 mb 0.00 in0.0 mm 0.00 in0.0 mm 0.00 in0.0 mm
01:38 PM 69.6°F20.9°C 44.8°F7.1°C 41% 3.2 mph NW5.1 kmh NW 7.3 mph11.7 kmh 30.16 in1021.3 mb 0.00 in0.0 mm 0.00 in0.0 mm 0.00 in0.0 mm
01:39 PM 69.8°F21.0°C 44.4°F6.9°C 40% 4.2 mph N6.8 kmh N 7.3 mph11.7 kmh 30.16 in1021.3 mb 0.00 in0.0 mm 0.00 in0.0 mm 0.00 in0.0 mm
01:40 PM 69.8°F21.0°C 43.7°F6.5°C 39% 5.8 mph WNW9.3 kmh WNW 7.3 mph11.7 kmh 30.16 in1021.3 mb 0.00 in0.0 mm 0.00 in0.0 mm 0.00 in0.0 mm
01:41 PM 70.0°F21.1°C 43.9°F6.6°C 39% 6.8 mph NNW10.9 kmh NNW 7.3 mph11.7 kmh 30.16 in1021.3 mb 0.00 in0.0 mm 0.00 in0.0 mm 0.00 in0.0 mm
01:42 PM 69.3°F20.7°C 44.6°F7.0°C 41% 6.3 mph NNW10.1 kmh NNW 7.3 mph11.7 kmh 30.16 in1021.3 mb 0.00 in0.0 mm 0.00 in0.0 mm 0.00 in0.0 mm
01:43 PM 69.6°F20.9°C 44.8°F7.1°C 41% 4.2 mph NNE6.8 kmh NNE 6.8 mph10.9 kmh 30.15 in1021.0 mb 0.00 in0.0 mm 0.00 in0.0 mm 0.00 in0.0 mm
01:44 PM 70.2°F21.2°C 45.4°F7.4°C 41% 3.2 mph W5.1 kmh W 6.8 mph10.9 kmh 30.15 in1021.0 mb 0.00 in0.0 mm 0.00 in0.0 mm 0.00 in0.0 mm
01:45 PM 70.2°F21.2°C 44.7°F7.1°C 40% 6.8 mph W10.9 kmh W 6.8 mph10.9 kmh 30.15 in1021.0 mb 0.00 in0.0 mm 0.00 in0.0 mm 0.00 in0.0 mm
01:46 PM 70.0°F21.1°C 45.2°F7.3°C 41% 5.3 mph N8.5 kmh N 6.8 mph10.9 kmh 30.15 in1021.0 mb 0.00 in0.0 mm 0.00 in0.0 mm 0.00 in0.0 mm
01:47 PM 70.2°F21.2°C 44.7°F7.1°C 40% 3.7 mph NNE6.0 kmh NNE 6.8 mph10.9 kmh 30.15 in1021.0 mb 0.00 in0.0 mm 0.00 in0.0 mm 0.00 in0.0 mm
01:48 PM 70.3°F21.3°C 44.2°F6.8°C 39% 7.3 mph NNW11.7 kmh NNW 7.3 mph11.7 kmh 30.15 in1021.0 mb 0.00 in0.0 mm 0.00 in0.0 mm 0.00 in0.0 mm
01:49 PM 70.3°F21.3°C 44.2°F6.8°C 39% 4.7 mph NNW7.6 kmh NNW 7.3 mph11.7 kmh 30.15 in1021.0 mb 0.00 in0.0 mm 0.00 in0.0 mm 0.00 in0.0 mm
01:50 PM 70.0°F21.1°C 43.9°F6.6°C 39% 3.7 mph NE6.0 kmh NE 7.3 mph11.7 kmh 30.15 in1021.0 mb 0.00 in0.0 mm 0.00 in0.0 mm 0.00 in0.0 mm
01:51 PM 69.6°F20.9°C 43.5°F6.4°C 39% 3.7 mph W6.0 kmh W 7.3 mph11.7 kmh 30.15 in1021.0 mb 0.00 in0.0 mm 0.00 in0.0 mm 0.00 in0.0 mm
01:52 PM 69.4°F20.8°C 42.7°F5.9°C 38% 1.7 mph ESE2.7 kmh ESE 7.3 mph11.7 kmh 30.15 in1021.0 mb 0.00 in0.0 mm 0.00 in0.0 mm 0.00 in0.0 mm
01:53 PM 70.3°F21.3°C 43.5°F6.4°C 38% 2.7 mph SW4.3 kmh SW 7.3 mph11.7 kmh 30.15 in1021.0 mb 0.00 in0.0 mm 0.00 in0.0 mm 0.00 in0.0 mm
01:54 PM 70.7°F21.5°C 43.1°F6.2°C 37% 3.7 mph E6.0 kmh E 7.3 mph11.7 kmh 30.15 in1021.0 mb 0.00 in0.0 mm 0.00 in0.0 mm 0.00 in0.0 mm
01:55 PM 70.9°F21.6°C 44.7°F7.1°C 39% 2.7 mph NE4.3 kmh NE 7.3 mph11.7 kmh 30.15 in1021.0 mb 0.00 in0.0 mm 0.00 in0.0 mm 0.00 in0.0 mm
01:56 PM 70.9°F21.6°C 44.0°F6.7°C 38% 4.2 mph W6.8 kmh W 7.3 mph11.7 kmh 30.15 in1021.0 mb 0.00 in0.0 mm 0.00 in0.0 mm 0.00 in0.0 mm
01:57 PM 70.3°F21.3°C 43.5°F6.4°C 38% 3.2 mph WNW5.1 kmh WNW 7.3 mph11.7 kmh 30.15 in1021.0 mb 0.00 in0.0 mm 0.00 in0.0 mm 0.00 in0.0 mm
01:58 PM 70.0°F21.1°C 43.2°F6.2°C 38% 4.7 mph NW7.6 kmh NW 5.8 mph9.3 kmh 30.15 in1021.0 mb 0.00 in0.0 mm 0.00 in0.0 mm 0.00 in0.0 mm
01:59 PM 70.2°F21.2°C 44.1°F6.7°C 39% 4.2 mph SE6.8 kmh SE 5.8 mph9.3 kmh 30.15 in1021.0 mb 0.00 in0.0 mm 0.00 in0.0 mm 0.00 in0.0 mm
02:00 PM 69.8°F21.0°C 43.7°F6.5°C 39% 4.2 mph NW6.8 kmh NW 5.8 mph9.3 kmh 30.15 in1021.0 mb 0.00 in0.0 mm 0.00 in0.0 mm 0.00 in0.0 mm
02:01 PM 69.1°F20.6°C 43.8°F6.6°C 40% 4.7 mph NE7.6 kmh NE 5.8 mph9.3 kmh 30.15 in1021.0 mb 0.00 in0.0 mm 0.00 in0.0 mm 0.00 in0.0 mm
02:02 PM 69.1°F20.6°C 45.7°F7.6°C 43% 3.7 mph WNW6.0 kmh WNW 5.8 mph9.3 kmh 30.15 in1021.0 mb 0.00 in0.0 mm 0.00 in0.0 mm 0.00 in0.0 mm
02:03 PM 69.8°F21.0°C 46.3°F7.9°C 43% 5.8 mph N9.3 kmh N 6.8 mph10.9 kmh 30.15 in1021.0 mb 0.00 in0.0 mm 0.00 in0.0 mm 0.00 in0.0 mm
02:04 PM 70.2°F21.2°C 46.6°F8.1°C 43% 3.7 mph NE6.0 kmh NE 6.8 mph10.9 kmh 30.15 in1021.0 mb 0.00 in0.0 mm 0.00 in0.0 mm 0.00 in0.0 mm
02:05 PM 70.2°F21.2°C 46.6°F8.1°C 43% 4.7 mph E7.6 kmh E 6.8 mph10.9 kmh 30.15 in1021.0 mb 0.00 in0.0 mm 0.00 in0.0 mm 0.00 in0.0 mm
02:06 PM 70.3°F21.3°C 46.7°F8.2°C 43% 4.2 mph NNW6.8 kmh NNW 6.8 mph10.9 kmh 30.15 in1021.0 mb 0.00 in0.0 mm 0.00 in0.0 mm 0.00 in0.0 mm
02:07 PM 70.3°F21.3°C 44.8°F7.1°C 40% 5.8 mph N9.3 kmh N 6.8 mph10.9 kmh 30.15 in1021.0 mb 0.00 in0.0 mm 0.00 in0.0 mm 0.00 in0.0 mm
02:08 PM 70.3°F21.3°C 42.8°F6.0°C 37% 3.7 mph NE6.0 kmh NE 6.8 mph10.9 kmh 30.15 in1021.0 mb 0.00 in0.0 mm 0.00 in0.0 mm 0.00 in0.0 mm
02:09 PM 70.5°F21.4°C 42.3°F5.7°C 36% 4.2 mph W6.8 kmh W 6.8 mph10.9 kmh 30.15 in1021.0 mb 0.00 in0.0 mm 0.00 in0.0 mm 0.00 in0.0 mm
02:10 PM 70.5°F21.4°C 45.0°F7.2°C 40% 3.2 mph NE5.1 kmh NE 6.8 mph10.9 kmh 30.15 in1021.0 mb 0.00 in0.0 mm 0.00 in0.0 mm 0.00 in0.0 mm
02:11 PM 70.2°F21.2°C 46.0°F7.8°C 42% 3.7 mph NNW6.0 kmh NNW 6.8 mph10.9 kmh 30.15 in1021.0 mb 0.00 in0.0 mm 0.00 in0.0 mm 0.00 in0.0 mm
02:12 PM 70.0°F21.1°C 47.7°F8.7°C 45% 4.7 mph NNE7.6 kmh NNE 6.8 mph10.9 kmh 30.15 in1021.0 mb 0.00 in0.0 mm 0.00 in0.0 mm 0.00 in0.0 mm
02:13 PM 70.3°F21.3°C 47.3°F8.5°C 44% 4.7 mph NW7.6 kmh NW 6.3 mph10.1 kmh 30.15 in1021.0 mb 0.00 in0.0 mm 0.00 in0.0 mm 0.00 in0.0 mm
02:14 PM 70.3°F21.3°C 46.1°F7.8°C 42% 2.7 mph NNW4.3 kmh NNW 6.3 mph10.1 kmh 30.15 in1021.0 mb 0.00 in0.0 mm 0.00 in0.0 mm 0.00 in0.0 mm
02:15 PM 70.7°F21.5°C 46.5°F8.1°C 42% 4.7 mph WNW7.6 kmh WNW 6.3 mph10.1 kmh 30.15 in1021.0 mb 0.00 in0.0 mm 0.00 in0.0 mm 0.00 in0.0 mm
02:16 PM 70.7°F21.5°C 47.1°F8.4°C 43% 4.7 mph W7.6 kmh W 6.3 mph10.1 kmh 30.15 in1021.0 mb 0.00 in0.0 mm 0.00 in0.0 mm 0.00 in0.0 mm
02:17 PM 69.8°F21.0°C 47.5°F8.6°C 45% 3.7 mph N6.0 kmh N 6.3 mph10.1 kmh 30.15 in1021.0 mb 0.00 in0.0 mm 0.00 in0.0 mm 0.00 in0.0 mm
02:18 PM 70.3°F21.3°C 47.9°F8.8°C 45% 6.8 mph NNW10.9 kmh NNW 6.8 mph10.9 kmh 30.15 in1021.0 mb 0.00 in0.0 mm 0.00 in0.0 mm 0.00 in0.0 mm
02:19 PM 70.5°F21.4°C 48.1°F8.9°C 45% 5.8 mph NW9.3 kmh NW 6.8 mph10.9 kmh 30.15 in1021.0 mb 0.00 in0.0 mm 0.00 in0.0 mm 0.00 in0.0 mm
02:20 PM 70.2°F21.2°C 46.6°F8.1°C 43% 6.8 mph NNW10.9 kmh NNW 7.8 mph12.6 kmh 30.15 in1021.0 mb 0.00 in0.0 mm 0.00 in0.0 mm 0.00 in0.0 mm
02:21 PM 70.2°F21.2°C 46.6°F8.1°C 43% 3.7 mph NNW6.0 kmh NNW 7.8 mph12.6 kmh 30.15 in1021.0 mb 0.00 in0.0 mm 0.00 in0.0 mm 0.00 in0.0 mm
02:22 PM 70.2°F21.2°C 45.4°F7.4°C 41% 2.7 mph W4.3 kmh W 7.8 mph12.6 kmh 30.15 in1021.0 mb 0.00 in0.0 mm 0.00 in0.0 mm 0.00 in0.0 mm
02:23 PM 70.3°F21.3°C 45.5°F7.5°C 41% 4.2 mph N6.8 kmh N 7.8 mph12.6 kmh 30.15 in1021.0 mb 0.00 in0.0 mm 0.00 in0.0 mm 0.00 in0.0 mm
02:24 PM 70.5°F21.4°C 45.7°F7.6°C 41% 3.2 mph NW5.1 kmh NW 7.8 mph12.6 kmh 30.15 in1021.0 mb 0.00 in0.0 mm 0.00 in0.0 mm 0.00 in0.0 mm
02:25 PM 70.3°F21.3°C 45.5°F7.5°C 41% 4.7 mph NNW7.6 kmh NNW 7.8 mph12.6 kmh 30.15 in1021.0 mb 0.00 in0.0 mm 0.00 in0.0 mm 0.00 in0.0 mm
02:26 PM 69.6°F20.9°C 45.5°F7.5°C 42% 4.7 mph NNW7.6 kmh NNW 7.8 mph12.6 kmh 30.15 in1021.0 mb 0.00 in0.0 mm 0.00 in0.0 mm 0.00 in0.0 mm
02:27 PM 69.8°F21.0°C 47.5°F8.6°C 45% 4.7 mph ESE7.6 kmh ESE 7.8 mph12.6 kmh 30.15 in1021.0 mb 0.00 in0.0 mm 0.00 in0.0 mm 0.00 in0.0 mm
02:28 PM 70.0°F21.1°C 48.8°F9.3°C 47% 4.7 mph NW7.6 kmh NW 7.8 mph12.6 kmh 30.15 in1021.0 mb 0.00 in0.0 mm 0.00 in0.0 mm 0.00 in0.0 mm
02:29 PM 70.0°F21.1°C 48.3°F9.1°C 46% 3.2 mph ENE5.1 kmh ENE 7.8 mph12.6 kmh 30.15 in1021.0 mb 0.00 in0.0 mm 0.00 in0.0 mm 0.00 in0.0 mm
02:30 PM 70.5°F21.4°C 48.7°F9.3°C 46% 5.8 mph WNW9.3 kmh WNW 6.8 mph10.9 kmh 30.15 in1021.0 mb 0.00 in0.0 mm 0.00 in0.0 mm 0.00 in0.0 mm
02:31 PM 70.2°F21.2°C 49.0°F9.4°C 47% 3.7 mph NNW6.0 kmh NNW 6.8 mph10.9 kmh 30.15 in1021.0 mb 0.00 in0.0 mm 0.00 in0.0 mm 0.00 in0.0 mm
02:32 PM 70.3°F21.3°C 49.1°F9.5°C 47% 3.7 mph NW6.0 kmh NW 6.8 mph10.9 kmh 30.14 in1020.7 mb 0.00 in0.0 mm 0.00 in0.0 mm 0.00 in0.0 mm
02:33 PM 70.5°F21.4°C 48.7°F9.3°C 46% 5.3 mph NNE8.5 kmh NNE 6.8 mph10.9 kmh 30.14 in1020.7 mb 0.00 in0.0 mm 0.00 in0.0 mm 0.00 in0.0 mm
02:34 PM 70.7°F21.5°C 48.9°F9.4°C 46% 3.7 mph ESE6.0 kmh ESE 6.8 mph10.9 kmh 30.14 in1020.7 mb 0.00 in0.0 mm 0.00 in0.0 mm 0.00 in0.0 mm
02:35 PM 71.1°F21.7°C 49.8°F9.9°C 47% 5.3 mph NNW8.5 kmh NNW 6.3 mph10.1 kmh 30.14 in1020.7 mb 0.00 in0.0 mm 0.00 in0.0 mm 0.00 in0.0 mm
02:36 PM 71.1°F21.7°C 49.8°F9.9°C 47% 5.3 mph W8.5 kmh W 6.3 mph10.1 kmh 30.14 in1020.7 mb 0.00 in0.0 mm 0.00 in0.0 mm 0.00 in0.0 mm
02:37 PM 70.9°F21.6°C 48.5°F9.2°C 45% 4.7 mph S7.6 kmh S 5.8 mph9.3 kmh 30.14 in1020.7 mb 0.00 in0.0 mm 0.00 in0.0 mm 0.00 in0.0 mm
02:38 PM 70.5°F21.4°C 48.7°F9.3°C 46% 2.7 mph NW4.3 kmh NW 5.8 mph9.3 kmh 30.14 in1020.7 mb 0.00 in0.0 mm 0.00 in0.0 mm 0.00 in0.0 mm
02:39 PM 70.7°F21.5°C 48.9°F9.4°C 46% 4.2 mph ESE6.8 kmh ESE 7.3 mph11.7 kmh 30.14 in1020.7 mb 0.00 in0.0 mm 0.00 in0.0 mm 0.00 in0.0 mm
02:40 PM 70.5°F21.4°C 48.7°F9.3°C 46% 2.7 mph NE4.3 kmh NE 7.3 mph11.7 kmh 30.14 in1020.7 mb 0.00 in0.0 mm 0.00 in0.0 mm 0.00 in0.0 mm
02:41 PM 70.9°F21.6°C 48.5°F9.2°C 45% 2.2 mph NNW3.5 kmh NNW 7.3 mph11.7 kmh 30.14 in1020.7 mb 0.00 in0.0 mm 0.00 in0.0 mm 0.00 in0.0 mm
02:42 PM 71.4°F21.9°C 50.1°F10.1°C 47% 3.7 mph WSW6.0 kmh WSW 7.3 mph11.7 kmh 30.14 in1020.7 mb 0.00 in0.0 mm 0.00 in0.0 mm 0.00 in0.0 mm
02:43 PM 71.1°F21.7°C 49.8°F9.9°C 47% 3.2 mph E5.1 kmh E 7.3 mph11.7 kmh 30.14 in1020.7 mb 0.00 in0.0 mm 0.00 in0.0 mm 0.00 in0.0 mm
02:44 PM 71.1°F21.7°C 49.8°F9.9°C 47% 5.8 mph N9.3 kmh N 7.3 mph11.7 kmh 30.14 in1020.7 mb 0.00 in0.0 mm 0.00 in0.0 mm 0.00 in0.0 mm
02:45 PM 71.6°F22.0°C 50.3°F10.2°C 47% 5.3 mph NNW8.5 kmh NNW 7.3 mph11.7 kmh 30.14 in1020.7 mb 0.00 in0.0 mm 0.00 in0.0 mm 0.00 in0.0 mm
02:46 PM 71.6°F22.0°C 49.7°F9.8°C 46% 6.8 mph NNE10.9 kmh NNE 7.3 mph11.7 kmh 30.14 in1020.7 mb 0.00 in0.0 mm 0.00 in0.0 mm 0.00 in0.0 mm
02:47 PM 71.4°F21.9°C 50.1°F10.1°C 47% 4.2 mph W6.8 kmh W 7.3 mph11.7 kmh 30.14 in1020.7 mb 0.00 in0.0 mm 0.00 in0.0 mm 0.00 in0.0 mm
02:48 PM 71.2°F21.8°C 49.9°F9.9°C 47% 5.3 mph NNW8.5 kmh NNW 7.3 mph11.7 kmh 30.14 in1020.7 mb 0.00 in0.0 mm 0.00 in0.0 mm 0.00 in0.0 mm
02:49 PM 71.1°F21.7°C 49.8°F9.9°C 47% 3.2 mph NW5.1 kmh NW 6.8 mph10.9 kmh 30.14 in1020.7 mb 0.00 in0.0 mm 0.00 in0.0 mm 0.00 in0.0 mm
02:50 PM 71.1°F21.7°C 50.4°F10.2°C 48% 2.7 mph WNW4.3 kmh WNW 6.8 mph10.9 kmh 30.14 in1020.7 mb 0.00 in0.0 mm 0.00 in0.0 mm 0.00 in0.0 mm
02:51 PM 71.2°F21.8°C 49.9°F9.9°C 47% 4.7 mph ENE7.6 kmh ENE 6.8 mph10.9 kmh 30.14 in1020.7 mb 0.00 in0.0 mm 0.00 in0.0 mm 0.00 in0.0 mm
02:52 PM 71.8°F22.1°C 51.0°F10.6°C 48% 4.7 mph N7.6 kmh N 6.8 mph10.9 kmh 30.14 in1020.7 mb 0.00 in0.0 mm 0.00 in0.0 mm 0.00 in0.0 mm
02:53 PM 72.1°F22.3°C 50.2°F10.1°C 46% 5.8 mph NNW9.3 kmh NNW 6.8 mph10.9 kmh 30.14 in1020.7 mb 0.00 in0.0 mm 0.00 in0.0 mm 0.00 in0.0 mm
02:54 PM 71.6°F22.0°C 50.3°F10.2°C 47% 3.7 mph NNE6.0 kmh NNE 6.8 mph10.9 kmh 30.14 in1020.7 mb 0.00 in0.0 mm 0.00 in0.0 mm 0.00 in0.0 mm
02:55 PM 71.6°F22.0°C 49.7°F9.8°C 46% 4.7 mph ENE7.6 kmh ENE 6.8 mph10.9 kmh 30.13 in1020.3 mb 0.00 in0.0 mm 0.00 in0.0 mm 0.00 in0.0 mm
02:56 PM 71.8°F22.1°C 49.3°F9.6°C 45% 3.7 mph ESE6.0 kmh ESE 6.3 mph10.1 kmh 30.13 in1020.3 mb 0.00 in0.0 mm 0.00 in0.0 mm 0.00 in0.0 mm
02:57 PM 71.2°F21.8°C 47.5°F8.6°C 43% 4.7 mph NNW7.6 kmh NNW 6.8 mph10.9 kmh 30.13 in1020.3 mb 0.00 in0.0 mm 0.00 in0.0 mm 0.00 in0.0 mm
02:58 PM 70.7°F21.5°C 45.8°F7.7°C 41% 3.2 mph N5.1 kmh N 6.8 mph10.9 kmh 30.13 in1020.3 mb 0.00 in0.0 mm 0.00 in0.0 mm 0.00 in0.0 mm
02:59 PM 70.9°F21.6°C 46.7°F8.2°C 42% 3.2 mph N5.1 kmh N 6.8 mph10.9 kmh 30.13 in1020.3 mb 0.00 in0.0 mm 0.00 in0.0 mm 0.00 in0.0 mm
03:00 PM 70.7°F21.5°C 48.3°F9.1°C 45% 3.2 mph NW5.1 kmh NW 6.8 mph10.9 kmh 30.13 in1020.3 mb 0.00 in0.0 mm 0.00 in0.0 mm 0.00 in0.0 mm
03:01 PM 70.9°F21.6°C 48.5°F9.2°C 45% 4.2 mph NNE6.8 kmh NNE 6.8 mph10.9 kmh 30.13 in1020.3 mb 0.00 in0.0 mm 0.00 in0.0 mm 0.00 in0.0 mm
03:02 PM 71.4°F21.9°C 50.1°F10.1°C 47% 4.7 mph NNW7.6 kmh NNW 7.3 mph11.7 kmh 30.13 in1020.3 mb 0.00 in0.0 mm 0.00 in0.0 mm 0.00 in0.0 mm
03:03 PM 71.1°F21.7°C 49.8°F9.9°C 47% 4.2 mph WNW6.8 kmh WNW 7.3 mph11.7 kmh 30.13 in1020.3 mb 0.00 in0.0 mm 0.00 in0.0 mm 0.00 in0.0 mm
03:04 PM 70.9°F21.6°C 50.8°F10.4°C 49% 5.3 mph NNW8.5 kmh NNW 7.3 mph11.7 kmh 30.13 in1020.3 mb 0.00 in0.0 mm 0.00 in0.0 mm 0.00 in0.0 mm
03:05 PM 71.1°F21.7°C 49.8°F9.9°C 47% 5.3 mph WSW8.5 kmh WSW 8.3 mph13.4 kmh 30.13 in1020.3 mb 0.00 in0.0 mm 0.00 in0.0 mm 0.00 in0.0 mm
03:06 PM 70.9°F21.6°C 49.7°F9.8°C 47% 2.7 mph NE4.3 kmh NE 8.3 mph13.4 kmh 30.13 in1020.3 mb 0.00 in0.0 mm 0.00 in0.0 mm 0.00 in0.0 mm
03:07 PM 71.2°F21.8°C 49.3°F9.6°C 46% 2.7 mph S4.3 kmh S 8.3 mph13.4 kmh 30.13 in1020.3 mb 0.00 in0.0 mm 0.00 in0.0 mm 0.00 in0.0 mm
03:08 PM 71.4°F21.9°C 49.5°F9.7°C 46% 1.1 mph ENE1.8 kmh ENE 8.3 mph13.4 kmh 30.13 in1020.3 mb 0.00 in0.0 mm 0.00 in0.0 mm 0.00 in0.0 mm
03:09 PM 71.4°F21.9°C 50.1°F10.1°C 47% 5.8 mph N9.3 kmh N 8.3 mph13.4 kmh 30.13 in1020.3 mb 0.00 in0.0 mm 0.00 in0.0 mm 0.00 in0.0 mm
03:10 PM 71.2°F21.8°C 50.5°F10.3°C 48% 3.2 mph W5.1 kmh W 8.3 mph13.4 kmh 30.13 in1020.3 mb 0.00 in0.0 mm 0.00 in0.0 mm 0.00 in0.0 mm
03:11 PM 71.4°F21.9°C 50.7°F10.4°C 48% 2.2 mph SW3.5 kmh SW 8.3 mph13.4 kmh 30.13 in1020.3 mb 0.00 in0.0 mm 0.00 in0.0 mm 0.00 in0.0 mm
03:12 PM 71.6°F22.0°C 50.9°F10.5°C 48% 4.2 mph E6.8 kmh E 8.3 mph13.4 kmh 30.13 in1020.3 mb 0.00 in0.0 mm 0.00 in0.0 mm 0.00 in0.0 mm
03:13 PM 71.6°F22.0°C 50.9°F10.5°C 48% 2.7 mph NE4.3 kmh NE 8.3 mph13.4 kmh 30.13 in1020.3 mb 0.00 in0.0 mm 0.00 in0.0 mm 0.00 in0.0 mm
03:14 PM 71.4°F21.9°C 50.7°F10.4°C 48% 3.2 mph WSW5.1 kmh WSW 8.3 mph13.4 kmh 30.13 in1020.3 mb 0.00 in0.0 mm 0.00 in0.0 mm 0.00 in0.0 mm
03:15 PM 71.6°F22.0°C 50.9°F10.5°C 48% 6.3 mph NE10.1 kmh NE 6.3 mph10.1 kmh 30.13 in1020.3 mb 0.00 in0.0 mm 0.00 in0.0 mm 0.00 in0.0 mm
03:16 PM 71.6°F22.0°C 50.9°F10.5°C 48% 4.2 mph SW6.8 kmh SW 6.8 mph10.9 kmh 30.13 in1020.3 mb 0.00 in0.0 mm 0.00 in0.0 mm 0.00 in0.0 mm
03:17 PM 71.6°F22.0°C 50.9°F10.5°C 48% 3.2 mph NNW5.1 kmh NNW 6.8 mph10.9 kmh 30.13 in1020.3 mb 0.00 in0.0 mm 0.00 in0.0 mm 0.00 in0.0 mm
03:18 PM 71.6°F22.0°C 50.3°F10.2°C 47% 4.7 mph NNE7.6 kmh NNE 6.8 mph10.9 kmh 30.13 in1020.3 mb 0.00 in0.0 mm 0.00 in0.0 mm 0.00 in0.0 mm
03:19 PM 71.4°F21.9°C 50.7°F10.4°C 48% 4.7 mph N7.6 kmh N 6.8 mph10.9 kmh 30.12 in1020.0 mb 0.00 in0.0 mm 0.00 in0.0 mm 0.00 in0.0 mm
03:20 PM 71.8°F22.1°C 51.6°F10.9°C 49% 4.7 mph ESE7.6 kmh ESE 6.8 mph10.9 kmh 30.12 in1020.0 mb 0.00 in0.0 mm 0.00 in0.0 mm 0.00 in0.0 mm
03:21 PM 72.0°F22.2°C 51.2°F10.7°C 48% 6.8 mph WNW10.9 kmh WNW 6.8 mph10.9 kmh 30.12 in1020.0 mb 0.00 in0.0 mm 0.00 in0.0 mm 0.00 in0.0 mm
03:22 PM 71.6°F22.0°C 51.4°F10.8°C 49% 4.2 mph NW6.8 kmh NW 6.8 mph10.9 kmh 30.12 in1020.0 mb 0.00 in0.0 mm 0.00 in0.0 mm 0.00 in0.0 mm
03:23 PM 71.4°F21.9°C 51.2°F10.7°C 49% 5.8 mph NNW9.3 kmh NNW 6.8 mph10.9 kmh 30.12 in1020.0 mb 0.00 in0.0 mm 0.00 in0.0 mm 0.00 in0.0 mm
03:24 PM 71.2°F21.8°C 51.0°F10.6°C 49% 4.2 mph NNW6.8 kmh NNW 6.8 mph10.9 kmh 30.12 in1020.0 mb 0.00 in0.0 mm 0.00 in0.0 mm 0.00 in0.0 mm
03:25 PM 71.1°F21.7°C 51.0°F10.6°C 49% 3.7 mph NNE6.0 kmh NNE 6.8 mph10.9 kmh 30.12 in1020.0 mb 0.00 in0.0 mm 0.00 in0.0 mm 0.00 in0.0 mm
03:26 PM 70.5°F21.4°C 50.4°F10.2°C 49% 2.7 mph WNW4.3 kmh WNW 6.8 mph10.9 kmh 30.12 in1020.0 mb 0.00 in0.0 mm 0.00 in0.0 mm 0.00 in0.0 mm
03:27 PM 70.5°F21.4°C 51.0°F10.6°C 50% 6.3 mph WNW10.1 kmh WNW 6.8 mph10.9 kmh 30.12 in1020.0 mb 0.00 in0.0 mm 0.00 in0.0 mm 0.00 in0.0 mm
03:28 PM 70.7°F21.5°C 51.1°F10.6°C 50% 2.7 mph NNW4.3 kmh NNW 6.8 mph10.9 kmh 30.12 in1020.0 mb 0.00 in0.0 mm 0.00 in0.0 mm 0.00 in0.0 mm
03:29 PM 70.9°F21.6°C 51.3°F10.7°C 50% 2.2 mph WNW3.5 kmh WNW 6.8 mph10.9 kmh 30.12 in1020.0 mb 0.00 in0.0 mm 0.00 in0.0 mm 0.00 in0.0 mm
03:30 PM 70.9°F21.6°C 51.3°F10.7°C 50% 3.2 mph WNW5.1 kmh WNW 6.8 mph10.9 kmh 30.12 in1020.0 mb 0.00 in0.0 mm 0.00 in0.0 mm 0.00 in0.0 mm
03:31 PM 70.9°F21.6°C 50.8°F10.4°C 49% 5.8 mph NNE9.3 kmh NNE 6.8 mph10.9 kmh 30.12 in1020.0 mb 0.00 in0.0 mm 0.00 in0.0 mm 0.00 in0.0 mm
03:32 PM 70.5°F21.4°C 50.4°F10.2°C 49% 5.3 mph NE8.5 kmh NE 6.8 mph10.9 kmh 30.13 in1020.3 mb 0.00 in0.0 mm 0.00 in0.0 mm 0.00 in0.0 mm
03:33 PM 70.0°F21.1°C 50.5°F10.3°C 50% 5.3 mph N8.5 kmh N 6.8 mph10.9 kmh 30.13 in1020.3 mb 0.00 in0.0 mm 0.00 in0.0 mm 0.00 in0.0 mm
03:34 PM 70.3°F21.3°C 50.8°F10.4°C 50% 4.2 mph N6.8 kmh N 6.8 mph10.9 kmh 30.13 in1020.3 mb 0.00 in0.0 mm 0.00 in0.0 mm 0.00 in0.0 mm
03:35 PM 70.7°F21.5°C 51.1°F10.6°C 50% 1.7 mph SE2.7 kmh SE 6.8 mph10.9 kmh 30.13 in1020.3 mb 0.00 in0.0 mm 0.00 in0.0 mm 0.00 in0.0 mm
03:36 PM 70.9°F21.6°C 51.3°F10.7°C 50% 4.2 mph ESE6.8 kmh ESE 6.8 mph10.9 kmh 30.13 in1020.3 mb 0.00 in0.0 mm 0.00 in0.0 mm 0.00 in0.0 mm
03:37 PM 71.1°F21.7°C 50.4°F10.2°C 48% 3.2 mph SSW5.1 kmh SSW 6.8 mph10.9 kmh 30.13 in1020.3 mb 0.00 in0.0 mm 0.00 in0.0 mm 0.00 in0.0 mm
03:38 PM 70.9°F21.6°C 51.9°F11.1°C 51% 4.2 mph NNW6.8 kmh NNW 6.8 mph10.9 kmh 30.13 in1020.3 mb 0.00 in0.0 mm 0.00 in0.0 mm 0.00 in0.0 mm
03:39 PM 70.7°F21.5°C 51.1°F10.6°C 50% 3.2 mph NW5.1 kmh NW 6.8 mph10.9 kmh 30.13 in1020.3 mb 0.00 in0.0 mm 0.00 in0.0 mm 0.00 in0.0 mm
03:40 PM 70.9°F21.6°C 51.9°F11.1°C 51% 4.2 mph NW6.8 kmh NW 6.3 mph10.1 kmh 30.13 in1020.3 mb 0.00 in0.0 mm 0.00 in0.0 mm 0.00 in0.0 mm
03:41 PM 70.7°F21.5°C 51.1°F10.6°C 50% 3.2 mph SSW5.1 kmh SSW 6.3 mph10.1 kmh 30.13 in1020.3 mb 0.00 in0.0 mm 0.00 in0.0 mm 0.00 in0.0 mm
03:42 PM 70.9°F21.6°C 51.3°F10.7°C 50% 7.8 mph NW12.6 kmh NW 8.3 mph13.4 kmh 30.13 in1020.3 mb 0.00 in0.0 mm 0.00 in0.0 mm 0.00 in0.0 mm
03:43 PM 71.1°F21.7°C 51.5°F10.8°C 50% 5.8 mph WNW9.3 kmh WNW 8.3 mph13.4 kmh 30.13 in1020.3 mb 0.00 in0.0 mm 0.00 in0.0 mm 0.00 in0.0 mm
03:44 PM 71.1°F21.7°C 51.5°F10.8°C 50% 4.7 mph W7.6 kmh W 8.3 mph13.4 kmh 30.12 in1020.0 mb 0.00 in0.0 mm 0.00 in0.0 mm 0.00 in0.0 mm
03:45 PM 70.9°F21.6°C 51.3°F10.7°C 50% 2.7 mph N4.3 kmh N 8.3 mph13.4 kmh 30.12 in1020.0 mb 0.00 in0.0 mm 0.00 in0.0 mm 0.00 in0.0 mm
03:46 PM 70.5°F21.4°C 51.0°F10.6°C 50% 6.8 mph NE10.9 kmh NE 8.3 mph13.4 kmh 30.12 in1020.0 mb 0.00 in0.0 mm 0.00 in0.0 mm 0.00 in0.0 mm
03:47 PM 70.5°F21.4°C 50.4°F10.2°C 49% 3.7 mph NW6.0 kmh NW 8.3 mph13.4 kmh 30.12 in1020.0 mb 0.00 in0.0 mm 0.00 in0.0 mm 0.00 in0.0 mm
03:48 PM 70.5°F21.4°C 50.4°F10.2°C 49% 5.3 mph NE8.5 kmh NE 8.9 mph14.3 kmh 30.12 in1020.0 mb 0.00 in0.0 mm 0.00 in0.0 mm 0.00 in0.0 mm
03:49 PM 70.7°F21.5°C 50.6°F10.3°C 49% 5.8 mph NNW9.3 kmh NNW 8.9 mph14.3 kmh 30.12 in1020.0 mb 0.00 in0.0 mm 0.00 in0.0 mm 0.00 in0.0 mm
03:50 PM 70.3°F21.3°C 50.2°F10.1°C 49% 5.3 mph NW8.5 kmh NW 8.9 mph14.3 kmh 30.12 in1020.0 mb 0.00 in0.0 mm 0.00 in0.0 mm 0.00 in0.0 mm
03:51 PM 70.5°F21.4°C 50.4°F10.2°C 49% 3.7 mph NNW6.0 kmh NNW 8.9 mph14.3 kmh 30.12 in1020.0 mb 0.00 in0.0 mm 0.00 in0.0 mm 0.00 in0.0 mm
03:52 PM 70.5°F21.4°C 51.5°F10.8°C 51% 5.3 mph NW8.5 kmh NW 8.9 mph14.3 kmh 30.12 in1020.0 mb 0.00 in0.0 mm 0.00 in0.0 mm 0.00 in0.0 mm
03:53 PM 70.7°F21.5°C 51.7°F10.9°C 51% 4.7 mph NNW7.6 kmh NNW 8.9 mph14.3 kmh 30.12 in1020.0 mb 0.00 in0.0 mm 0.00 in0.0 mm 0.00 in0.0 mm
03:54 PM 70.9°F21.6°C 51.9°F11.1°C 51% 5.3 mph NNW8.5 kmh NNW 8.9 mph14.3 kmh 30.12 in1020.0 mb 0.00 in0.0 mm 0.00 in0.0 mm 0.00 in0.0 mm
03:55 PM 70.9°F21.6°C 51.9°F11.1°C 51% 3.7 mph ENE6.0 kmh ENE 8.9 mph14.3 kmh 30.11 in1019.6 mb 0.00 in0.0 mm 0.00 in0.0 mm 0.00 in0.0 mm
03:56 PM 71.1°F21.7°C 52.0°F11.1°C 51% 3.7 mph ESE6.0 kmh ESE 8.9 mph14.3 kmh 30.11 in1019.6 mb 0.00 in0.0 mm 0.00 in0.0 mm 0.00 in0.0 mm
03:57 PM 70.9°F21.6°C 51.9°F11.1°C 51% 4.2 mph NE6.8 kmh NE 8.9 mph14.3 kmh 30.11 in1019.6 mb 0.00 in0.0 mm 0.00 in0.0 mm 0.00 in0.0 mm
03:58 PM 71.1°F21.7°C 51.5°F10.8°C 50% 4.7 mph NE7.6 kmh NE 8.3 mph13.4 kmh 30.11 in1019.6 mb 0.00 in0.0 mm 0.00 in0.0 mm 0.00 in0.0 mm
03:59 PM 71.1°F21.7°C 51.5°F10.8°C 50% 5.3 mph NE8.5 kmh NE 8.3 mph13.4 kmh 30.11 in1019.6 mb 0.00 in0.0 mm 0.00 in0.0 mm 0.00 in0.0 mm
04:00 PM 71.1°F21.7°C 51.5°F10.8°C 50% 4.2 mph ESE6.8 kmh ESE 8.3 mph13.4 kmh 30.11 in1019.6 mb 0.00 in0.0 mm 0.00 in0.0 mm 0.00 in0.0 mm
04:01 PM 71.1°F21.7°C 51.5°F10.8°C 50% 2.7 mph N4.3 kmh N 8.3 mph13.4 kmh 30.11 in1019.6 mb 0.00 in0.0 mm 0.00 in0.0 mm 0.00 in0.0 mm
04:02 PM 71.6°F22.0°C 52.5°F11.4°C 51% 4.2 mph WNW6.8 kmh WNW 8.3 mph13.4 kmh 30.11 in1019.6 mb 0.00 in0.0 mm 0.00 in0.0 mm 0.00 in0.0 mm
04:03 PM 71.4°F21.9°C 51.8°F11.0°C 50% 4.2 mph WNW6.8 kmh WNW 8.3 mph13.4 kmh 30.11 in1019.6 mb 0.00 in0.0 mm 0.00 in0.0 mm 0.00 in0.0 mm
04:04 PM 71.6°F22.0°C 52.0°F11.1°C 50% 2.7 mph NW4.3 kmh NW 8.3 mph13.4 kmh 30.11 in1019.6 mb 0.00 in0.0 mm 0.00 in0.0 mm 0.00 in0.0 mm
04:05 PM 71.8°F22.1°C 52.1°F11.2°C 50% 2.2 mph SSE3.5 kmh SSE 8.3 mph13.4 kmh 30.11 in1019.6 mb 0.00 in0.0 mm 0.00 in0.0 mm 0.00 in0.0 mm
04:06 PM 71.8°F22.1°C 52.7°F11.5°C 51% 4.2 mph ENE6.8 kmh ENE 8.3 mph13.4 kmh 30.11 in1019.6 mb 0.00 in0.0 mm 0.00 in0.0 mm 0.00 in0.0 mm
04:07 PM 71.8°F22.1°C 52.1°F11.2°C 50% 5.8 mph NW9.3 kmh NW 8.3 mph13.4 kmh 30.11 in1019.6 mb 0.00 in0.0 mm 0.00 in0.0 mm 0.00 in0.0 mm
04:08 PM 71.6°F22.0°C 52.0°F11.1°C 50% 6.8 mph NNE10.9 kmh NNE 6.8 mph10.9 kmh 30.11 in1019.6 mb 0.00 in0.0 mm 0.00 in0.0 mm 0.00 in0.0 mm
04:09 PM 71.2°F21.8°C 51.6°F10.9°C 50% 6.8 mph WNW10.9 kmh WNW 6.8 mph10.9 kmh 30.11 in1019.6 mb 0.00 in0.0 mm 0.00 in0.0 mm 0.00 in0.0 mm
04:10 PM 70.7°F21.5°C 51.1°F10.6°C 50% 2.7 mph NNW4.3 kmh NNW 6.8 mph10.9 kmh 30.11 in1019.6 mb 0.00 in0.0 mm 0.00 in0.0 mm 0.00 in0.0 mm
04:11 PM 70.9°F21.6°C 51.3°F10.7°C 50% 1.7 mph W2.7 kmh W 6.8 mph10.9 kmh 30.11 in1019.6 mb 0.00 in0.0 mm 0.00 in0.0 mm 0.00 in0.0 mm
04:12 PM 70.7°F21.5°C 51.1°F10.6°C 50% 3.7 mph NNE6.0 kmh NNE 6.8 mph10.9 kmh 30.11 in1019.6 mb 0.00 in0.0 mm 0.00 in0.0 mm 0.00 in0.0 mm
04:13 PM 70.3°F21.3°C 50.8°F10.4°C 50% 3.7 mph ESE6.0 kmh ESE 6.8 mph10.9 kmh 30.11 in1019.6 mb 0.00 in0.0 mm 0.00 in0.0 mm 0.00 in0.0 mm
04:14 PM 70.7°F21.5°C 51.7°F10.9°C 51% 1.1 mph SE1.8 kmh SE 6.8 mph10.9 kmh 30.11 in1019.6 mb 0.00 in0.0 mm 0.00 in0.0 mm 0.00 in0.0 mm
04:15 PM 71.1°F21.7°C 52.0°F11.1°C 51% 3.7 mph NW6.0 kmh NW 6.8 mph10.9 kmh 30.11 in1019.6 mb 0.00 in0.0 mm 0.00 in0.0 mm 0.00 in0.0 mm
04:16 PM 71.8°F22.1°C 52.1°F11.2°C 50% Calm Calm 6.8 mph10.9 kmh 30.11 in1019.6 mb 0.00 in0.0 mm 0.00 in0.0 mm 0.00 in0.0 mm
04:17 PM 71.6°F22.0°C 51.4°F10.8°C 49% Calm Calm 6.8 mph10.9 kmh 30.11 in1019.6 mb 0.00 in0.0 mm 0.00 in0.0 mm 0.00 in0.0 mm
04:18 PM 70.9°F21.6°C 50.8°F10.4°C 49% 1.1 mph ESE1.8 kmh ESE 6.8 mph10.9 kmh 30.11 in1019.6 mb 0.00 in0.0 mm 0.00 in0.0 mm 0.00 in0.0 mm
04:19 PM 70.7°F21.5°C 51.7°F10.9°C 51% Calm Calm 6.8 mph10.9 kmh 30.11 in1019.6 mb 0.00 in0.0 mm 0.00 in0.0 mm 0.00 in0.0 mm
04:20 PM 71.1°F21.7°C 51.5°F10.8°C 50% Calm Calm 4.7 mph7.6 kmh 30.11 in1019.6 mb 0.00 in0.0 mm 0.00 in0.0 mm 0.00 in0.0 mm
04:21 PM 71.8°F22.1°C 52.1°F11.2°C 50% Calm Calm 4.7 mph7.6 kmh 30.11 in1019.6 mb 0.00 in0.0 mm 0.00 in0.0 mm 0.00 in0.0 mm
04:22 PM 72.1°F22.3°C 51.3°F10.7°C 48% Calm Calm 3.7 mph6.0 kmh 30.11 in1019.6 mb 0.00 in0.0 mm 0.00 in0.0 mm 0.00 in0.0 mm
04:23 PM 72.0°F22.2°C 51.2°F10.7°C 48% 1.7 mph NNE2.7 kmh NNE 3.7 mph6.0 kmh 30.11 in1019.6 mb 0.00 in0.0 mm 0.00 in0.0 mm 0.00 in0.0 mm
04:24 PM 71.6°F22.0°C 50.9°F10.5°C 48% 4.2 mph WNW6.8 kmh WNW 4.2 mph6.8 kmh 30.11 in1019.6 mb 0.00 in0.0 mm 0.00 in0.0 mm 0.00 in0.0 mm
04:25 PM 71.4°F21.9°C 51.2°F10.7°C 49% 1.1 mph W1.8 kmh W 5.3 mph8.5 kmh 30.11 in1019.6 mb 0.00 in0.0 mm 0.00 in0.0 mm 0.00 in0.0 mm
04:26 PM 71.1°F21.7°C 51.5°F10.8°C 50% 2.2 mph NNE3.5 kmh NNE 5.3 mph8.5 kmh 30.11 in1019.6 mb 0.00 in0.0 mm 0.00 in0.0 mm 0.00 in0.0 mm
04:27 PM 70.9°F21.6°C 51.3°F10.7°C 50% 1.1 mph NE1.8 kmh NE 5.3 mph8.5 kmh 30.11 in1019.6 mb 0.00 in0.0 mm 0.00 in0.0 mm 0.00 in0.0 mm
04:28 PM 70.9°F21.6°C 50.8°F10.4°C 49% Calm Calm 5.3 mph8.5 kmh 30.11 in1019.6 mb 0.00 in0.0 mm 0.00 in0.0 mm 0.00 in0.0 mm
04:29 PM 70.9°F21.6°C 50.8°F10.4°C 49% 3.7 mph N6.0 kmh N 5.3 mph8.5 kmh 30.11 in1019.6 mb 0.00 in0.0 mm 0.00 in0.0 mm 0.00 in0.0 mm
04:30 PM 70.3°F21.3°C 50.8°F10.4°C 50% 1.7 mph N2.7 kmh N 5.3 mph8.5 kmh 30.11 in1019.6 mb 0.00 in0.0 mm 0.00 in0.0 mm 0.00 in0.0 mm
04:31 PM 70.5°F21.4°C 51.0°F10.6°C 50% 1.1 mph NE1.8 kmh NE 5.3 mph8.5 kmh 30.11 in1019.6 mb 0.00 in0.0 mm 0.00 in0.0 mm 0.00 in0.0 mm
04:32 PM 70.9°F21.6°C 51.3°F10.7°C 50% Calm Calm 5.3 mph8.5 kmh 30.11 in1019.6 mb 0.00 in0.0 mm 0.00 in0.0 mm 0.00 in0.0 mm
04:33 PM 70.5°F21.4°C 51.0°F10.6°C 50% Calm Calm 5.3 mph8.5 kmh 30.11 in1019.6 mb 0.00 in0.0 mm 0.00 in0.0 mm 0.00 in0.0 mm
04:34 PM 70.5°F21.4°C 51.0°F10.6°C 50% 7.8 mph NNW12.6 kmh NNW 7.8 mph12.6 kmh 30.11 in1019.6 mb 0.00 in0.0 mm 0.00 in0.0 mm 0.00 in0.0 mm
04:35 PM 70.5°F21.4°C 51.0°F10.6°C 50% Calm Calm 7.8 mph12.6 kmh 30.11 in1019.6 mb 0.00 in0.0 mm 0.00 in0.0 mm 0.00 in0.0 mm
04:36 PM 71.1°F21.7°C 51.5°F10.8°C 50% 3.2 mph NW5.1 kmh NW 7.8 mph12.6 kmh 30.11 in1019.6 mb 0.00 in0.0 mm 0.00 in0.0 mm 0.00 in0.0 mm
04:37 PM 71.1°F21.7°C 51.5°F10.8°C 50% Calm Calm 7.8 mph12.6 kmh 30.11 in1019.6 mb 0.00 in0.0 mm 0.00 in0.0 mm 0.00 in0.0 mm
04:38 PM 70.7°F21.5°C 51.7°F10.9°C 51% Calm Calm 7.8 mph12.6 kmh 30.11 in1019.6 mb 0.00 in0.0 mm 0.00 in0.0 mm 0.00 in0.0 mm
04:39 PM 71.1°F21.7°C 51.5°F10.8°C 50% 3.7 mph SW6.0 kmh SW 7.8 mph12.6 kmh 30.11 in1019.6 mb 0.00 in0.0 mm 0.00 in0.0 mm 0.00 in0.0 mm
04:40 PM 71.1°F21.7°C 51.5°F10.8°C 50% 3.7 mph NNE6.0 kmh NNE 7.8 mph12.6 kmh 30.11 in1019.6 mb 0.00 in0.0 mm 0.00 in0.0 mm 0.00 in0.0 mm
04:41 PM 71.1°F21.7°C 51.5°F10.8°C 50% 2.7 mph NNE4.3 kmh NNE 7.8 mph12.6 kmh 30.11 in1019.6 mb 0.00 in0.0 mm 0.00 in0.0 mm 0.00 in0.0 mm
04:42 PM 71.2°F21.8°C 52.1°F11.2°C 51% 3.7 mph NNE6.0 kmh NNE 7.8 mph12.6 kmh 30.11 in1019.6 mb 0.00 in0.0 mm 0.00 in0.0 mm 0.00 in0.0 mm
04:43 PM 71.2°F21.8°C 51.6°F10.9°C 50% 10.4 mph E16.7 kmh E 10.4 mph16.7 kmh 30.11 in1019.6 mb 0.00 in0.0 mm 0.00 in0.0 mm 0.00 in0.0 mm
04:44 PM 70.9°F21.6°C 51.9°F11.1°C 51% 2.7 mph ENE4.3 kmh ENE 10.4 mph16.7 kmh 30.11 in1019.6 mb 0.00 in0.0 mm 0.00 in0.0 mm 0.00 in0.0 mm
04:45 PM 71.1°F21.7°C 52.0°F11.1°C 51% 2.7 mph SE4.3 kmh SE 10.4 mph16.7 kmh 30.11 in1019.6 mb 0.00 in0.0 mm 0.00 in0.0 mm 0.00 in0.0 mm
04:46 PM 70.9°F21.6°C 51.3°F10.7°C 50% 2.7 mph ESE4.3 kmh ESE 10.4 mph16.7 kmh 30.11 in1019.6 mb 0.00 in0.0 mm 0.00 in0.0 mm 0.00 in0.0 mm
04:47 PM 70.9°F21.6°C 51.3°F10.7°C 50% 3.7 mph NE6.0 kmh NE 10.4 mph16.7 kmh 30.11 in1019.6 mb 0.00 in0.0 mm 0.00 in0.0 mm 0.00 in0.0 mm
04:48 PM 71.1°F21.7°C 51.5°F10.8°C 50% 5.3 mph WNW8.5 kmh WNW 10.4 mph16.7 kmh 30.11 in1019.6 mb 0.00 in0.0 mm 0.00 in0.0 mm 0.00 in0.0 mm
04:49 PM 70.7°F21.5°C 51.7°F10.9°C 51% 4.2 mph N6.8 kmh N 10.4 mph16.7 kmh 30.11 in1019.6 mb 0.00 in0.0 mm 0.00 in0.0 mm 0.00 in0.0 mm
04:50 PM 70.5°F21.4°C 51.5°F10.8°C 51% 4.2 mph W6.8 kmh W 10.4 mph16.7 kmh 30.11 in1019.6 mb 0.00 in0.0 mm 0.00 in0.0 mm 0.00 in0.0 mm
04:51 PM 69.4°F20.8°C 51.0°F10.6°C 52% 2.2 mph WSW3.5 kmh WSW 10.4 mph16.7 kmh 30.11 in1019.6 mb 0.00 in0.0 mm 0.00 in0.0 mm 0.00 in0.0 mm
04:52 PM 69.1°F20.6°C 51.2°F10.7°C 53% 4.2 mph ESE6.8 kmh ESE 10.4 mph16.7 kmh 30.11 in1019.6 mb 0.00 in0.0 mm 0.00 in0.0 mm 0.00 in0.0 mm
04:53 PM 69.8°F21.0°C 51.9°F11.1°C 53% Calm Calm 6.8 mph10.9 kmh 30.11 in1019.6 mb 0.00 in0.0 mm 0.00 in0.0 mm 0.00 in0.0 mm
04:54 PM 70.5°F21.4°C 52.0°F11.1°C 52% Calm Calm 6.8 mph10.9 kmh 30.11 in1019.6 mb 0.00 in0.0 mm 0.00 in0.0 mm 0.00 in0.0 mm
04:55 PM 70.7°F21.5°C 52.2°F11.2°C 52% 1.1 mph NNE1.8 kmh NNE 6.8 mph10.9 kmh 30.11 in1019.6 mb 0.00 in0.0 mm 0.00 in0.0 mm 0.00 in0.0 mm
04:56 PM 70.9°F21.6°C 51.9°F11.1°C 51% Calm Calm 6.8 mph10.9 kmh 30.11 in1019.6 mb 0.00 in0.0 mm 0.00 in0.0 mm 0.00 in0.0 mm
04:57 PM 70.9°F21.6°C 52.4°F11.3°C 52% Calm Calm 6.8 mph10.9 kmh 30.11 in1019.6 mb 0.00 in0.0 mm 0.00 in0.0 mm 0.00 in0.0 mm
04:58 PM 70.7°F21.5°C 52.2°F11.2°C 52% 5.3 mph ESE8.5 kmh ESE 6.8 mph10.9 kmh 30.11 in1019.6 mb 0.00 in0.0 mm 0.00 in0.0 mm 0.00 in0.0 mm
04:59 PM 71.2°F21.8°C 52.1°F11.2°C 51% 1.1 mph NNW1.8 kmh NNW 6.8 mph10.9 kmh 30.11 in1019.6 mb 0.00 in0.0 mm 0.00 in0.0 mm 0.00 in0.0 mm
05:00 PM 71.6°F22.0°C 52.0°F11.1°C 50% 2.7 mph W4.3 kmh W 5.3 mph8.5 kmh 30.11 in1019.6 mb 0.00 in0.0 mm 0.00 in0.0 mm 0.00 in0.0 mm
05:01 PM 71.4°F21.9°C 51.8°F11.0°C 50% 6.8 mph W10.9 kmh W 6.8 mph10.9 kmh 30.11 in1019.6 mb 0.00 in0.0 mm 0.00 in0.0 mm 0.00 in0.0 mm
05:02 PM 71.4°F21.9°C 51.8°F11.0°C 50% Calm Calm 6.8 mph10.9 kmh 30.11 in1019.6 mb 0.00 in0.0 mm 0.00 in0.0 mm 0.00 in0.0 mm
05:03 PM 71.4°F21.9°C 51.8°F11.0°C 50% Calm Calm 6.8 mph10.9 kmh 30.11 in1019.6 mb 0.00 in0.0 mm 0.00 in0.0 mm 0.00 in0.0 mm
05:04 PM 71.4°F21.9°C 51.8°F11.0°C 50% Calm Calm 6.8 mph10.9 kmh 30.11 in1019.6 mb 0.00 in0.0 mm 0.00 in0.0 mm 0.00 in0.0 mm
05:05 PM 70.5°F21.4°C 50.4°F10.2°C 49% 3.7 mph WNW6.0 kmh WNW 6.8 mph10.9 kmh 30.11 in1019.6 mb 0.00 in0.0 mm 0.00 in0.0 mm 0.00 in0.0 mm
05:06 PM 70.7°F21.5°C 51.1°F10.6°C 50% 1.1 mph SSE1.8 kmh SSE 6.8 mph10.9 kmh 30.11 in1019.6 mb 0.00 in0.0 mm 0.00 in0.0 mm 0.00 in0.0 mm
05:07 PM 70.9°F21.6°C 51.9°F11.1°C 51% 2.7 mph NE4.3 kmh NE 6.8 mph10.9 kmh 30.11 in1019.6 mb 0.00 in0.0 mm 0.00 in0.0 mm 0.00 in0.0 mm
05:08 PM 70.7°F21.5°C 51.1°F10.6°C 50% 3.7 mph W6.0 kmh W 6.8 mph10.9 kmh 30.11 in1019.6 mb 0.00 in0.0 mm 0.00 in0.0 mm 0.00 in0.0 mm
05:09 PM 70.2°F21.2°C 50.7°F10.4°C 50% 3.7 mph NNW6.0 kmh NNW 6.8 mph10.9 kmh 30.11 in1019.6 mb 0.00 in0.0 mm 0.00 in0.0 mm 0.00 in0.0 mm
05:10 PM 69.8°F21.0°C 50.3°F10.2°C 50% 2.7 mph W4.3 kmh W 5.3 mph8.5 kmh 30.11 in1019.6 mb 0.00 in0.0 mm 0.00 in0.0 mm 0.00 in0.0 mm
05:11 PM 69.3°F20.7°C 50.9°F10.5°C 52% 1.1 mph N1.8 kmh N 5.3 mph8.5 kmh 30.11 in1019.6 mb 0.00 in0.0 mm 0.00 in0.0 mm 0.00 in0.0 mm
05:12 PM 69.3°F20.7°C 50.9°F10.5°C 52% 1.1 mph W1.8 kmh W 5.3 mph8.5 kmh 30.11 in1019.6 mb 0.00 in0.0 mm 0.00 in0.0 mm 0.00 in0.0 mm
05:13 PM 69.3°F20.7°C 51.4°F10.8°C 53% 2.2 mph NNW3.5 kmh NNW 5.3 mph8.5 kmh 30.11 in1019.6 mb 0.00 in0.0 mm 0.00 in0.0 mm 0.00 in0.0 mm
05:14 PM 69.8°F21.0°C 51.4°F10.8°C 52% 6.3 mph N10.1 kmh N 6.3 mph10.1 kmh 30.11 in1019.6 mb 0.00 in0.0 mm 0.00 in0.0 mm 0.00 in0.0 mm
05:15 PM 70.0°F21.1°C 51.6°F10.9°C 52% 4.7 mph W7.6 kmh W 6.3 mph10.1 kmh 30.11 in1019.6 mb 0.00 in0.0 mm 0.00 in0.0 mm 0.00 in0.0 mm
05:16 PM 69.6°F20.9°C 51.7°F10.9°C 53% 3.2 mph NNW5.1 kmh NNW 6.3 mph10.1 kmh 30.11 in1019.6 mb 0.00 in0.0 mm 0.00 in0.0 mm 0.00 in0.0 mm
05:17 PM 69.6°F20.9°C 51.7°F10.9°C 53% 2.2 mph WNW3.5 kmh WNW 6.3 mph10.1 kmh 30.11 in1019.6 mb 0.00 in0.0 mm 0.00 in0.0 mm 0.00 in0.0 mm
05:18 PM 70.0°F21.1°C 52.1°F11.2°C 53% 2.7 mph NW4.3 kmh NW 6.3 mph10.1 kmh 30.11 in1019.6 mb 0.00 in0.0 mm 0.00 in0.0 mm 0.00 in0.0 mm
05:19 PM 70.7°F21.5°C 52.2°F11.2°C 52% 3.7 mph NNW6.0 kmh NNW 6.3 mph10.1 kmh 30.11 in1019.6 mb 0.00 in0.0 mm 0.00 in0.0 mm 0.00 in0.0 mm
05:20 PM 70.5°F21.4°C 51.5°F10.8°C 51% 5.8 mph NNW9.3 kmh NNW 6.3 mph10.1 kmh 30.11 in1019.6 mb 0.00 in0.0 mm 0.00 in0.0 mm 0.00 in0.0 mm
05:21 PM 70.3°F21.3°C 51.3°F10.7°C 51% 3.7 mph NNW6.0 kmh NNW 6.8 mph10.9 kmh 30.11 in1019.6 mb 0.00 in0.0 mm 0.00 in0.0 mm 0.00 in0.0 mm
05:22 PM 70.3°F21.3°C 51.3°F10.7°C 51% 7.3 mph NNE11.7 kmh NNE 7.3 mph11.7 kmh 30.11 in1019.6 mb 0.00 in0.0 mm 0.00 in0.0 mm 0.00 in0.0 mm
05:23 PM 70.2°F21.2°C 51.2°F10.7°C 51% 5.8 mph NW9.3 kmh NW 7.3 mph11.7 kmh 30.11 in1019.6 mb 0.00 in0.0 mm 0.00 in0.0 mm 0.00 in0.0 mm
05:24 PM 69.8°F21.0°C 50.8°F10.4°C 51% 4.2 mph N6.8 kmh N 7.3 mph11.7 kmh 30.11 in1019.6 mb 0.00 in0.0 mm 0.00 in0.0 mm 0.00 in0.0 mm
05:25 PM 69.8°F21.0°C 50.8°F10.4°C 51% 2.7 mph NE4.3 kmh NE 7.3 mph11.7 kmh 30.11 in1019.6 mb 0.00 in0.0 mm 0.00 in0.0 mm 0.00 in0.0 mm
05:26 PM 70.2°F21.2°C 51.2°F10.7°C 51% 1.7 mph WNW2.7 kmh WNW 7.3 mph11.7 kmh 30.11 in1019.6 mb 0.00 in0.0 mm 0.00 in0.0 mm 0.00 in0.0 mm
05:27 PM 70.2°F21.2°C 51.2°F10.7°C 51% 2.2 mph NNW3.5 kmh NNW 7.3 mph11.7 kmh 30.11 in1019.6 mb 0.00 in0.0 mm 0.00 in0.0 mm 0.00 in0.0 mm
05:28 PM 70.2°F21.2°C 51.7°F10.9°C 52% 2.7 mph WNW4.3 kmh WNW 7.3 mph11.7 kmh 30.11 in1019.6 mb 0.00 in0.0 mm 0.00 in0.0 mm 0.00 in0.0 mm
05:29 PM 69.8°F21.0°C 51.4°F10.8°C 52% 4.2 mph NNW6.8 kmh NNW 7.3 mph11.7 kmh 30.11 in1019.6 mb 0.00 in0.0 mm 0.00 in0.0 mm 0.00 in0.0 mm
05:30 PM 69.4°F20.8°C 51.5°F10.8°C 53% 3.2 mph WNW5.1 kmh WNW 7.3 mph11.7 kmh 30.11 in1019.6 mb 0.00 in0.0 mm 0.00 in0.0 mm 0.00 in0.0 mm
05:31 PM 69.8°F21.0°C 51.4°F10.8°C 52% 2.2 mph W3.5 kmh W 7.3 mph11.7 kmh 30.11 in1019.6 mb 0.00 in0.0 mm 0.00 in0.0 mm 0.00 in0.0 mm
05:32 PM 69.4°F20.8°C 51.5°F10.8°C 53% 1.1 mph S1.8 kmh S 5.8 mph9.3 kmh 30.11 in1019.6 mb 0.00 in0.0 mm 0.00 in0.0 mm 0.00 in0.0 mm
05:33 PM 69.8°F21.0°C 51.9°F11.1°C 53% 2.7 mph NE4.3 kmh NE 4.7 mph7.6 kmh 30.11 in1019.6 mb 0.00 in0.0 mm 0.00 in0.0 mm 0.00 in0.0 mm
05:34 PM 70.2°F21.2°C 51.7°F10.9°C 52% 4.7 mph NW7.6 kmh NW 4.7 mph7.6 kmh 30.11 in1019.6 mb 0.00 in0.0 mm 0.00 in0.0 mm 0.00 in0.0 mm
05:35 PM 70.2°F21.2°C 51.7°F10.9°C 52% 1.1 mph ESE1.8 kmh ESE 4.7 mph7.6 kmh 30.11 in1019.6 mb 0.00 in0.0 mm 0.00 in0.0 mm 0.00 in0.0 mm
05:36 PM 70.0°F21.1°C 51.6°F10.9°C 52% 2.2 mph NNW3.5 kmh NNW 4.7 mph7.6 kmh 30.11 in1019.6 mb 0.00 in0.0 mm 0.00 in0.0 mm 0.00 in0.0 mm
05:37 PM 70.3°F21.3°C 51.8°F11.0°C 52% 5.8 mph NNW9.3 kmh NNW 5.8 mph9.3 kmh 30.11 in1019.6 mb 0.00 in0.0 mm 0.00 in0.0 mm 0.00 in0.0 mm
05:38 PM 70.3°F21.3°C 51.3°F10.7°C 51% 4.7 mph NW7.6 kmh NW 6.3 mph10.1 kmh 30.11 in1019.6 mb 0.00 in0.0 mm 0.00 in0.0 mm 0.00 in0.0 mm
05:39 PM 70.2°F21.2°C 51.2°F10.7°C 51% 4.7 mph NW7.6 kmh NW 6.3 mph10.1 kmh 30.11 in1019.6 mb 0.00 in0.0 mm 0.00 in0.0 mm 0.00 in0.0 mm
05:40 PM 70.0°F21.1°C 51.0°F10.6°C 51% 3.7 mph WNW6.0 kmh WNW 6.3 mph10.1 kmh 30.11 in1019.6 mb 0.00 in0.0 mm 0.00 in0.0 mm 0.00 in0.0 mm
05:41 PM 69.8°F21.0°C 51.4°F10.8°C 52% 4.2 mph N6.8 kmh N 6.3 mph10.1 kmh 30.11 in1019.6 mb 0.00 in0.0 mm 0.00 in0.0 mm 0.00 in0.0 mm
05:42 PM 70.2°F21.2°C 51.2°F10.7°C 51% 2.2 mph WNW3.5 kmh WNW 6.3 mph10.1 kmh 30.11 in1019.6 mb 0.00 in0.0 mm 0.00 in0.0 mm 0.00 in0.0 mm
05:43 PM 69.8°F21.0°C 50.8°F10.4°C 51% 1.1 mph NNW1.8 kmh NNW 6.3 mph10.1 kmh 30.11 in1019.6 mb 0.00 in0.0 mm 0.00 in0.0 mm 0.00 in0.0 mm
05:44 PM 69.6°F20.9°C 50.7°F10.4°C 51% 1.1 mph SW1.8 kmh SW 6.3 mph10.1 kmh 30.11 in1019.6 mb 0.00 in0.0 mm 0.00 in0.0 mm 0.00 in0.0 mm
05:45 PM 69.4°F20.8°C 50.5°F10.3°C 51% 2.2 mph WNW3.5 kmh WNW 6.3 mph10.1 kmh 30.11 in1019.6 mb 0.00 in0.0 mm 0.00 in0.0 mm 0.00 in0.0 mm
05:46 PM 69.8°F21.0°C 50.3°F10.2°C 50% 3.2 mph W5.1 kmh W 6.3 mph10.1 kmh 30.11 in1019.6 mb 0.00 in0.0 mm 0.00 in0.0 mm 0.00 in0.0 mm
05:47 PM 70.2°F21.2°C 50.7°F10.4°C 50% 2.7 mph ESE4.3 kmh ESE 6.3 mph10.1 kmh 30.11 in1019.6 mb 0.00 in0.0 mm 0.00 in0.0 mm 0.00 in0.0 mm
05:48 PM 70.7°F21.5°C 51.1°F10.6°C 50% 1.7 mph SW2.7 kmh SW 4.7 mph7.6 kmh 30.11 in1019.6 mb 0.00 in0.0 mm 0.00 in0.0 mm 0.00 in0.0 mm
05:49 PM 70.9°F21.6°C 50.8°F10.4°C 49% 5.8 mph N9.3 kmh N 5.8 mph9.3 kmh 30.11 in1019.6 mb 0.00 in0.0 mm 0.00 in0.0 mm 0.00 in0.0 mm
05:50 PM 70.9°F21.6°C 50.8°F10.4°C 49% 2.2 mph E3.5 kmh E 5.8 mph9.3 kmh 30.11 in1019.6 mb 0.00 in0.0 mm 0.00 in0.0 mm 0.00 in0.0 mm
05:51 PM 70.7°F21.5°C 50.6°F10.3°C 49% 2.2 mph NNE3.5 kmh NNE 5.8 mph9.3 kmh 30.11 in1019.6 mb 0.00 in0.0 mm 0.00 in0.0 mm 0.00 in0.0 mm
05:52 PM 70.7°F21.5°C 51.1°F10.6°C 50% 1.7 mph S2.7 kmh S 5.8 mph9.3 kmh 30.11 in1019.6 mb 0.00 in0.0 mm 0.00 in0.0 mm 0.00 in0.0 mm
05:53 PM 70.7°F21.5°C 51.1°F10.6°C 50% 2.2 mph ESE3.5 kmh ESE 5.8 mph9.3 kmh 30.11 in1019.6 mb 0.00 in0.0 mm 0.00 in0.0 mm 0.00 in0.0 mm
05:54 PM 70.7°F21.5°C 50.6°F10.3°C 49% 5.3 mph ESE8.5 kmh ESE 5.8 mph9.3 kmh 30.11 in1019.6 mb 0.00 in0.0 mm 0.00 in0.0 mm 0.00 in0.0 mm
05:55 PM 70.9°F21.6°C 50.8°F10.4°C 49% Calm Calm 5.8 mph9.3 kmh 30.11 in1019.6 mb 0.00 in0.0 mm 0.00 in0.0 mm 0.00 in0.0 mm
05:56 PM 70.9°F21.6°C 50.8°F10.4°C 49% Calm Calm 5.8 mph9.3 kmh 30.11 in1019.6 mb 0.00 in0.0 mm 0.00 in0.0 mm 0.00 in0.0 mm
05:57 PM 70.9°F21.6°C 50.2°F10.1°C 48% Calm Calm 5.8 mph9.3 kmh 30.11 in1019.6 mb 0.00 in0.0 mm 0.00 in0.0 mm 0.00 in0.0 mm
05:58 PM 70.7°F21.5°C 50.0°F10.0°C 48% 3.7 mph NNW6.0 kmh NNW 5.8 mph9.3 kmh 30.11 in1019.6 mb 0.00 in0.0 mm 0.00 in0.0 mm 0.00 in0.0 mm
05:59 PM 70.5°F21.4°C 50.4°F10.2°C 49% 2.7 mph WNW4.3 kmh WNW 5.8 mph9.3 kmh 30.11 in1019.6 mb 0.00 in0.0 mm 0.00 in0.0 mm 0.00 in0.0 mm
06:00 PM 70.3°F21.3°C 50.2°F10.1°C 49% 2.7 mph NW4.3 kmh NW 5.3 mph8.5 kmh 30.11 in1019.6 mb 0.00 in0.0 mm 0.00 in0.0 mm 0.00 in0.0 mm
06:01 PM 70.2°F21.2°C 50.1°F10.1°C 49% 2.2 mph WSW3.5 kmh WSW 5.3 mph8.5 kmh 30.11 in1019.6 mb 0.00 in0.0 mm 0.00 in0.0 mm 0.00 in0.0 mm
06:02 PM 70.0°F21.1°C 50.0°F10.0°C 49% 3.2 mph NNE5.1 kmh NNE 5.3 mph8.5 kmh 30.11 in1019.6 mb 0.00 in0.0 mm 0.00 in0.0 mm 0.00 in0.0 mm
06:03 PM 69.6°F20.9°C 50.7°F10.4°C 51% 2.7 mph WNW4.3 kmh WNW 5.3 mph8.5 kmh 30.11 in1019.6 mb 0.00 in0.0 mm 0.00 in0.0 mm 0.00 in0.0 mm
06:04 PM 69.4°F20.8°C 50.5°F10.3°C 51% 2.7 mph NW4.3 kmh NW 5.3 mph8.5 kmh 30.11 in1019.6 mb 0.00 in0.0 mm 0.00 in0.0 mm 0.00 in0.0 mm
06:05 PM 69.4°F20.8°C 50.5°F10.3°C 51% 2.7 mph ENE4.3 kmh ENE 4.7 mph7.6 kmh 30.11 in1019.6 mb 0.00 in0.0 mm 0.00 in0.0 mm 0.00 in0.0 mm
06:06 PM 69.4°F20.8°C 50.5°F10.3°C 51% 4.2 mph NNW6.8 kmh NNW 4.7 mph7.6 kmh 30.11 in1019.6 mb 0.00 in0.0 mm 0.00 in0.0 mm 0.00 in0.0 mm
06:07 PM 69.4°F20.8°C 50.5°F10.3°C 51% 4.7 mph NW7.6 kmh NW 4.7 mph7.6 kmh 30.11 in1019.6 mb 0.00 in0.0 mm 0.00 in0.0 mm 0.00 in0.0 mm
06:08 PM 69.4°F20.8°C 50.5°F10.3°C 51% 3.2 mph E5.1 kmh E 4.7 mph7.6 kmh 30.11 in1019.6 mb 0.00 in0.0 mm 0.00 in0.0 mm 0.00 in0.0 mm
06:09 PM 69.1°F20.6°C 50.2°F10.1°C 51% 2.2 mph NW3.5 kmh NW 4.7 mph7.6 kmh 30.11 in1019.6 mb 0.00 in0.0 mm 0.00 in0.0 mm 0.00 in0.0 mm
06:10 PM 69.1°F20.6°C 50.2°F10.1°C 51% 2.2 mph NE3.5 kmh NE 4.7 mph7.6 kmh 30.11 in1019.6 mb 0.00 in0.0 mm 0.00 in0.0 mm 0.00 in0.0 mm
06:11 PM 68.9°F20.5°C 50.5°F10.3°C 52% 3.7 mph NNW6.0 kmh NNW 4.7 mph7.6 kmh 30.11 in1019.6 mb 0.00 in0.0 mm 0.00 in0.0 mm 0.00 in0.0 mm
06:12 PM 68.7°F20.4°C 50.4°F10.2°C 52% 5.3 mph NNW8.5 kmh NNW 5.3 mph8.5 kmh 30.11 in1019.6 mb 0.00 in0.0 mm 0.00 in0.0 mm 0.00 in0.0 mm
06:13 PM 68.4°F20.2°C 50.1°F10.1°C 52% 4.2 mph NNE6.8 kmh NNE 5.3 mph8.5 kmh 30.11 in1019.6 mb 0.00 in0.0 mm 0.00 in0.0 mm 0.00 in0.0 mm
06:14 PM 68.4°F20.2°C 50.6°F10.3°C 53% 2.2 mph N3.5 kmh N 5.3 mph8.5 kmh 30.11 in1019.6 mb 0.00 in0.0 mm 0.00 in0.0 mm 0.00 in0.0 mm
06:15 PM 68.4°F20.2°C 50.6°F10.3°C 53% 3.2 mph NNW5.1 kmh NNW 5.3 mph8.5 kmh 30.11 in1019.6 mb 0.00 in0.0 mm 0.00 in0.0 mm 0.00 in0.0 mm
06:16 PM 68.4°F20.2°C 50.6°F10.3°C 53% 3.7 mph NNW6.0 kmh NNW 5.3 mph8.5 kmh 30.11 in1019.6 mb 0.00 in0.0 mm 0.00 in0.0 mm 0.00 in0.0 mm
06:17 PM 68.4°F20.2°C 50.6°F10.3°C 53% 3.2 mph N5.1 kmh N 5.3 mph8.5 kmh 30.11 in1019.6 mb 0.00 in0.0 mm 0.00 in0.0 mm 0.00 in0.0 mm
06:18 PM 68.4°F20.2°C 50.6°F10.3°C 53% 2.2 mph NE3.5 kmh NE 5.3 mph8.5 kmh 30.11 in1019.6 mb 0.00 in0.0 mm 0.00 in0.0 mm 0.00 in0.0 mm
06:19 PM 68.5°F20.3°C 50.7°F10.4°C 53% 2.7 mph NW4.3 kmh NW 5.3 mph8.5 kmh 30.11 in1019.6 mb 0.00 in0.0 mm 0.00 in0.0 mm 0.00 in0.0 mm
06:20 PM 68.5°F20.3°C 50.7°F10.4°C 53% 2.7 mph NNE4.3 kmh NNE 5.3 mph8.5 kmh 30.11 in1019.6 mb 0.00 in0.0 mm 0.00 in0.0 mm 0.00 in0.0 mm
06:21 PM 68.5°F20.3°C 50.7°F10.4°C 53% 2.2 mph SW3.5 kmh SW 5.3 mph8.5 kmh 30.11 in1019.6 mb 0.00 in0.0 mm 0.00 in0.0 mm 0.00 in0.0 mm
06:22 PM 68.5°F20.3°C 50.7°F10.4°C 53% 4.7 mph E7.6 kmh E 5.3 mph8.5 kmh 30.11 in1019.6 mb 0.00 in0.0 mm 0.00 in0.0 mm 0.00 in0.0 mm
06:23 PM 68.4°F20.2°C 50.6°F10.3°C 53% 2.2 mph NE3.5 kmh NE 5.3 mph8.5 kmh 30.11 in1019.6 mb 0.00 in0.0 mm 0.00 in0.0 mm 0.00 in0.0 mm
06:24 PM 68.4°F20.2°C 51.1°F10.6°C 54% 2.7 mph NW4.3 kmh NW 5.3 mph8.5 kmh 30.11 in1019.6 mb 0.00 in0.0 mm 0.00 in0.0 mm 0.00 in0.0 mm
06:25 PM 68.4°F20.2°C 51.6°F10.9°C 55% 1.1 mph ENE1.8 kmh ENE 5.3 mph8.5 kmh 30.11 in1019.6 mb 0.00 in0.0 mm 0.00 in0.0 mm 0.00 in0.0 mm
06:26 PM 68.4°F20.2°C 51.1°F10.6°C 54% 3.2 mph WNW5.1 kmh WNW 5.3 mph8.5 kmh 30.11 in1019.6 mb 0.00 in0.0 mm 0.00 in0.0 mm 0.00 in0.0 mm
06:27 PM 68.4°F20.2°C 51.1°F10.6°C 54% 4.2 mph WNW6.8 kmh WNW 5.3 mph8.5 kmh 30.11 in1019.6 mb 0.00 in0.0 mm 0.00 in0.0 mm 0.00 in0.0 mm
06:28 PM 68.2°F20.1°C 50.9°F10.5°C 54% 2.2 mph W3.5 kmh W 5.3 mph8.5 kmh 30.11 in1019.6 mb 0.00 in0.0 mm 0.00 in0.0 mm 0.00 in0.0 mm
06:29 PM 68.0°F20.0°C 50.7°F10.4°C 54% 2.7 mph SW4.3 kmh SW 5.3 mph8.5 kmh 30.11 in1019.6 mb 0.00 in0.0 mm 0.00 in0.0 mm 0.00 in0.0 mm
06:30 PM 68.0°F20.0°C 51.2°F10.7°C 55% 4.7 mph N7.6 kmh N 5.3 mph8.5 kmh 30.11 in1019.6 mb 0.00 in0.0 mm 0.00 in0.0 mm 0.00 in0.0 mm
06:31 PM 68.0°F20.0°C 51.2°F10.7°C 55% 4.7 mph NNW7.6 kmh NNW 5.3 mph8.5 kmh 30.11 in1019.6 mb 0.00 in0.0 mm 0.00 in0.0 mm 0.00 in0.0 mm
06:32 PM 68.0°F20.0°C 50.7°F10.4°C 54% 4.7 mph NW7.6 kmh NW 5.3 mph8.5 kmh 30.11 in1019.6 mb 0.00 in0.0 mm 0.00 in0.0 mm 0.00 in0.0 mm
06:33 PM 67.8°F19.9°C 50.5°F10.3°C 54% 4.2 mph NW6.8 kmh NW 5.3 mph8.5 kmh 30.11 in1019.6 mb 0.00 in0.0 mm 0.00 in0.0 mm 0.00 in0.0 mm
06:34 PM 67.8°F19.9°C 50.5°F10.3°C 54% 3.2 mph ENE5.1 kmh ENE 5.3 mph8.5 kmh 30.11 in1019.6 mb 0.00 in0.0 mm 0.00 in0.0 mm 0.00 in0.0 mm
06:35 PM 67.8°F19.9°C 50.5°F10.3°C 54% 3.2 mph NNW5.1 kmh NNW 5.3 mph8.5 kmh 30.11 in1019.6 mb 0.00 in0.0 mm 0.00 in0.0 mm 0.00 in0.0 mm
06:36 PM 67.8°F19.9°C 50.5°F10.3°C 54% 4.2 mph NNW6.8 kmh NNW 5.3 mph8.5 kmh 30.11 in1019.6 mb 0.00 in0.0 mm 0.00 in0.0 mm 0.00 in0.0 mm
06:37 PM 67.8°F19.9°C 50.5°F10.3°C 54% 3.7 mph N6.0 kmh N 5.3 mph8.5 kmh 30.11 in1019.6 mb 0.00 in0.0 mm 0.00 in0.0 mm 0.00 in0.0 mm
06:38 PM 67.6°F19.8°C 50.4°F10.2°C 54% 2.2 mph N3.5 kmh N 5.3 mph8.5 kmh 30.11 in1019.6 mb 0.00 in0.0 mm 0.00 in0.0 mm 0.00 in0.0 mm
06:39 PM 67.6°F19.8°C 50.4°F10.2°C 54% 2.7 mph WNW4.3 kmh WNW 5.3 mph8.5 kmh 30.11 in1019.6 mb 0.00 in0.0 mm 0.00 in0.0 mm 0.00 in0.0 mm
06:40 PM 67.6°F19.8°C 50.4°F10.2°C 54% 1.1 mph WNW1.8 kmh WNW 5.3 mph8.5 kmh 30.11 in1019.6 mb 0.00 in0.0 mm 0.00 in0.0 mm 0.00 in0.0 mm
06:41 PM 67.6°F19.8°C 50.4°F10.2°C 54% 2.7 mph NW4.3 kmh NW 4.7 mph7.6 kmh 30.11 in1019.6 mb 0.00 in0.0 mm 0.00 in0.0 mm 0.00 in0.0 mm
06:42 PM 67.6°F19.8°C 50.4°F10.2°C 54% 2.2 mph WNW3.5 kmh WNW 4.7 mph7.6 kmh 30.11 in1019.6 mb 0.00 in0.0 mm 0.00 in0.0 mm 0.00 in0.0 mm
06:43 PM 67.5°F19.7°C 50.3°F10.2°C 54% 4.7 mph WNW7.6 kmh WNW 4.7 mph7.6 kmh 30.11 in1019.6 mb 0.00 in0.0 mm 0.00 in0.0 mm 0.00 in0.0 mm
06:44 PM 67.5°F19.7°C 50.3°F10.2°C 54% 3.2 mph WNW5.1 kmh WNW 4.7 mph7.6 kmh 30.11 in1019.6 mb 0.00 in0.0 mm 0.00 in0.0 mm 0.00 in0.0 mm
06:45 PM 67.3°F19.6°C 50.1°F10.1°C 54% 4.2 mph NW6.8 kmh NW 5.3 mph8.5 kmh 30.11 in1019.6 mb 0.00 in0.0 mm 0.00 in0.0 mm 0.00 in0.0 mm
06:46 PM 67.1°F19.5°C 50.4°F10.2°C 55% 2.2 mph N3.5 kmh N 5.3 mph8.5 kmh 30.11 in1019.6 mb 0.00 in0.0 mm 0.00 in0.0 mm 0.00 in0.0 mm
06:47 PM 67.1°F19.5°C 50.4°F10.2°C 55% 3.2 mph WNW5.1 kmh WNW 5.3 mph8.5 kmh 30.11 in1019.6 mb 0.00 in0.0 mm 0.00 in0.0 mm 0.00 in0.0 mm
06:48 PM 67.1°F19.5°C 50.4°F10.2°C 55% 3.7 mph NW6.0 kmh NW 5.3 mph8.5 kmh 30.11 in1019.6 mb 0.00 in0.0 mm 0.00 in0.0 mm 0.00 in0.0 mm
06:49 PM 67.1°F19.5°C 50.4°F10.2°C 55% 3.7 mph WNW6.0 kmh WNW 5.3 mph8.5 kmh 30.11 in1019.6 mb 0.00 in0.0 mm 0.00 in0.0 mm 0.00 in0.0 mm
06:50 PM 67.1°F19.5°C 50.4°F10.2°C 55% 3.2 mph W5.1 kmh W 5.3 mph8.5 kmh 30.11 in1019.6 mb 0.00 in0.0 mm 0.00 in0.0 mm 0.00 in0.0 mm
06:51 PM 67.1°F19.5°C 50.4°F10.2°C 55% 5.3 mph W8.5 kmh W 5.8 mph9.3 kmh 30.11 in1019.6 mb 0.00 in0.0 mm 0.00 in0.0 mm 0.00 in0.0 mm
06:52 PM 67.1°F19.5°C 50.4°F10.2°C 55% 4.7 mph WNW7.6 kmh WNW 5.8 mph9.3 kmh 30.11 in1019.6 mb 0.00 in0.0 mm 0.00 in0.0 mm 0.00 in0.0 mm
06:53 PM 66.9°F19.4°C 50.2°F10.1°C 55% 2.7 mph N4.3 kmh N 5.8 mph9.3 kmh 30.11 in1019.6 mb 0.00 in0.0 mm 0.00 in0.0 mm 0.00 in0.0 mm
06:54 PM 66.9°F19.4°C 50.2°F10.1°C 55% 2.7 mph WNW4.3 kmh WNW 5.8 mph9.3 kmh 30.11 in1019.6 mb 0.00 in0.0 mm 0.00 in0.0 mm 0.00 in0.0 mm
06:55 PM 66.9°F19.4°C 50.2°F10.1°C 55% 2.7 mph NNE4.3 kmh NNE 5.8 mph9.3 kmh 30.12 in1020.0 mb 0.00 in0.0 mm 0.00 in0.0 mm 0.00 in0.0 mm
06:56 PM 66.9°F19.4°C 50.2°F10.1°C 55% 4.2 mph NE6.8 kmh NE 5.8 mph9.3 kmh 30.12 in1020.0 mb 0.00 in0.0 mm 0.00 in0.0 mm 0.00 in0.0 mm
06:57 PM 66.9°F19.4°C 50.2°F10.1°C 55% 2.7 mph WNW4.3 kmh WNW 5.8 mph9.3 kmh 30.12 in1020.0 mb 0.00 in0.0 mm 0.00 in0.0 mm 0.00 in0.0 mm
06:58 PM 66.9°F19.4°C 49.7°F9.8°C 54% 3.2 mph N5.1 kmh N 5.8 mph9.3 kmh 30.12 in1020.0 mb 0.00 in0.0 mm 0.00 in0.0 mm 0.00 in0.0 mm
06:59 PM 66.9°F19.4°C 49.7°F9.8°C 54% 2.7 mph NNE4.3 kmh NNE 5.8 mph9.3 kmh 30.12 in1020.0 mb 0.00 in0.0 mm 0.00 in0.0 mm 0.00 in0.0 mm
07:00 PM 66.9°F19.4°C 49.7°F9.8°C 54% 2.7 mph N4.3 kmh N 5.8 mph9.3 kmh 30.12 in1020.0 mb 0.00 in0.0 mm 0.00 in0.0 mm 0.00 in0.0 mm
07:01 PM 66.9°F19.4°C 49.7°F9.8°C 54% 2.2 mph W3.5 kmh W 4.7 mph7.6 kmh 30.12 in1020.0 mb 0.00 in0.0 mm 0.00 in0.0 mm 0.00 in0.0 mm
07:02 PM 66.7°F19.3°C 50.0°F10.0°C 55% Calm Calm 4.7 mph7.6 kmh 30.12 in1020.0 mb 0.00 in0.0 mm 0.00 in0.0 mm 0.00 in0.0 mm
07:03 PM 66.7°F19.3°C 50.0°F10.0°C 55% 2.7 mph NW4.3 kmh NW 4.7 mph7.6 kmh 30.12 in1020.0 mb 0.00 in0.0 mm 0.00 in0.0 mm 0.00 in0.0 mm
07:04 PM 66.6°F19.2°C 49.9°F9.9°C 55% 1.7 mph W2.7 kmh W 4.7 mph7.6 kmh 30.12 in1020.0 mb 0.00 in0.0 mm 0.00 in0.0 mm 0.00 in0.0 mm
07:05 PM 66.6°F19.2°C 49.9°F9.9°C 55% 2.2 mph NNE3.5 kmh NNE 4.7 mph7.6 kmh 30.12 in1020.0 mb 0.00 in0.0 mm 0.00 in0.0 mm 0.00 in0.0 mm
07:06 PM 66.6°F19.2°C 49.9°F9.9°C 55% 2.7 mph W4.3 kmh W 4.7 mph7.6 kmh 30.12 in1020.0 mb 0.00 in0.0 mm 0.00 in0.0 mm 0.00 in0.0 mm
07:07 PM 66.6°F19.2°C 49.9°F9.9°C 55% 3.2 mph NNW5.1 kmh NNW 4.7 mph7.6 kmh 30.12 in1020.0 mb 0.00 in0.0 mm 0.00 in0.0 mm 0.00 in0.0 mm
07:08 PM 66.4°F19.1°C 49.7°F9.8°C 55% 2.7 mph N4.3 kmh N 4.2 mph6.8 kmh 30.12 in1020.0 mb 0.00 in0.0 mm 0.00 in0.0 mm 0.00 in0.0 mm
07:09 PM 66.4°F19.1°C 49.7°F9.8°C 55% 3.2 mph NNW5.1 kmh NNW 4.7 mph7.6 kmh 30.12 in1020.0 mb 0.00 in0.0 mm 0.00 in0.0 mm 0.00 in0.0 mm
07:10 PM 66.4°F19.1°C 49.7°F9.8°C 55% 3.2 mph N5.1 kmh N 4.7 mph7.6 kmh 30.12 in1020.0 mb 0.00 in0.0 mm 0.00 in0.0 mm 0.00 in0.0 mm
07:11 PM 66.4°F19.1°C 49.7°F9.8°C 55% 2.2 mph NW3.5 kmh NW 4.7 mph7.6 kmh 30.12 in1020.0 mb 0.00 in0.0 mm 0.00 in0.0 mm 0.00 in0.0 mm
07:12 PM 66.4°F19.1°C 49.7°F9.8°C 55% 2.2 mph NNW3.5 kmh NNW 4.7 mph7.6 kmh 30.12 in1020.0 mb 0.00 in0.0 mm 0.00 in0.0 mm 0.00 in0.0 mm
07:13 PM 66.2°F19.0°C 49.5°F9.7°C 55% 3.2 mph WNW5.1 kmh WNW 4.7 mph7.6 kmh 30.12 in1020.0 mb 0.00 in0.0 mm 0.00 in0.0 mm 0.00 in0.0 mm
07:14 PM 66.2°F19.0°C 49.5°F9.7°C 55% 2.2 mph NNW3.5 kmh NNW 4.7 mph7.6 kmh 30.12 in1020.0 mb 0.00 in0.0 mm 0.00 in0.0 mm 0.00 in0.0 mm
07:15 PM 66.2°F19.0°C 49.5°F9.7°C 55% 1.7 mph NNW2.7 kmh NNW 4.7 mph7.6 kmh 30.12 in1020.0 mb 0.00 in0.0 mm 0.00 in0.0 mm 0.00 in0.0 mm
07:16 PM 66.2°F19.0°C 49.5°F9.7°C 55% 2.2 mph S3.5 kmh S 4.7 mph7.6 kmh 30.12 in1020.0 mb 0.00 in0.0 mm 0.00 in0.0 mm 0.00 in0.0 mm
07:17 PM 66.0°F18.9°C 49.4°F9.7°C 55% 1.7 mph SSE2.7 kmh SSE 4.7 mph7.6 kmh 30.12 in1020.0 mb 0.00 in0.0 mm 0.00 in0.0 mm 0.00 in0.0 mm
07:18 PM 66.0°F18.9°C 49.4°F9.7°C 55% Calm Calm 4.7 mph7.6 kmh 30.12 in1020.0 mb 0.00 in0.0 mm 0.00 in0.0 mm 0.00 in0.0 mm
07:19 PM 66.0°F18.9°C 49.4°F9.7°C 55% Calm Calm 3.7 mph6.0 kmh 30.13 in1020.3 mb 0.00 in0.0 mm 0.00 in0.0 mm 0.00 in0.0 mm
07:20 PM 65.8°F18.8°C 49.2°F9.6°C 55% Calm Calm 3.7 mph6.0 kmh 30.13 in1020.3 mb 0.00 in0.0 mm 0.00 in0.0 mm 0.00 in0.0 mm
07:21 PM 65.8°F18.8°C 49.2°F9.6°C 55% Calm Calm 3.7 mph6.0 kmh 30.13 in1020.3 mb 0.00 in0.0 mm 0.00 in0.0 mm 0.00 in0.0 mm
07:22 PM 65.8°F18.8°C 49.2°F9.6°C 55% Calm Calm 3.7 mph6.0 kmh 30.13 in1020.3 mb 0.00 in0.0 mm 0.00 in0.0 mm 0.00 in0.0 mm
07:23 PM 65.7°F18.7°C 49.1°F9.5°C 55% 2.2 mph NW3.5 kmh NW 3.7 mph6.0 kmh 30.13 in1020.3 mb 0.00 in0.0 mm 0.00 in0.0 mm 0.00 in0.0 mm
07:24 PM 65.7°F18.7°C 49.6°F9.8°C 56% Calm Calm 3.7 mph6.0 kmh 30.13 in1020.3 mb 0.00 in0.0 mm 0.00 in0.0 mm 0.00 in0.0 mm
07:25 PM 65.7°F18.7°C 49.6°F9.8°C 56% 3.2 mph W5.1 kmh W 3.7 mph6.0 kmh 30.13 in1020.3 mb 0.00 in0.0 mm 0.00 in0.0 mm 0.00 in0.0 mm
07:26 PM 65.5°F18.6°C 49.4°F9.7°C 56% 3.2 mph NE5.1 kmh NE 3.7 mph6.0 kmh 30.13 in1020.3 mb 0.00 in0.0 mm 0.00 in0.0 mm 0.00 in0.0 mm
07:27 PM 65.5°F18.6°C 49.4°F9.7°C 56% Calm Calm 3.2 mph5.1 kmh 30.13 in1020.3 mb 0.00 in0.0 mm 0.00 in0.0 mm 0.00 in0.0 mm
07:28 PM 65.5°F18.6°C 49.4°F9.7°C 56% Calm Calm 3.2 mph5.1 kmh 30.13 in1020.3 mb 0.00 in0.0 mm 0.00 in0.0 mm 0.00 in0.0 mm
07:29 PM 65.5°F18.6°C 49.4°F9.7°C 56% Calm Calm 3.2 mph5.1 kmh 30.13 in1020.3 mb 0.00 in0.0 mm 0.00 in0.0 mm 0.00 in0.0 mm
07:30 PM 65.3°F18.5°C 49.2°F9.6°C 56% Calm Calm 3.2 mph5.1 kmh 30.13 in1020.3 mb 0.00 in0.0 mm 0.00 in0.0 mm 0.00 in0.0 mm
07:31 PM 65.3°F18.5°C 49.2°F9.6°C 56% Calm Calm 3.2 mph5.1 kmh 30.13 in1020.3 mb 0.00 in0.0 mm 0.00 in0.0 mm 0.00 in0.0 mm
07:32 PM 65.3°F18.5°C 49.2°F9.6°C 56% Calm Calm 3.2 mph5.1 kmh 30.13 in1020.3 mb 0.00 in0.0 mm 0.00 in0.0 mm 0.00 in0.0 mm
07:33 PM 65.1°F18.4°C 49.0°F9.4°C 56% Calm Calm 3.2 mph5.1 kmh 30.13 in1020.3 mb 0.00 in0.0 mm 0.00 in0.0 mm 0.00 in0.0 mm
07:34 PM 65.1°F18.4°C 49.0°F9.4°C 56% Calm Calm 3.2 mph5.1 kmh 30.13 in1020.3 mb 0.00 in0.0 mm 0.00 in0.0 mm 0.00 in0.0 mm
07:35 PM 65.1°F18.4°C 49.0°F9.4°C 56% Calm Calm 3.2 mph5.1 kmh 30.13 in1020.3 mb 0.00 in0.0 mm 0.00 in0.0 mm 0.00 in